<?xml version="1.0" encoding="UTF-8" standalone="no" ?>
<gpx xmlns="http://www.topografix.com/GPX/1/1" xmlns:xsi="http://www.w3.org/2001/XMLSchema-instance" xsi:schemaLocation="http://www.topografix.com/GPX/1/1 http://www.topografix.com/GPX/1/1/gpx.xsd" version="1.1" creator="VisuGPX - https://www.visugpx.com">
  <metadata>
    <name>Tour du Vercors en vélo</name>
    <desc><![CDATA[Tour du Vercors en vélo]]></desc>
  </metadata>
  <trk>
    <name><![CDATA[Tour du Vercors en vélo_3]]></name>
    <trkseg>
      <trkpt lat="44.9365" lon="5.43154">
        <ele>803</ele>
        <time>2019-07-11T19:32:08Z</time>
      </trkpt>
      <trkpt lat="44.9365" lon="5.43154">
        <ele>803</ele>
        <time>2019-07-11T19:32:08Z</time>
      </trkpt>
      <trkpt lat="44.9365" lon="5.43154">
        <ele>803</ele>
        <time>2019-07-11T19:32:08Z</time>
      </trkpt>
      <trkpt lat="44.93645" lon="5.4313">
        <ele>803</ele>
        <time>2019-07-11T19:32:11Z</time>
      </trkpt>
      <trkpt lat="44.93634" lon="5.43105">
        <ele>802</ele>
        <time>2019-07-11T19:32:15Z</time>
      </trkpt>
      <trkpt lat="44.93628" lon="5.43077">
        <ele>802</ele>
        <time>2019-07-11T19:32:20Z</time>
      </trkpt>
      <trkpt lat="44.93637" lon="5.43037">
        <ele>803.4</ele>
        <time>2019-07-11T15:17:24Z</time>
      </trkpt>
      <trkpt lat="44.93882" lon="5.43061">
        <ele>812.6</ele>
        <time>2019-07-11T15:17:33Z</time>
      </trkpt>
      <trkpt lat="44.94082" lon="5.43042">
        <ele>817.3</ele>
        <time>2019-07-11T15:18:36Z</time>
      </trkpt>
      <trkpt lat="44.94292" lon="5.42966">
        <ele>820.7</ele>
        <time>2019-07-11T15:18:45Z</time>
      </trkpt>
      <trkpt lat="44.94403" lon="5.42908">
        <ele>827.7</ele>
        <time>2019-07-11T15:18:50Z</time>
      </trkpt>
      <trkpt lat="44.94625" lon="5.4292">
        <ele>830.3</ele>
        <time>2019-07-11T15:18:53Z</time>
      </trkpt>
      <trkpt lat="44.94901" lon="5.42941">
        <ele>846.3</ele>
        <time>2019-07-11T15:19:12Z</time>
      </trkpt>
      <trkpt lat="44.94952" lon="5.42948">
        <ele>848.9</ele>
        <time>2019-07-11T15:19:18Z</time>
      </trkpt>
      <trkpt lat="44.95027" lon="5.42973">
        <ele>851.2</ele>
        <time>2019-07-11T15:19:21Z</time>
      </trkpt>
      <trkpt lat="44.95084" lon="5.42964">
        <ele>853.9</ele>
        <time>2019-07-11T15:19:25Z</time>
      </trkpt>
      <trkpt lat="44.95148" lon="5.4291">
        <ele>860.3</ele>
        <time>2019-07-11T15:19:31Z</time>
      </trkpt>
      <trkpt lat="44.95195" lon="5.42875">
        <ele>863.1</ele>
        <time>2019-07-11T15:19:43Z</time>
      </trkpt>
      <trkpt lat="44.95272" lon="5.42851">
        <ele>865.7</ele>
        <time>2019-07-11T15:20:00Z</time>
      </trkpt>
      <trkpt lat="44.95392" lon="5.42648">
        <ele>876.9</ele>
        <time>2019-07-11T15:20:12Z</time>
      </trkpt>
      <trkpt lat="44.955" lon="5.42565">
        <ele>881.6</ele>
        <time>2019-07-11T15:20:18Z</time>
      </trkpt>
      <trkpt lat="44.95613" lon="5.42507">
        <ele>877.4</ele>
        <time>2019-07-11T15:20:23Z</time>
      </trkpt>
      <trkpt lat="44.95662" lon="5.42458">
        <ele>875.7</ele>
        <time>2019-07-11T15:20:33Z</time>
      </trkpt>
      <trkpt lat="44.95706" lon="5.42385">
        <ele>870.8</ele>
        <time>2019-07-11T15:20:38Z</time>
      </trkpt>
      <trkpt lat="44.9602" lon="5.42207">
        <ele>869.6</ele>
        <time>2019-07-11T15:20:43Z</time>
      </trkpt>
      <trkpt lat="44.96042" lon="5.42169">
        <ele>870</ele>
        <time>2019-07-11T15:20:48Z</time>
      </trkpt>
      <trkpt lat="44.96052" lon="5.42091">
        <ele>870.4</ele>
        <time>2019-07-11T15:20:54Z</time>
      </trkpt>
      <trkpt lat="44.9609" lon="5.42054">
        <ele>875.2</ele>
        <time>2019-07-11T15:20:59Z</time>
      </trkpt>
      <trkpt lat="44.96226" lon="5.41996">
        <ele>878.4</ele>
        <time>2019-07-11T15:21:04Z</time>
      </trkpt>
      <trkpt lat="44.96288" lon="5.4199">
        <ele>885.7</ele>
        <time>2019-07-11T15:21:09Z</time>
      </trkpt>
      <trkpt lat="44.9637" lon="5.4193">
        <ele>893.5</ele>
        <time>2019-07-11T15:21:18Z</time>
      </trkpt>
      <trkpt lat="44.96453" lon="5.41908">
        <ele>892</ele>
        <time>2019-07-11T15:21:27Z</time>
      </trkpt>
      <trkpt lat="44.96617" lon="5.41895">
        <ele>892.5</ele>
        <time>2019-07-11T15:21:37Z</time>
      </trkpt>
      <trkpt lat="44.96649" lon="5.41874">
        <ele>892.4</ele>
        <time>2019-07-11T15:21:43Z</time>
      </trkpt>
      <trkpt lat="44.96683" lon="5.418">
        <ele>894.5</ele>
        <time>2019-07-11T15:22:00Z</time>
      </trkpt>
      <trkpt lat="44.96739" lon="5.41559">
        <ele>885.2</ele>
        <time>2019-07-11T15:22:05Z</time>
      </trkpt>
      <trkpt lat="44.96568" lon="5.41458">
        <ele>880.7</ele>
        <time>2019-07-11T15:22:20Z</time>
      </trkpt>
      <trkpt lat="44.96513" lon="5.41388">
        <ele>878.9</ele>
        <time>2019-07-11T15:22:23Z</time>
      </trkpt>
      <trkpt lat="44.96498" lon="5.41249">
        <ele>875.2</ele>
        <time>2019-07-11T15:22:25Z</time>
      </trkpt>
      <trkpt lat="44.96392" lon="5.41158">
        <ele>875</ele>
        <time>2019-07-11T15:22:27Z</time>
      </trkpt>
      <trkpt lat="44.96302" lon="5.41057">
        <ele>870</ele>
        <time>2019-07-11T15:22:34Z</time>
      </trkpt>
      <trkpt lat="44.96218" lon="5.40998">
        <ele>864.5</ele>
        <time>2019-07-11T15:22:38Z</time>
      </trkpt>
      <trkpt lat="44.9611" lon="5.40932">
        <ele>861.1</ele>
        <time>2019-07-11T15:22:46Z</time>
      </trkpt>
      <trkpt lat="44.95965" lon="5.40891">
        <ele>858.2</ele>
        <time>2019-07-11T15:23:01Z</time>
      </trkpt>
      <trkpt lat="44.95798" lon="5.40681">
        <ele>867</ele>
        <time>2019-07-11T15:23:07Z</time>
      </trkpt>
      <trkpt lat="44.95753" lon="5.40637">
        <ele>864.9</ele>
        <time>2019-07-11T15:23:16Z</time>
      </trkpt>
      <trkpt lat="44.95622" lon="5.40588">
        <ele>874.4</ele>
        <time>2019-07-11T15:23:26Z</time>
      </trkpt>
      <trkpt lat="44.95556" lon="5.40514">
        <ele>871.2</ele>
        <time>2019-07-11T15:23:36Z</time>
      </trkpt>
      <trkpt lat="44.95507" lon="5.40457">
        <ele>867.2</ele>
        <time>2019-07-11T15:23:47Z</time>
      </trkpt>
      <trkpt lat="44.95416" lon="5.4039">
        <ele>881.7</ele>
        <time>2019-07-11T15:23:52Z</time>
      </trkpt>
      <trkpt lat="44.95353" lon="5.40284">
        <ele>878.8</ele>
        <time>2019-07-11T15:24:03Z</time>
      </trkpt>
      <trkpt lat="44.9525" lon="5.40166">
        <ele>882.7</ele>
        <time>2019-07-11T15:24:08Z</time>
      </trkpt>
      <trkpt lat="44.95196" lon="5.40139">
        <ele>884.7</ele>
        <time>2019-07-11T15:24:21Z</time>
      </trkpt>
      <trkpt lat="44.95151" lon="5.40087">
        <ele>890.1</ele>
        <time>2019-07-11T15:24:30Z</time>
      </trkpt>
      <trkpt lat="44.95116" lon="5.40028">
        <ele>886.7</ele>
        <time>2019-07-11T15:24:36Z</time>
      </trkpt>
      <trkpt lat="44.95036" lon="5.40008">
        <ele>899.7</ele>
        <time>2019-07-11T15:24:48Z</time>
      </trkpt>
      <trkpt lat="44.95003" lon="5.39947">
        <ele>898.2</ele>
        <time>2019-07-11T15:24:57Z</time>
      </trkpt>
      <trkpt lat="44.95001" lon="5.39892">
        <ele>901.6</ele>
        <time>2019-07-11T15:25:16Z</time>
      </trkpt>
      <trkpt lat="44.95064" lon="5.39831">
        <ele>903.3</ele>
        <time>2019-07-11T15:25:45Z</time>
      </trkpt>
      <trkpt lat="44.95051" lon="5.39796">
        <ele>906.1</ele>
        <time>2019-07-11T15:26:03Z</time>
      </trkpt>
      <trkpt lat="44.95006" lon="5.39806">
        <ele>907.3</ele>
        <time>2019-07-11T15:26:17Z</time>
      </trkpt>
      <trkpt lat="44.94959" lon="5.39809">
        <ele>914.5</ele>
        <time>2019-07-11T15:26:24Z</time>
      </trkpt>
      <trkpt lat="44.94901" lon="5.39747">
        <ele>921.6</ele>
        <time>2019-07-11T15:26:28Z</time>
      </trkpt>
      <trkpt lat="44.94896" lon="5.39713">
        <ele>924.6</ele>
        <time>2019-07-11T15:26:32Z</time>
      </trkpt>
      <trkpt lat="44.94929" lon="5.39631">
        <ele>921.9</ele>
        <time>2019-07-11T15:26:36Z</time>
      </trkpt>
      <trkpt lat="44.94919" lon="5.39604">
        <ele>924.4</ele>
        <time>2019-07-11T15:26:41Z</time>
      </trkpt>
      <trkpt lat="44.94901" lon="5.39621">
        <ele>928.1</ele>
        <time>2019-07-11T15:26:46Z</time>
      </trkpt>
      <trkpt lat="44.94729" lon="5.39547">
        <ele>941.4</ele>
        <time>2019-07-11T15:26:51Z</time>
      </trkpt>
      <trkpt lat="44.94682" lon="5.39335">
        <ele>945.9</ele>
        <time>2019-07-11T15:26:58Z</time>
      </trkpt>
      <trkpt lat="44.94625" lon="5.39241">
        <ele>953.3</ele>
        <time>2019-07-11T15:27:02Z</time>
      </trkpt>
      <trkpt lat="44.94551" lon="5.39206">
        <ele>952.3</ele>
        <time>2019-07-11T15:27:09Z</time>
      </trkpt>
      <trkpt lat="44.94534" lon="5.39129">
        <ele>960.2</ele>
        <time>2019-07-11T15:27:15Z</time>
      </trkpt>
      <trkpt lat="44.94576" lon="5.39032">
        <ele>971.4</ele>
        <time>2019-07-11T15:27:19Z</time>
      </trkpt>
      <trkpt lat="44.94497" lon="5.39">
        <ele>976.2</ele>
        <time>2019-07-11T15:27:23Z</time>
      </trkpt>
      <trkpt lat="44.94413" lon="5.38973">
        <ele>991.2</ele>
        <time>2019-07-11T15:27:37Z</time>
      </trkpt>
      <trkpt lat="44.94317" lon="5.38987">
        <ele>998.4</ele>
        <time>2019-07-11T15:27:40Z</time>
      </trkpt>
      <trkpt lat="44.94216" lon="5.38955">
        <ele>1008.5</ele>
        <time>2019-07-11T15:27:46Z</time>
      </trkpt>
      <trkpt lat="44.94186" lon="5.39119">
        <ele>998.1</ele>
        <time>2019-07-11T15:27:50Z</time>
      </trkpt>
      <trkpt lat="44.94144" lon="5.39126">
        <ele>1005.4</ele>
        <time>2019-07-11T15:27:57Z</time>
      </trkpt>
      <trkpt lat="44.9407" lon="5.3906">
        <ele>1015.4</ele>
        <time>2019-07-11T15:28:11Z</time>
      </trkpt>
      <trkpt lat="44.94004" lon="5.39">
        <ele>1018.8</ele>
        <time>2019-07-11T15:28:15Z</time>
      </trkpt>
      <trkpt lat="44.94026" lon="5.38812">
        <ele>1026.8</ele>
        <time>2019-07-11T15:28:21Z</time>
      </trkpt>
      <trkpt lat="44.93999" lon="5.38624">
        <ele>1033.8</ele>
        <time>2019-07-11T15:28:26Z</time>
      </trkpt>
      <trkpt lat="44.9386" lon="5.38471">
        <ele>1048</ele>
        <time>2019-07-11T15:28:38Z</time>
      </trkpt>
      <trkpt lat="44.93823" lon="5.38422">
        <ele>1049.3</ele>
        <time>2019-07-11T15:28:43Z</time>
      </trkpt>
      <trkpt lat="44.93688" lon="5.38394">
        <ele>1052.2</ele>
        <time>2019-07-11T15:29:00Z</time>
      </trkpt>
      <trkpt lat="44.93643" lon="5.38307">
        <ele>1062.7</ele>
        <time>2019-07-11T15:29:18Z</time>
      </trkpt>
      <trkpt lat="44.93582" lon="5.38352">
        <ele>1065.1</ele>
        <time>2019-07-11T15:29:24Z</time>
      </trkpt>
      <trkpt lat="44.9353" lon="5.38429">
        <ele>1060.9</ele>
        <time>2019-07-11T15:29:35Z</time>
      </trkpt>
      <trkpt lat="44.93384" lon="5.38418">
        <ele>1067.9</ele>
        <time>2019-07-11T15:29:51Z</time>
      </trkpt>
      <trkpt lat="44.93231" lon="5.38397">
        <ele>1079.5</ele>
        <time>2019-07-11T15:29:59Z</time>
      </trkpt>
      <trkpt lat="44.93179" lon="5.38404">
        <ele>1082.1</ele>
        <time>2019-07-11T15:30:07Z</time>
      </trkpt>
      <trkpt lat="44.93073" lon="5.38446">
        <ele>1091.6</ele>
        <time>2019-07-11T15:30:11Z</time>
      </trkpt>
      <trkpt lat="44.92888" lon="5.38366">
        <ele>1099.4</ele>
        <time>2019-07-11T15:30:14Z</time>
      </trkpt>
      <trkpt lat="44.92784" lon="5.38241">
        <ele>1098.2</ele>
        <time>2019-07-11T15:30:19Z</time>
      </trkpt>
      <trkpt lat="44.92787" lon="5.38024">
        <ele>1101.8</ele>
        <time>2019-07-11T15:30:22Z</time>
      </trkpt>
      <trkpt lat="44.92666" lon="5.37948">
        <ele>1093.5</ele>
        <time>2019-07-11T15:30:24Z</time>
      </trkpt>
      <trkpt lat="44.92599" lon="5.37875">
        <ele>1104.6</ele>
        <time>2019-07-11T15:30:28Z</time>
      </trkpt>
      <trkpt lat="44.9255" lon="5.3784">
        <ele>1098.2</ele>
        <time>2019-07-11T15:30:37Z</time>
      </trkpt>
      <trkpt lat="44.92348" lon="5.37993">
        <ele>1092.7</ele>
        <time>2019-07-11T15:30:46Z</time>
      </trkpt>
      <trkpt lat="44.92274" lon="5.37979">
        <ele>1088.4</ele>
        <time>2019-07-11T15:30:50Z</time>
      </trkpt>
      <trkpt lat="44.92138" lon="5.37808">
        <ele>1083.8</ele>
        <time>2019-07-11T15:30:59Z</time>
      </trkpt>
      <trkpt lat="44.92081" lon="5.37721">
        <ele>1085.8</ele>
        <time>2019-07-11T15:31:04Z</time>
      </trkpt>
      <trkpt lat="44.91906" lon="5.37746">
        <ele>1081.9</ele>
        <time>2019-07-11T15:31:15Z</time>
      </trkpt>
      <trkpt lat="44.91768" lon="5.3776">
        <ele>1076</ele>
        <time>2019-07-11T15:31:41Z</time>
      </trkpt>
      <trkpt lat="44.91459" lon="5.37658">
        <ele>1064</ele>
        <time>2019-07-11T15:31:46Z</time>
      </trkpt>
      <trkpt lat="44.91234" lon="5.37585">
        <ele>1052.1</ele>
        <time>2019-07-11T15:31:51Z</time>
      </trkpt>
      <trkpt lat="44.91166" lon="5.37556">
        <ele>1051.4</ele>
        <time>2019-07-11T15:31:55Z</time>
      </trkpt>
      <trkpt lat="44.91097" lon="5.37511">
        <ele>1051.9</ele>
        <time>2019-07-11T15:32:00Z</time>
      </trkpt>
      <trkpt lat="44.90964" lon="5.37409">
        <ele>1048.3</ele>
        <time>2019-07-11T15:32:05Z</time>
      </trkpt>
      <trkpt lat="44.9093" lon="5.37372">
        <ele>1048.7</ele>
        <time>2019-07-11T15:32:08Z</time>
      </trkpt>
      <trkpt lat="44.90895" lon="5.3734">
        <ele>1048.3</ele>
        <time>2019-07-11T15:32:18Z</time>
      </trkpt>
      <trkpt lat="44.9083" lon="5.37341">
        <ele>1048.5</ele>
        <time>2019-07-11T15:32:22Z</time>
      </trkpt>
      <trkpt lat="44.90789" lon="5.37379">
        <ele>1047.5</ele>
        <time>2019-07-11T15:32:25Z</time>
      </trkpt>
      <trkpt lat="44.90751" lon="5.37397">
        <ele>1047.8</ele>
        <time>2019-07-11T15:32:28Z</time>
      </trkpt>
      <trkpt lat="44.90565" lon="5.37279">
        <ele>1055.7</ele>
        <time>2019-07-11T15:32:35Z</time>
      </trkpt>
      <trkpt lat="44.90471" lon="5.37222">
        <ele>1060.1</ele>
        <time>2019-07-11T15:32:40Z</time>
      </trkpt>
      <trkpt lat="44.90427" lon="5.37192">
        <ele>1061</ele>
        <time>2019-07-11T15:32:44Z</time>
      </trkpt>
      <trkpt lat="44.90381" lon="5.37177">
        <ele>1061.3</ele>
        <time>2019-07-11T15:32:56Z</time>
      </trkpt>
      <trkpt lat="44.90365" lon="5.37174">
        <ele>1061.5</ele>
        <time>2019-07-11T15:33:05Z</time>
      </trkpt>
      <trkpt lat="44.9036" lon="5.37169">
        <ele>1063</ele>
        <time>2019-07-11T15:33:28Z</time>
      </trkpt>
      <trkpt lat="44.90366" lon="5.37147">
        <ele>1064</ele>
        <time>2019-07-11T15:33:36Z</time>
      </trkpt>
      <trkpt lat="44.90398" lon="5.371">
        <ele>1067</ele>
        <time>2019-07-11T15:42:57Z</time>
      </trkpt>
      <trkpt lat="44.9065" lon="5.36749">
        <ele>1100</ele>
        <time>2019-07-11T15:42:57Z</time>
      </trkpt>
      <trkpt lat="44.9069" lon="5.36701">
        <ele>1108</ele>
        <time>2019-07-11T15:43:02Z</time>
      </trkpt>
      <trkpt lat="44.90714" lon="5.36685">
        <ele>1112</ele>
        <time>2019-07-11T15:43:04Z</time>
      </trkpt>
      <trkpt lat="44.90733" lon="5.36685">
        <ele>1113</ele>
        <time>2019-07-11T15:43:06Z</time>
      </trkpt>
      <trkpt lat="44.9082" lon="5.36774">
        <ele>1114</ele>
        <time>2019-07-11T15:43:11Z</time>
      </trkpt>
      <trkpt lat="44.90843" lon="5.36801">
        <ele>1114</ele>
        <time>2019-07-11T15:43:21Z</time>
      </trkpt>
      <trkpt lat="44.90861" lon="5.36818">
        <ele>1115</ele>
        <time>2019-07-11T15:43:26Z</time>
      </trkpt>
      <trkpt lat="44.90882" lon="5.36826">
        <ele>1117</ele>
        <time>2019-07-11T15:43:52Z</time>
      </trkpt>
      <trkpt lat="44.90914" lon="5.36824">
        <ele>1124</ele>
        <time>2019-07-11T15:43:59Z</time>
      </trkpt>
      <trkpt lat="44.90982" lon="5.36835">
        <ele>1129</ele>
        <time>2019-07-11T15:44:06Z</time>
      </trkpt>
      <trkpt lat="44.91073" lon="5.36879">
        <ele>1136</ele>
        <time>2019-07-11T15:44:10Z</time>
      </trkpt>
      <trkpt lat="44.91138" lon="5.36888">
        <ele>1146</ele>
        <time>2019-07-11T15:44:13Z</time>
      </trkpt>
      <trkpt lat="44.91169" lon="5.36901">
        <ele>1149</ele>
        <time>2019-07-11T15:44:18Z</time>
      </trkpt>
      <trkpt lat="44.91196" lon="5.36921">
        <ele>1153</ele>
        <time>2019-07-11T15:44:23Z</time>
      </trkpt>
      <trkpt lat="44.9123" lon="5.36981">
        <ele>1152</ele>
        <time>2019-07-11T15:44:31Z</time>
      </trkpt>
      <trkpt lat="44.91257" lon="5.37002">
        <ele>1155</ele>
        <time>2019-07-11T15:44:34Z</time>
      </trkpt>
      <trkpt lat="44.91284" lon="5.37011">
        <ele>1157</ele>
        <time>2019-07-11T15:44:40Z</time>
      </trkpt>
      <trkpt lat="44.91312" lon="5.37002">
        <ele>1162</ele>
        <time>2019-07-11T15:44:42Z</time>
      </trkpt>
      <trkpt lat="44.91344" lon="5.36985">
        <ele>1172</ele>
        <time>2019-07-11T15:44:45Z</time>
      </trkpt>
      <trkpt lat="44.91372" lon="5.36978">
        <ele>1179</ele>
        <time>2019-07-11T15:44:54Z</time>
      </trkpt>
      <trkpt lat="44.91397" lon="5.36977">
        <ele>1184</ele>
        <time>2019-07-11T15:44:56Z</time>
      </trkpt>
      <trkpt lat="44.91426" lon="5.36992">
        <ele>1185</ele>
        <time>2019-07-11T15:44:59Z</time>
      </trkpt>
      <trkpt lat="44.91467" lon="5.37027">
        <ele>1187</ele>
        <time>2019-07-11T15:45:03Z</time>
      </trkpt>
      <trkpt lat="44.9151" lon="5.37068">
        <ele>1186</ele>
        <time>2019-07-11T15:45:18Z</time>
      </trkpt>
      <trkpt lat="44.91562" lon="5.37102">
        <ele>1188</ele>
        <time>2019-07-11T15:45:27Z</time>
      </trkpt>
      <trkpt lat="44.91595" lon="5.37112">
        <ele>1192</ele>
        <time>2019-07-11T15:45:29Z</time>
      </trkpt>
      <trkpt lat="44.91686" lon="5.37131">
        <ele>1202</ele>
        <time>2019-07-11T15:45:32Z</time>
      </trkpt>
      <trkpt lat="44.91716" lon="5.37143">
        <ele>1201</ele>
        <time>2019-07-11T15:45:39Z</time>
      </trkpt>
      <trkpt lat="44.91798" lon="5.37163">
        <ele>1201</ele>
        <time>2019-07-11T15:45:42Z</time>
      </trkpt>
      <trkpt lat="44.91813" lon="5.37161">
        <ele>1204</ele>
        <time>2019-07-11T15:45:47Z</time>
      </trkpt>
      <trkpt lat="44.91817" lon="5.37148">
        <ele>1210</ele>
        <time>2019-07-11T15:45:49Z</time>
      </trkpt>
      <trkpt lat="44.91807" lon="5.37138">
        <ele>1214</ele>
        <time>2019-07-11T15:45:52Z</time>
      </trkpt>
      <trkpt lat="44.91768" lon="5.37137">
        <ele>1211</ele>
        <time>2019-07-11T15:45:54Z</time>
      </trkpt>
      <trkpt lat="44.91745" lon="5.3713">
        <ele>1212</ele>
        <time>2019-07-11T15:45:56Z</time>
      </trkpt>
      <trkpt lat="44.91702" lon="5.37099">
        <ele>1218</ele>
        <time>2019-07-11T15:45:59Z</time>
      </trkpt>
      <trkpt lat="44.91626" lon="5.37049">
        <ele>1224</ele>
        <time>2019-07-11T15:46:02Z</time>
      </trkpt>
      <trkpt lat="44.91601" lon="5.37027">
        <ele>1227</ele>
        <time>2019-07-11T15:46:06Z</time>
      </trkpt>
      <trkpt lat="44.91557" lon="5.3698">
        <ele>1232</ele>
        <time>2019-07-11T15:46:09Z</time>
      </trkpt>
      <trkpt lat="44.91519" lon="5.36924">
        <ele>1241</ele>
        <time>2019-07-11T15:46:11Z</time>
      </trkpt>
      <trkpt lat="44.91474" lon="5.36877">
        <ele>1244</ele>
        <time>2019-07-11T15:46:14Z</time>
      </trkpt>
      <trkpt lat="44.91428" lon="5.36826">
        <ele>1245</ele>
        <time>2019-07-11T15:46:16Z</time>
      </trkpt>
      <trkpt lat="44.91406" lon="5.36797">
        <ele>1249</ele>
        <time>2019-07-11T15:46:34Z</time>
      </trkpt>
      <trkpt lat="44.91363" lon="5.36735">
        <ele>1259</ele>
        <time>2019-07-11T15:46:52Z</time>
      </trkpt>
      <trkpt lat="44.91338" lon="5.36709">
        <ele>1260</ele>
        <time>2019-07-11T15:46:58Z</time>
      </trkpt>
      <trkpt lat="44.91281" lon="5.36653">
        <ele>1264</ele>
        <time>2019-07-11T15:47:01Z</time>
      </trkpt>
      <trkpt lat="44.91233" lon="5.36617">
        <ele>1266</ele>
        <time>2019-07-11T15:47:04Z</time>
      </trkpt>
      <trkpt lat="44.91208" lon="5.36585">
        <ele>1272</ele>
        <time>2019-07-11T15:47:10Z</time>
      </trkpt>
      <trkpt lat="44.91152" lon="5.36543">
        <ele>1271</ele>
        <time>2019-07-11T15:47:18Z</time>
      </trkpt>
      <trkpt lat="44.91116" lon="5.36493">
        <ele>1283</ele>
        <time>2019-07-11T15:47:21Z</time>
      </trkpt>
      <trkpt lat="44.91023" lon="5.36413">
        <ele>1290</ele>
        <time>2019-07-11T15:47:24Z</time>
      </trkpt>
      <trkpt lat="44.9088" lon="5.36307">
        <ele>1296</ele>
        <time>2019-07-11T15:47:27Z</time>
      </trkpt>
      <trkpt lat="44.90799" lon="5.36216">
        <ele>1302</ele>
        <time>2019-07-11T15:47:44Z</time>
      </trkpt>
      <trkpt lat="44.90761" lon="5.36117">
        <ele>1317</ele>
        <time>2019-07-11T15:48:00Z</time>
      </trkpt>
      <trkpt lat="44.90735" lon="5.36078">
        <ele>1316</ele>
        <time>2019-07-11T15:48:03Z</time>
      </trkpt>
      <trkpt lat="44.90724" lon="5.36051">
        <ele>1316</ele>
        <time>2019-07-11T15:48:08Z</time>
      </trkpt>
      <trkpt lat="44.90721" lon="5.3602">
        <ele>1320</ele>
        <time>2019-07-11T15:48:17Z</time>
      </trkpt>
      <trkpt lat="44.90726" lon="5.35985">
        <ele>1327</ele>
        <time>2019-07-11T15:48:18Z</time>
      </trkpt>
      <trkpt lat="44.90735" lon="5.35948">
        <ele>1331</ele>
        <time>2019-07-11T15:48:21Z</time>
      </trkpt>
      <trkpt lat="44.90732" lon="5.35912">
        <ele>1333</ele>
        <time>2019-07-11T15:48:38Z</time>
      </trkpt>
      <trkpt lat="44.90733" lon="5.35874">
        <ele>1336</ele>
        <time>2019-07-11T15:48:44Z</time>
      </trkpt>
      <trkpt lat="44.90746" lon="5.35823">
        <ele>1340</ele>
        <time>2019-07-11T15:48:50Z</time>
      </trkpt>
      <trkpt lat="44.90743" lon="5.35792">
        <ele>1342</ele>
        <time>2019-07-11T15:48:55Z</time>
      </trkpt>
      <trkpt lat="44.90724" lon="5.35737">
        <ele>1344</ele>
        <time>2019-07-11T15:48:58Z</time>
      </trkpt>
      <trkpt lat="44.90724" lon="5.3569">
        <ele>1346</ele>
        <time>2019-07-11T15:49:01Z</time>
      </trkpt>
      <trkpt lat="44.90731" lon="5.35661">
        <ele>1347</ele>
        <time>2019-07-11T15:49:11Z</time>
      </trkpt>
      <trkpt lat="44.90744" lon="5.35632">
        <ele>1347</ele>
        <time>2019-07-11T15:49:14Z</time>
      </trkpt>
      <trkpt lat="44.90811" lon="5.35575">
        <ele>1357</ele>
        <time>2019-07-11T15:49:16Z</time>
      </trkpt>
      <trkpt lat="44.90828" lon="5.35574">
        <ele>1360</ele>
        <time>2019-07-11T15:49:23Z</time>
      </trkpt>
      <trkpt lat="44.90859" lon="5.35579">
        <ele>1365</ele>
        <time>2019-07-11T15:49:27Z</time>
      </trkpt>
      <trkpt lat="44.90884" lon="5.35571">
        <ele>1368</ele>
        <time>2019-07-11T15:49:30Z</time>
      </trkpt>
      <trkpt lat="44.9092" lon="5.35555">
        <ele>1371</ele>
        <time>2019-07-11T15:49:37Z</time>
      </trkpt>
      <trkpt lat="44.90995" lon="5.35532">
        <ele>1375</ele>
        <time>2019-07-11T15:49:46Z</time>
      </trkpt>
      <trkpt lat="44.91013" lon="5.35505">
        <ele>1373</ele>
        <time>2019-07-11T15:49:59Z</time>
      </trkpt>
      <trkpt lat="44.91024" lon="5.35463">
        <ele>1372</ele>
        <time>2019-07-11T15:50:01Z</time>
      </trkpt>
      <trkpt lat="44.91023" lon="5.35422">
        <ele>1370</ele>
        <time>2019-07-11T15:50:03Z</time>
      </trkpt>
      <trkpt lat="44.91004" lon="5.35337">
        <ele>1370</ele>
        <time>2019-07-11T15:50:29Z</time>
      </trkpt>
      <trkpt lat="44.91" lon="5.35294">
        <ele>1370</ele>
        <time>2019-07-11T15:50:33Z</time>
      </trkpt>
      <trkpt lat="44.91009" lon="5.3516">
        <ele>1374</ele>
        <time>2019-07-11T15:50:37Z</time>
      </trkpt>
      <trkpt lat="44.9099" lon="5.35019">
        <ele>1374</ele>
        <time>2019-07-11T15:50:46Z</time>
      </trkpt>
      <trkpt lat="44.9099" lon="5.34975">
        <ele>1377</ele>
        <time>2019-07-11T15:50:49Z</time>
      </trkpt>
      <trkpt lat="44.90998" lon="5.34885">
        <ele>1384</ele>
        <time>2019-07-11T15:50:52Z</time>
      </trkpt>
      <trkpt lat="44.90977" lon="5.34764">
        <ele>1389</ele>
        <time>2019-07-11T15:50:57Z</time>
      </trkpt>
      <trkpt lat="44.90972" lon="5.34695">
        <ele>1393</ele>
        <time>2019-07-11T15:51:11Z</time>
      </trkpt>
      <trkpt lat="44.9096" lon="5.34641">
        <ele>1398</ele>
        <time>2019-07-11T15:51:20Z</time>
      </trkpt>
      <trkpt lat="44.9094" lon="5.34622">
        <ele>1399</ele>
        <time>2019-07-11T15:51:23Z</time>
      </trkpt>
      <trkpt lat="44.90923" lon="5.34624">
        <ele>1398</ele>
        <time>2019-07-11T15:51:37Z</time>
      </trkpt>
      <trkpt lat="44.90897" lon="5.34635">
        <ele>1395</ele>
        <time>2019-07-11T15:51:43Z</time>
      </trkpt>
      <trkpt lat="44.90881" lon="5.34637">
        <ele>1395</ele>
        <time>2019-07-11T15:51:50Z</time>
      </trkpt>
      <trkpt lat="44.90865" lon="5.34633">
        <ele>1395</ele>
        <time>2019-07-11T15:51:58Z</time>
      </trkpt>
      <trkpt lat="44.90849" lon="5.34612">
        <ele>1397</ele>
        <time>2019-07-11T15:52:01Z</time>
      </trkpt>
      <trkpt lat="44.90823" lon="5.34557">
        <ele>1402</ele>
        <time>2019-07-11T15:52:06Z</time>
      </trkpt>
      <trkpt lat="44.90781" lon="5.3452">
        <ele>1402</ele>
        <time>2019-07-11T15:52:15Z</time>
      </trkpt>
      <trkpt lat="44.9077" lon="5.34489">
        <ele>1403</ele>
        <time>2019-07-11T15:52:26Z</time>
      </trkpt>
      <trkpt lat="44.90758" lon="5.34416">
        <ele>1407</ele>
        <time>2019-07-11T15:52:36Z</time>
      </trkpt>
      <trkpt lat="44.90741" lon="5.34384">
        <ele>1410</ele>
        <time>2019-07-11T15:52:39Z</time>
      </trkpt>
      <trkpt lat="44.90695" lon="5.34326">
        <ele>1413</ele>
        <time>2019-07-11T15:52:41Z</time>
      </trkpt>
      <trkpt lat="44.90566" lon="5.34241">
        <ele>1417</ele>
        <time>2019-07-11T15:52:44Z</time>
      </trkpt>
      <trkpt lat="44.9054" lon="5.34216">
        <ele>1417</ele>
        <time>2019-07-11T15:52:55Z</time>
      </trkpt>
      <trkpt lat="44.90528" lon="5.34184">
        <ele>1419</ele>
        <time>2019-07-11T15:52:57Z</time>
      </trkpt>
      <trkpt lat="44.9053" lon="5.3415">
        <ele>1420</ele>
        <time>2019-07-11T15:53:09Z</time>
      </trkpt>
      <trkpt lat="44.9054" lon="5.34115">
        <ele>1421</ele>
        <time>2019-07-11T15:53:11Z</time>
      </trkpt>
      <trkpt lat="44.90555" lon="5.34085">
        <ele>1422</ele>
        <time>2019-07-11T15:53:14Z</time>
      </trkpt>
      <trkpt lat="44.90573" lon="5.34078">
        <ele>1424</ele>
        <time>2019-07-11T15:53:25Z</time>
      </trkpt>
      <trkpt lat="44.90627" lon="5.34044">
        <ele>1430</ele>
        <time>2019-07-11T15:53:29Z</time>
      </trkpt>
      <trkpt lat="44.90638" lon="5.34015">
        <ele>1432</ele>
        <time>2019-07-11T15:53:30Z</time>
      </trkpt>
      <trkpt lat="44.90638" lon="5.33996">
        <ele>1433</ele>
        <time>2019-07-11T15:53:31Z</time>
      </trkpt>
      <trkpt lat="44.90629" lon="5.33979">
        <ele>1433</ele>
        <time>2019-07-11T15:53:32Z</time>
      </trkpt>
      <trkpt lat="44.90591" lon="5.33951">
        <ele>1430</ele>
        <time>2019-07-11T15:53:33Z</time>
      </trkpt>
      <trkpt lat="44.90572" lon="5.33921">
        <ele>1430</ele>
        <time>2019-07-11T15:53:34Z</time>
      </trkpt>
      <trkpt lat="44.90567" lon="5.3389">
        <ele>1432</ele>
        <time>2019-07-11T15:53:37Z</time>
      </trkpt>
      <trkpt lat="44.90565" lon="5.33796">
        <ele>1437</ele>
        <time>2019-07-11T15:53:40Z</time>
      </trkpt>
      <trkpt lat="44.90566" lon="5.33728">
        <ele>1438</ele>
        <time>2019-07-11T15:53:42Z</time>
      </trkpt>
      <trkpt lat="44.90586" lon="5.33544">
        <ele>1438</ele>
        <time>2019-07-11T15:53:49Z</time>
      </trkpt>
      <trkpt lat="44.90586" lon="5.33544">
        <ele>1438</ele>
        <time>2019-07-11T15:53:51Z</time>
      </trkpt>
      <trkpt lat="44.9059" lon="5.33531">
        <ele>1437</ele>
        <time>2019-07-11T15:53:53Z</time>
      </trkpt>
      <trkpt lat="44.9059" lon="5.33531">
        <ele>1437</ele>
        <time>2019-07-11T15:53:55Z</time>
      </trkpt>
      <trkpt lat="44.9061" lon="5.33505">
        <ele>1434</ele>
        <time>2019-07-11T15:53:58Z</time>
      </trkpt>
      <trkpt lat="44.90622" lon="5.33497">
        <ele>1433</ele>
        <time>2019-07-11T15:53:59Z</time>
      </trkpt>
      <trkpt lat="44.90633" lon="5.33492">
        <ele>1433</ele>
        <time>2019-07-11T15:54:02Z</time>
      </trkpt>
      <trkpt lat="44.90658" lon="5.33492">
        <ele>1432</ele>
        <time>2019-07-11T15:54:05Z</time>
      </trkpt>
      <trkpt lat="44.90717" lon="5.33497">
        <ele>1433</ele>
        <time>2019-07-11T15:54:15Z</time>
      </trkpt>
      <trkpt lat="44.90745" lon="5.3349">
        <ele>1432</ele>
        <time>2019-07-11T15:54:17Z</time>
      </trkpt>
      <trkpt lat="44.90862" lon="5.33366">
        <ele>1420</ele>
        <time>2019-07-11T15:54:19Z</time>
      </trkpt>
      <trkpt lat="44.90875" lon="5.33318">
        <ele>1418</ele>
        <time>2019-07-11T15:54:23Z</time>
      </trkpt>
      <trkpt lat="44.90897" lon="5.33272">
        <ele>1417</ele>
        <time>2019-07-11T15:54:26Z</time>
      </trkpt>
      <trkpt lat="44.90915" lon="5.33256">
        <ele>1416</ele>
        <time>2019-07-11T15:54:37Z</time>
      </trkpt>
      <trkpt lat="44.90932" lon="5.33261">
        <ele>1415</ele>
        <time>2019-07-11T15:54:45Z</time>
      </trkpt>
      <trkpt lat="44.90963" lon="5.33264">
        <ele>1414</ele>
        <time>2019-07-11T15:54:56Z</time>
      </trkpt>
      <trkpt lat="44.90986" lon="5.33251">
        <ele>1413</ele>
        <time>2019-07-11T15:55:01Z</time>
      </trkpt>
      <trkpt lat="44.91017" lon="5.332">
        <ele>1414</ele>
        <time>2019-07-11T15:55:10Z</time>
      </trkpt>
      <trkpt lat="44.91034" lon="5.33188">
        <ele>1413</ele>
        <time>2019-07-11T15:55:12Z</time>
      </trkpt>
      <trkpt lat="44.91063" lon="5.33172">
        <ele>1412</ele>
        <time>2019-07-11T15:55:22Z</time>
      </trkpt>
      <trkpt lat="44.91071" lon="5.33165">
        <ele>1411</ele>
        <time>2019-07-11T15:55:27Z</time>
      </trkpt>
      <trkpt lat="44.9108" lon="5.33146">
        <ele>1410</ele>
        <time>2019-07-11T15:55:28Z</time>
      </trkpt>
      <trkpt lat="44.91093" lon="5.33077">
        <ele>1409</ele>
        <time>2019-07-11T15:55:31Z</time>
      </trkpt>
      <trkpt lat="44.91094" lon="5.33056">
        <ele>1409</ele>
        <time>2019-07-11T15:55:34Z</time>
      </trkpt>
      <trkpt lat="44.91092" lon="5.33035">
        <ele>1410</ele>
        <time>2019-07-11T15:55:37Z</time>
      </trkpt>
      <trkpt lat="44.91085" lon="5.33006">
        <ele>1409</ele>
        <time>2019-07-11T15:55:43Z</time>
      </trkpt>
      <trkpt lat="44.91049" lon="5.32899">
        <ele>1407</ele>
        <time>2019-07-11T15:55:58Z</time>
      </trkpt>
      <trkpt lat="44.91031" lon="5.32831">
        <ele>1403</ele>
        <time>2019-07-11T15:56:07Z</time>
      </trkpt>
      <trkpt lat="44.91026" lon="5.32816">
        <ele>1403</ele>
        <time>2019-07-11T15:56:16Z</time>
      </trkpt>
      <trkpt lat="44.91015" lon="5.32796">
        <ele>1402</ele>
        <time>2019-07-11T15:56:41Z</time>
      </trkpt>
      <trkpt lat="44.90987" lon="5.32754">
        <ele>1399</ele>
        <time>2019-07-11T15:56:51Z</time>
      </trkpt>
      <trkpt lat="44.90978" lon="5.32737">
        <ele>1397</ele>
        <time>2019-07-11T15:56:58Z</time>
      </trkpt>
      <trkpt lat="44.90967" lon="5.32701">
        <ele>1393</ele>
        <time>2019-07-11T15:57:04Z</time>
      </trkpt>
      <trkpt lat="44.90963" lon="5.32682">
        <ele>1392</ele>
        <time>2019-07-11T15:57:21Z</time>
      </trkpt>
      <trkpt lat="44.90963" lon="5.32664">
        <ele>1391</ele>
        <time>2019-07-11T15:57:27Z</time>
      </trkpt>
      <trkpt lat="44.90966" lon="5.32645">
        <ele>1390</ele>
        <time>2019-07-11T15:57:37Z</time>
      </trkpt>
      <trkpt lat="44.90973" lon="5.3263">
        <ele>1390</ele>
        <time>2019-07-11T15:57:41Z</time>
      </trkpt>
      <trkpt lat="44.90984" lon="5.32613">
        <ele>1389</ele>
        <time>2019-07-11T15:57:43Z</time>
      </trkpt>
      <trkpt lat="44.90992" lon="5.32597">
        <ele>1388</ele>
        <time>2019-07-11T15:57:45Z</time>
      </trkpt>
      <trkpt lat="44.91004" lon="5.32564">
        <ele>1385</ele>
        <time>2019-07-11T15:57:47Z</time>
      </trkpt>
      <trkpt lat="44.91013" lon="5.32547">
        <ele>1383</ele>
        <time>2019-07-11T15:57:53Z</time>
      </trkpt>
      <trkpt lat="44.91022" lon="5.32536">
        <ele>1382</ele>
        <time>2019-07-11T15:57:58Z</time>
      </trkpt>
      <trkpt lat="44.91035" lon="5.32526">
        <ele>1381</ele>
        <time>2019-07-11T15:58:02Z</time>
      </trkpt>
      <trkpt lat="44.91047" lon="5.32522">
        <ele>1380</ele>
        <time>2019-07-11T15:58:16Z</time>
      </trkpt>
      <trkpt lat="44.91147" lon="5.32526">
        <ele>1377</ele>
        <time>2019-07-11T15:58:18Z</time>
      </trkpt>
      <trkpt lat="44.91249" lon="5.32526">
        <ele>1371</ele>
        <time>2019-07-11T15:58:21Z</time>
      </trkpt>
      <trkpt lat="44.91282" lon="5.32519">
        <ele>1368</ele>
        <time>2019-07-11T15:58:32Z</time>
      </trkpt>
      <trkpt lat="44.91299" lon="5.32514">
        <ele>1367</ele>
        <time>2019-07-11T15:58:34Z</time>
      </trkpt>
      <trkpt lat="44.91316" lon="5.32515">
        <ele>1366</ele>
        <time>2019-07-11T15:58:37Z</time>
      </trkpt>
      <trkpt lat="44.91348" lon="5.32527">
        <ele>1365</ele>
        <time>2019-07-11T15:59:02Z</time>
      </trkpt>
      <trkpt lat="44.91392" lon="5.3255">
        <ele>1362</ele>
        <time>2019-07-11T15:59:10Z</time>
      </trkpt>
      <trkpt lat="44.91409" lon="5.32555">
        <ele>1361</ele>
        <time>2019-07-11T15:59:15Z</time>
      </trkpt>
      <trkpt lat="44.91426" lon="5.32554">
        <ele>1359</ele>
        <time>2019-07-11T15:59:19Z</time>
      </trkpt>
      <trkpt lat="44.91441" lon="5.32551">
        <ele>1358</ele>
        <time>2019-07-11T15:59:28Z</time>
      </trkpt>
      <trkpt lat="44.91531" lon="5.32521">
        <ele>1351</ele>
        <time>2019-07-11T15:59:35Z</time>
      </trkpt>
      <trkpt lat="44.91618" lon="5.32484">
        <ele>1342</ele>
        <time>2019-07-11T15:59:40Z</time>
      </trkpt>
      <trkpt lat="44.91636" lon="5.32483">
        <ele>1341</ele>
        <time>2019-07-11T15:59:54Z</time>
      </trkpt>
      <trkpt lat="44.91662" lon="5.32496">
        <ele>1341</ele>
        <time>2019-07-11T15:59:59Z</time>
      </trkpt>
      <trkpt lat="44.91707" lon="5.32529">
        <ele>1342</ele>
        <time>2019-07-11T16:00:04Z</time>
      </trkpt>
      <trkpt lat="44.91715" lon="5.32533">
        <ele>1342</ele>
        <time>2019-07-11T16:00:18Z</time>
      </trkpt>
      <trkpt lat="44.91727" lon="5.32534">
        <ele>1341</ele>
        <time>2019-07-11T16:00:29Z</time>
      </trkpt>
      <trkpt lat="44.91826" lon="5.32511">
        <ele>1328</ele>
        <time>2019-07-11T16:00:33Z</time>
      </trkpt>
      <trkpt lat="44.91858" lon="5.32517">
        <ele>1326</ele>
        <time>2019-07-11T16:00:37Z</time>
      </trkpt>
      <trkpt lat="44.91892" lon="5.32527">
        <ele>1324</ele>
        <time>2019-07-11T16:00:42Z</time>
      </trkpt>
      <trkpt lat="44.91921" lon="5.32528">
        <ele>1322</ele>
        <time>2019-07-11T16:00:58Z</time>
      </trkpt>
      <trkpt lat="44.91936" lon="5.32525">
        <ele>1321</ele>
        <time>2019-07-11T16:01:05Z</time>
      </trkpt>
      <trkpt lat="44.9195" lon="5.32519">
        <ele>1320</ele>
        <time>2019-07-11T16:01:14Z</time>
      </trkpt>
      <trkpt lat="44.92" lon="5.32481">
        <ele>1313</ele>
        <time>2019-07-11T16:01:20Z</time>
      </trkpt>
      <trkpt lat="44.9201" lon="5.32465">
        <ele>1312</ele>
        <time>2019-07-11T16:01:23Z</time>
      </trkpt>
      <trkpt lat="44.92018" lon="5.32446">
        <ele>1310</ele>
        <time>2019-07-11T16:01:25Z</time>
      </trkpt>
      <trkpt lat="44.92037" lon="5.32401">
        <ele>1306</ele>
        <time>2019-07-11T16:01:30Z</time>
      </trkpt>
      <trkpt lat="44.92053" lon="5.32383">
        <ele>1304</ele>
        <time>2019-07-11T16:01:41Z</time>
      </trkpt>
      <trkpt lat="44.9207" lon="5.32377">
        <ele>1303</ele>
        <time>2019-07-11T16:01:47Z</time>
      </trkpt>
      <trkpt lat="44.92113" lon="5.32383">
        <ele>1302</ele>
        <time>2019-07-11T16:01:52Z</time>
      </trkpt>
      <trkpt lat="44.92162" lon="5.324">
        <ele>1302</ele>
        <time>2019-07-11T16:01:59Z</time>
      </trkpt>
      <trkpt lat="44.92229" lon="5.3244">
        <ele>1299</ele>
        <time>2019-07-11T16:02:05Z</time>
      </trkpt>
      <trkpt lat="44.9224" lon="5.32444">
        <ele>1298</ele>
        <time>2019-07-11T16:02:07Z</time>
      </trkpt>
      <trkpt lat="44.92252" lon="5.32445">
        <ele>1297</ele>
        <time>2019-07-11T16:02:07Z</time>
      </trkpt>
      <trkpt lat="44.92398" lon="5.32436">
        <ele>1291</ele>
        <time>2019-07-11T16:02:12Z</time>
      </trkpt>
      <trkpt lat="44.92415" lon="5.32439">
        <ele>1290</ele>
        <time>2019-07-11T16:02:24Z</time>
      </trkpt>
      <trkpt lat="44.9244" lon="5.32449">
        <ele>1289</ele>
        <time>2019-07-11T16:02:43Z</time>
      </trkpt>
      <trkpt lat="44.92483" lon="5.32476">
        <ele>1289</ele>
        <time>2019-07-11T16:02:47Z</time>
      </trkpt>
      <trkpt lat="44.925" lon="5.32485">
        <ele>1289</ele>
        <time>2019-07-11T16:02:52Z</time>
      </trkpt>
      <trkpt lat="44.9252" lon="5.32492">
        <ele>1288</ele>
        <time>2019-07-11T16:03:21Z</time>
      </trkpt>
      <trkpt lat="44.92545" lon="5.32493">
        <ele>1286</ele>
        <time>2019-07-11T16:03:25Z</time>
      </trkpt>
      <trkpt lat="44.92621" lon="5.3247">
        <ele>1275</ele>
        <time>2019-07-11T16:03:35Z</time>
      </trkpt>
      <trkpt lat="44.92673" lon="5.32485">
        <ele>1274</ele>
        <time>2019-07-11T16:03:43Z</time>
      </trkpt>
      <trkpt lat="44.9269" lon="5.32475">
        <ele>1275</ele>
        <time>2019-07-11T16:04:16Z</time>
      </trkpt>
      <trkpt lat="44.92746" lon="5.32403">
        <ele>1266</ele>
        <time>2019-07-11T16:04:28Z</time>
      </trkpt>
      <trkpt lat="44.92771" lon="5.32365">
        <ele>1262</ele>
        <time>2019-07-11T16:04:38Z</time>
      </trkpt>
      <trkpt lat="44.92798" lon="5.32334">
        <ele>1259</ele>
        <time>2019-07-11T16:04:41Z</time>
      </trkpt>
      <trkpt lat="44.92839" lon="5.32296">
        <ele>1254</ele>
        <time>2019-07-11T16:04:45Z</time>
      </trkpt>
      <trkpt lat="44.92852" lon="5.32287">
        <ele>1253</ele>
        <time>2019-07-11T16:04:50Z</time>
      </trkpt>
      <trkpt lat="44.92882" lon="5.32275">
        <ele>1253</ele>
        <time>2019-07-11T16:05:02Z</time>
      </trkpt>
      <trkpt lat="44.9293" lon="5.32262">
        <ele>1252</ele>
        <time>2019-07-11T16:05:06Z</time>
      </trkpt>
      <trkpt lat="44.92988" lon="5.32241">
        <ele>1246</ele>
        <time>2019-07-11T16:05:15Z</time>
      </trkpt>
      <trkpt lat="44.93042" lon="5.32228">
        <ele>1240</ele>
        <time>2019-07-11T16:05:26Z</time>
      </trkpt>
      <trkpt lat="44.9306" lon="5.32233">
        <ele>1239</ele>
        <time>2019-07-11T16:05:31Z</time>
      </trkpt>
      <trkpt lat="44.93073" lon="5.32242">
        <ele>1239</ele>
        <time>2019-07-11T16:05:35Z</time>
      </trkpt>
      <trkpt lat="44.93085" lon="5.32254">
        <ele>1240</ele>
        <time>2019-07-11T16:05:42Z</time>
      </trkpt>
      <trkpt lat="44.93126" lon="5.32316">
        <ele>1243</ele>
        <time>2019-07-11T16:05:45Z</time>
      </trkpt>
      <trkpt lat="44.9314" lon="5.32326">
        <ele>1243</ele>
        <time>2019-07-11T16:05:47Z</time>
      </trkpt>
      <trkpt lat="44.93202" lon="5.32343">
        <ele>1239</ele>
        <time>2019-07-11T16:05:51Z</time>
      </trkpt>
      <trkpt lat="44.93217" lon="5.32345">
        <ele>1238</ele>
        <time>2019-07-11T16:05:53Z</time>
      </trkpt>
      <trkpt lat="44.93234" lon="5.32345">
        <ele>1235</ele>
        <time>2019-07-11T16:05:56Z</time>
      </trkpt>
      <trkpt lat="44.93293" lon="5.32337">
        <ele>1225</ele>
        <time>2019-07-11T16:05:59Z</time>
      </trkpt>
      <trkpt lat="44.93315" lon="5.32345">
        <ele>1225</ele>
        <time>2019-07-11T16:06:05Z</time>
      </trkpt>
      <trkpt lat="44.93321" lon="5.32344">
        <ele>1224</ele>
        <time>2019-07-11T16:06:21Z</time>
      </trkpt>
      <trkpt lat="44.93325" lon="5.32341">
        <ele>1222</ele>
        <time>2019-07-11T16:06:27Z</time>
      </trkpt>
      <trkpt lat="44.93325" lon="5.32335">
        <ele>1220</ele>
        <time>2019-07-11T16:06:37Z</time>
      </trkpt>
      <trkpt lat="44.93322" lon="5.32328">
        <ele>1218</ele>
        <time>2019-07-11T16:06:43Z</time>
      </trkpt>
      <trkpt lat="44.93318" lon="5.32324">
        <ele>1217</ele>
        <time>2019-07-11T16:06:50Z</time>
      </trkpt>
      <trkpt lat="44.933" lon="5.32317">
        <ele>1218</ele>
        <time>2019-07-11T16:07:39Z</time>
      </trkpt>
      <trkpt lat="44.93283" lon="5.32313">
        <ele>1219</ele>
        <time>2019-07-11T16:07:55Z</time>
      </trkpt>
      <trkpt lat="44.9327" lon="5.32313">
        <ele>1221</ele>
        <time>2019-07-11T16:08:06Z</time>
      </trkpt>
      <trkpt lat="44.93232" lon="5.32318">
        <ele>1227</ele>
        <time>2019-07-11T16:08:13Z</time>
      </trkpt>
      <trkpt lat="44.93219" lon="5.32317">
        <ele>1229</ele>
        <time>2019-07-11T16:08:17Z</time>
      </trkpt>
      <trkpt lat="44.93208" lon="5.32315">
        <ele>1230</ele>
        <time>2019-07-11T16:08:22Z</time>
      </trkpt>
      <trkpt lat="44.93197" lon="5.32309">
        <ele>1230</ele>
        <time>2019-07-11T16:08:34Z</time>
      </trkpt>
      <trkpt lat="44.93187" lon="5.323">
        <ele>1229</ele>
        <time>2019-07-11T16:08:41Z</time>
      </trkpt>
      <trkpt lat="44.9318" lon="5.32289">
        <ele>1227</ele>
        <time>2019-07-11T16:08:49Z</time>
      </trkpt>
      <trkpt lat="44.93173" lon="5.32274">
        <ele>1224</ele>
        <time>2019-07-11T16:08:52Z</time>
      </trkpt>
      <trkpt lat="44.93165" lon="5.32251">
        <ele>1219</ele>
        <time>2019-07-11T16:08:54Z</time>
      </trkpt>
      <trkpt lat="44.93153" lon="5.32175">
        <ele>1209</ele>
        <time>2019-07-11T16:09:08Z</time>
      </trkpt>
      <trkpt lat="44.93148" lon="5.32159">
        <ele>1207</ele>
        <time>2019-07-11T16:09:21Z</time>
      </trkpt>
      <trkpt lat="44.9314" lon="5.32144">
        <ele>1207</ele>
        <time>2019-07-11T16:09:35Z</time>
      </trkpt>
      <trkpt lat="44.93123" lon="5.3213">
        <ele>1207</ele>
        <time>2019-07-11T16:09:47Z</time>
      </trkpt>
      <trkpt lat="44.93106" lon="5.32119">
        <ele>1208</ele>
        <time>2019-07-11T16:10:07Z</time>
      </trkpt>
      <trkpt lat="44.93049" lon="5.32089">
        <ele>1207</ele>
        <time>2019-07-11T16:10:25Z</time>
      </trkpt>
      <trkpt lat="44.93006" lon="5.32078">
        <ele>1208</ele>
        <time>2019-07-11T16:10:30Z</time>
      </trkpt>
      <trkpt lat="44.92944" lon="5.32068">
        <ele>1204</ele>
        <time>2019-07-11T16:10:35Z</time>
      </trkpt>
      <trkpt lat="44.92913" lon="5.32068">
        <ele>1203</ele>
        <time>2019-07-11T16:10:48Z</time>
      </trkpt>
      <trkpt lat="44.92868" lon="5.32082">
        <ele>1201</ele>
        <time>2019-07-11T16:10:54Z</time>
      </trkpt>
      <trkpt lat="44.92853" lon="5.32089">
        <ele>1201</ele>
        <time>2019-07-11T16:11:00Z</time>
      </trkpt>
      <trkpt lat="44.92801" lon="5.32121">
        <ele>1209</ele>
        <time>2019-07-11T16:11:07Z</time>
      </trkpt>
      <trkpt lat="44.92778" lon="5.32122">
        <ele>1211</ele>
        <time>2019-07-11T16:11:19Z</time>
      </trkpt>
      <trkpt lat="44.92773" lon="5.32115">
        <ele>1211</ele>
        <time>2019-07-11T16:11:24Z</time>
      </trkpt>
      <trkpt lat="44.92766" lon="5.32091">
        <ele>1212</ele>
        <time>2019-07-11T16:11:30Z</time>
      </trkpt>
      <trkpt lat="44.92773" lon="5.3207">
        <ele>1213</ele>
        <time>2019-07-11T16:11:32Z</time>
      </trkpt>
      <trkpt lat="44.92784" lon="5.32047">
        <ele>1213</ele>
        <time>2019-07-11T16:11:34Z</time>
      </trkpt>
      <trkpt lat="44.92803" lon="5.32017">
        <ele>1211</ele>
        <time>2019-07-11T16:11:44Z</time>
      </trkpt>
      <trkpt lat="44.92874" lon="5.31942">
        <ele>1207</ele>
        <time>2019-07-11T16:11:47Z</time>
      </trkpt>
      <trkpt lat="44.9292" lon="5.31915">
        <ele>1201</ele>
        <time>2019-07-11T16:11:52Z</time>
      </trkpt>
      <trkpt lat="44.92967" lon="5.31892">
        <ele>1203</ele>
        <time>2019-07-11T16:11:58Z</time>
      </trkpt>
      <trkpt lat="44.93108" lon="5.31884">
        <ele>1197</ele>
        <time>2019-07-11T16:12:01Z</time>
      </trkpt>
      <trkpt lat="44.93162" lon="5.31898">
        <ele>1190</ele>
        <time>2019-07-11T16:12:07Z</time>
      </trkpt>
      <trkpt lat="44.93199" lon="5.31877">
        <ele>1187</ele>
        <time>2019-07-11T16:12:13Z</time>
      </trkpt>
      <trkpt lat="44.93225" lon="5.31847">
        <ele>1186</ele>
        <time>2019-07-11T16:12:17Z</time>
      </trkpt>
      <trkpt lat="44.93276" lon="5.31737">
        <ele>1191</ele>
        <time>2019-07-11T16:12:26Z</time>
      </trkpt>
      <trkpt lat="44.93308" lon="5.31708">
        <ele>1188</ele>
        <time>2019-07-11T16:12:36Z</time>
      </trkpt>
      <trkpt lat="44.93361" lon="5.31687">
        <ele>1179</ele>
        <time>2019-07-11T16:12:43Z</time>
      </trkpt>
      <trkpt lat="44.93375" lon="5.31664">
        <ele>1178</ele>
        <time>2019-07-11T16:12:47Z</time>
      </trkpt>
      <trkpt lat="44.93379" lon="5.31652">
        <ele>1177</ele>
        <time>2019-07-11T16:12:51Z</time>
      </trkpt>
      <trkpt lat="44.93379" lon="5.31636">
        <ele>1176</ele>
        <time>2019-07-11T16:13:12Z</time>
      </trkpt>
      <trkpt lat="44.93375" lon="5.31615">
        <ele>1176</ele>
        <time>2019-07-11T16:13:15Z</time>
      </trkpt>
      <trkpt lat="44.93354" lon="5.31578">
        <ele>1182</ele>
        <time>2019-07-11T16:13:17Z</time>
      </trkpt>
      <trkpt lat="44.93346" lon="5.31546">
        <ele>1185</ele>
        <time>2019-07-11T16:13:20Z</time>
      </trkpt>
      <trkpt lat="44.93351" lon="5.31512">
        <ele>1184</ele>
        <time>2019-07-11T16:13:25Z</time>
      </trkpt>
      <trkpt lat="44.93382" lon="5.3141">
        <ele>1184</ele>
        <time>2019-07-11T16:13:28Z</time>
      </trkpt>
      <trkpt lat="44.93394" lon="5.31399">
        <ele>1183</ele>
        <time>2019-07-11T16:13:30Z</time>
      </trkpt>
      <trkpt lat="44.93407" lon="5.31391">
        <ele>1182</ele>
        <time>2019-07-11T16:13:34Z</time>
      </trkpt>
      <trkpt lat="44.93467" lon="5.31378">
        <ele>1178</ele>
        <time>2019-07-11T16:13:44Z</time>
      </trkpt>
      <trkpt lat="44.9348" lon="5.31371">
        <ele>1178</ele>
        <time>2019-07-11T16:13:55Z</time>
      </trkpt>
      <trkpt lat="44.93491" lon="5.31356">
        <ele>1178</ele>
        <time>2019-07-11T16:14:07Z</time>
      </trkpt>
      <trkpt lat="44.93511" lon="5.31159">
        <ele>1184</ele>
        <time>2019-07-11T16:14:11Z</time>
      </trkpt>
      <trkpt lat="44.93502" lon="5.31099">
        <ele>1180</ele>
        <time>2019-07-11T16:14:19Z</time>
      </trkpt>
      <trkpt lat="44.93495" lon="5.31063">
        <ele>1178</ele>
        <time>2019-07-11T16:14:27Z</time>
      </trkpt>
      <trkpt lat="44.93485" lon="5.31029">
        <ele>1177</ele>
        <time>2019-07-11T16:14:33Z</time>
      </trkpt>
      <trkpt lat="44.93455" lon="5.30973">
        <ele>1177</ele>
        <time>2019-07-11T16:14:37Z</time>
      </trkpt>
      <trkpt lat="44.93434" lon="5.30926">
        <ele>1176</ele>
        <time>2019-07-11T16:14:46Z</time>
      </trkpt>
      <trkpt lat="44.93446" lon="5.3089">
        <ele>1175</ele>
        <time>2019-07-11T16:14:57Z</time>
      </trkpt>
      <trkpt lat="44.93482" lon="5.30795">
        <ele>1174</ele>
        <time>2019-07-11T16:15:01Z</time>
      </trkpt>
      <trkpt lat="44.93504" lon="5.3077">
        <ele>1172</ele>
        <time>2019-07-11T16:15:04Z</time>
      </trkpt>
      <trkpt lat="44.93533" lon="5.30751">
        <ele>1169</ele>
        <time>2019-07-11T16:15:08Z</time>
      </trkpt>
      <trkpt lat="44.93604" lon="5.30715">
        <ele>1163</ele>
        <time>2019-07-11T16:15:10Z</time>
      </trkpt>
      <trkpt lat="44.93664" lon="5.30679">
        <ele>1162</ele>
        <time>2019-07-11T16:15:12Z</time>
      </trkpt>
      <trkpt lat="44.93685" lon="5.3068">
        <ele>1161</ele>
        <time>2019-07-11T16:15:14Z</time>
      </trkpt>
      <trkpt lat="44.93704" lon="5.30689">
        <ele>1160</ele>
        <time>2019-07-11T16:15:16Z</time>
      </trkpt>
      <trkpt lat="44.93732" lon="5.30707">
        <ele>1159</ele>
        <time>2019-07-11T16:15:23Z</time>
      </trkpt>
      <trkpt lat="44.93805" lon="5.30783">
        <ele>1155</ele>
        <time>2019-07-11T16:15:39Z</time>
      </trkpt>
      <trkpt lat="44.93833" lon="5.30819">
        <ele>1153</ele>
        <time>2019-07-11T16:15:49Z</time>
      </trkpt>
      <trkpt lat="44.93865" lon="5.30879">
        <ele>1153</ele>
        <time>2019-07-11T16:16:05Z</time>
      </trkpt>
      <trkpt lat="44.93886" lon="5.30909">
        <ele>1152</ele>
        <time>2019-07-11T16:16:17Z</time>
      </trkpt>
      <trkpt lat="44.93902" lon="5.30913">
        <ele>1151</ele>
        <time>2019-07-11T16:16:29Z</time>
      </trkpt>
      <trkpt lat="44.93918" lon="5.30911">
        <ele>1150</ele>
        <time>2019-07-11T16:16:46Z</time>
      </trkpt>
      <trkpt lat="44.93943" lon="5.30903">
        <ele>1147</ele>
        <time>2019-07-11T16:17:04Z</time>
      </trkpt>
      <trkpt lat="44.93995" lon="5.30863">
        <ele>1143</ele>
        <time>2019-07-11T16:17:09Z</time>
      </trkpt>
      <trkpt lat="44.94028" lon="5.30856">
        <ele>1141</ele>
        <time>2019-07-11T16:17:14Z</time>
      </trkpt>
      <trkpt lat="44.94058" lon="5.30865">
        <ele>1138</ele>
        <time>2019-07-11T16:17:21Z</time>
      </trkpt>
      <trkpt lat="44.94096" lon="5.30882">
        <ele>1133</ele>
        <time>2019-07-11T16:17:26Z</time>
      </trkpt>
      <trkpt lat="44.94129" lon="5.30894">
        <ele>1129</ele>
        <time>2019-07-11T16:17:47Z</time>
      </trkpt>
      <trkpt lat="44.94133" lon="5.30883">
        <ele>1131</ele>
        <time>2019-07-11T16:17:50Z</time>
      </trkpt>
      <trkpt lat="44.94136" lon="5.30881">
        <ele>1131</ele>
        <time>2019-07-11T16:17:52Z</time>
      </trkpt>
      <trkpt lat="44.94164" lon="5.30883">
        <ele>1129</ele>
        <time>2019-07-11T16:18:00Z</time>
      </trkpt>
      <trkpt lat="44.94232" lon="5.30879">
        <ele>1131</ele>
        <time>2019-07-11T16:18:05Z</time>
      </trkpt>
      <trkpt lat="44.94335" lon="5.30883">
        <ele>1136</ele>
        <time>2019-07-11T16:18:09Z</time>
      </trkpt>
      <trkpt lat="44.94357" lon="5.30887">
        <ele>1137</ele>
        <time>2019-07-11T16:18:17Z</time>
      </trkpt>
      <trkpt lat="44.94385" lon="5.30906">
        <ele>1136</ele>
        <time>2019-07-11T16:18:30Z</time>
      </trkpt>
      <trkpt lat="44.94536" lon="5.30995">
        <ele>1143</ele>
        <time>2019-07-11T16:18:55Z</time>
      </trkpt>
      <trkpt lat="44.94556" lon="5.31004">
        <ele>1143</ele>
        <time>2019-07-11T16:19:04Z</time>
      </trkpt>
      <trkpt lat="44.94613" lon="5.31022">
        <ele>1144</ele>
        <time>2019-07-11T16:19:16Z</time>
      </trkpt>
      <trkpt lat="44.94656" lon="5.3102">
        <ele>1148</ele>
        <time>2019-07-11T16:19:19Z</time>
      </trkpt>
      <trkpt lat="44.94839" lon="5.30986">
        <ele>1158</ele>
        <time>2019-07-11T16:19:22Z</time>
      </trkpt>
      <trkpt lat="44.94905" lon="5.30951">
        <ele>1165</ele>
        <time>2019-07-11T16:19:29Z</time>
      </trkpt>
      <trkpt lat="44.94951" lon="5.30912">
        <ele>1172</ele>
        <time>2019-07-11T16:19:32Z</time>
      </trkpt>
      <trkpt lat="44.94969" lon="5.30902">
        <ele>1172</ele>
        <time>2019-07-11T16:19:34Z</time>
      </trkpt>
      <trkpt lat="44.94991" lon="5.309">
        <ele>1170</ele>
        <time>2019-07-11T16:19:37Z</time>
      </trkpt>
      <trkpt lat="44.95016" lon="5.30904">
        <ele>1168</ele>
        <time>2019-07-11T16:19:50Z</time>
      </trkpt>
      <trkpt lat="44.95082" lon="5.3088">
        <ele>1167</ele>
        <time>2019-07-11T16:19:53Z</time>
      </trkpt>
      <trkpt lat="44.95102" lon="5.3087">
        <ele>1167</ele>
        <time>2019-07-11T16:20:09Z</time>
      </trkpt>
      <trkpt lat="44.95146" lon="5.30831">
        <ele>1171</ele>
        <time>2019-07-11T16:20:17Z</time>
      </trkpt>
      <trkpt lat="44.95202" lon="5.30797">
        <ele>1175</ele>
        <time>2019-07-11T16:20:30Z</time>
      </trkpt>
      <trkpt lat="44.95226" lon="5.30776">
        <ele>1177</ele>
        <time>2019-07-11T16:20:41Z</time>
      </trkpt>
      <trkpt lat="44.95243" lon="5.30756">
        <ele>1179</ele>
        <time>2019-07-11T16:20:50Z</time>
      </trkpt>
      <trkpt lat="44.9527" lon="5.30713">
        <ele>1185</ele>
        <time>2019-07-11T16:21:01Z</time>
      </trkpt>
      <trkpt lat="44.95282" lon="5.307">
        <ele>1186</ele>
        <time>2019-07-11T16:21:13Z</time>
      </trkpt>
      <trkpt lat="44.95295" lon="5.30692">
        <ele>1185</ele>
        <time>2019-07-11T16:21:30Z</time>
      </trkpt>
      <trkpt lat="44.95313" lon="5.30685">
        <ele>1184</ele>
        <time>2019-07-11T16:21:33Z</time>
      </trkpt>
      <trkpt lat="44.95327" lon="5.30678">
        <ele>1182</ele>
        <time>2019-07-11T16:21:36Z</time>
      </trkpt>
      <trkpt lat="44.9534" lon="5.30667">
        <ele>1182</ele>
        <time>2019-07-11T16:21:39Z</time>
      </trkpt>
      <trkpt lat="44.95351" lon="5.30652">
        <ele>1184</ele>
        <time>2019-07-11T16:21:47Z</time>
      </trkpt>
      <trkpt lat="44.95369" lon="5.30612">
        <ele>1187</ele>
        <time>2019-07-11T16:21:54Z</time>
      </trkpt>
      <trkpt lat="44.95428" lon="5.3051">
        <ele>1188</ele>
        <time>2019-07-11T16:21:57Z</time>
      </trkpt>
      <trkpt lat="44.95451" lon="5.30478">
        <ele>1188</ele>
        <time>2019-07-11T16:21:59Z</time>
      </trkpt>
      <trkpt lat="44.95496" lon="5.30426">
        <ele>1186</ele>
        <time>2019-07-11T16:22:01Z</time>
      </trkpt>
      <trkpt lat="44.95518" lon="5.3039">
        <ele>1186</ele>
        <time>2019-07-11T16:22:04Z</time>
      </trkpt>
      <trkpt lat="44.95538" lon="5.30343">
        <ele>1188</ele>
        <time>2019-07-11T16:22:07Z</time>
      </trkpt>
      <trkpt lat="44.95669" lon="5.3">
        <ele>1194</ele>
        <time>2019-07-11T16:22:16Z</time>
      </trkpt>
      <trkpt lat="44.95705" lon="5.29885">
        <ele>1194</ele>
        <time>2019-07-11T16:22:28Z</time>
      </trkpt>
      <trkpt lat="44.95723" lon="5.29798">
        <ele>1194</ele>
        <time>2019-07-11T16:22:38Z</time>
      </trkpt>
      <trkpt lat="44.95729" lon="5.29749">
        <ele>1192</ele>
        <time>2019-07-11T16:22:42Z</time>
      </trkpt>
      <trkpt lat="44.95727" lon="5.29716">
        <ele>1191</ele>
        <time>2019-07-11T16:22:44Z</time>
      </trkpt>
      <trkpt lat="44.95721" lon="5.29674">
        <ele>1191</ele>
        <time>2019-07-11T16:22:46Z</time>
      </trkpt>
      <trkpt lat="44.95695" lon="5.29586">
        <ele>1192</ele>
        <time>2019-07-11T16:22:49Z</time>
      </trkpt>
      <trkpt lat="44.95683" lon="5.29539">
        <ele>1191</ele>
        <time>2019-07-11T16:22:51Z</time>
      </trkpt>
      <trkpt lat="44.95672" lon="5.29471">
        <ele>1184</ele>
        <time>2019-07-11T16:22:54Z</time>
      </trkpt>
      <trkpt lat="44.95663" lon="5.29458">
        <ele>1183</ele>
        <time>2019-07-11T16:22:58Z</time>
      </trkpt>
      <trkpt lat="44.9565" lon="5.29449">
        <ele>1183</ele>
        <time>2019-07-11T16:23:03Z</time>
      </trkpt>
      <trkpt lat="44.95579" lon="5.29415">
        <ele>1179</ele>
        <time>2019-07-11T16:23:25Z</time>
      </trkpt>
      <trkpt lat="44.95511" lon="5.29379">
        <ele>1175</ele>
        <time>2019-07-11T16:23:30Z</time>
      </trkpt>
      <trkpt lat="44.95437" lon="5.29328">
        <ele>1169</ele>
        <time>2019-07-11T16:23:45Z</time>
      </trkpt>
      <trkpt lat="44.95378" lon="5.29284">
        <ele>1162</ele>
        <time>2019-07-11T16:23:49Z</time>
      </trkpt>
      <trkpt lat="44.95271" lon="5.29229">
        <ele>1152</ele>
        <time>2019-07-11T16:23:53Z</time>
      </trkpt>
      <trkpt lat="44.95174" lon="5.2919">
        <ele>1151</ele>
        <time>2019-07-11T16:23:56Z</time>
      </trkpt>
      <trkpt lat="44.9515" lon="5.29172">
        <ele>1150</ele>
        <time>2019-07-11T16:24:03Z</time>
      </trkpt>
      <trkpt lat="44.95128" lon="5.29144">
        <ele>1146</ele>
        <time>2019-07-11T16:24:05Z</time>
      </trkpt>
      <trkpt lat="44.95073" lon="5.2908">
        <ele>1135</ele>
        <time>2019-07-11T16:24:07Z</time>
      </trkpt>
      <trkpt lat="44.95044" lon="5.2905">
        <ele>1129</ele>
        <time>2019-07-11T16:24:11Z</time>
      </trkpt>
      <trkpt lat="44.95018" lon="5.29032">
        <ele>1127</ele>
        <time>2019-07-11T16:24:22Z</time>
      </trkpt>
      <trkpt lat="44.94977" lon="5.29014">
        <ele>1124</ele>
        <time>2019-07-11T16:24:28Z</time>
      </trkpt>
      <trkpt lat="44.94914" lon="5.28993">
        <ele>1120</ele>
        <time>2019-07-11T16:24:32Z</time>
      </trkpt>
      <trkpt lat="44.94884" lon="5.28978">
        <ele>1122</ele>
        <time>2019-07-11T16:24:36Z</time>
      </trkpt>
      <trkpt lat="44.94857" lon="5.2896">
        <ele>1121</ele>
        <time>2019-07-11T16:24:40Z</time>
      </trkpt>
      <trkpt lat="44.94847" lon="5.2895">
        <ele>1121</ele>
        <time>2019-07-11T16:24:43Z</time>
      </trkpt>
      <trkpt lat="44.94842" lon="5.28932">
        <ele>1117</ele>
        <time>2019-07-11T16:24:47Z</time>
      </trkpt>
      <trkpt lat="44.94833" lon="5.2886">
        <ele>1108</ele>
        <time>2019-07-11T16:24:50Z</time>
      </trkpt>
      <trkpt lat="44.94824" lon="5.28835">
        <ele>1106</ele>
        <time>2019-07-11T16:25:06Z</time>
      </trkpt>
      <trkpt lat="44.9481" lon="5.28804">
        <ele>1105</ele>
        <time>2019-07-11T16:25:29Z</time>
      </trkpt>
      <trkpt lat="44.94785" lon="5.28767">
        <ele>1101</ele>
        <time>2019-07-11T16:25:32Z</time>
      </trkpt>
      <trkpt lat="44.9477" lon="5.28752">
        <ele>1099</ele>
        <time>2019-07-11T16:25:35Z</time>
      </trkpt>
      <trkpt lat="44.9474" lon="5.28736">
        <ele>1100</ele>
        <time>2019-07-11T16:25:42Z</time>
      </trkpt>
      <trkpt lat="44.9471" lon="5.28729">
        <ele>1103</ele>
        <time>2019-07-11T16:25:45Z</time>
      </trkpt>
      <trkpt lat="44.94684" lon="5.28717">
        <ele>1104</ele>
        <time>2019-07-11T16:25:48Z</time>
      </trkpt>
      <trkpt lat="44.94643" lon="5.28685">
        <ele>1101</ele>
        <time>2019-07-11T16:25:50Z</time>
      </trkpt>
      <trkpt lat="44.94592" lon="5.28654">
        <ele>1100</ele>
        <time>2019-07-11T16:25:59Z</time>
      </trkpt>
      <trkpt lat="44.94554" lon="5.28633">
        <ele>1101</ele>
        <time>2019-07-11T16:26:16Z</time>
      </trkpt>
      <trkpt lat="44.94532" lon="5.28627">
        <ele>1101</ele>
        <time>2019-07-11T16:26:19Z</time>
      </trkpt>
      <trkpt lat="44.94508" lon="5.28625">
        <ele>1102</ele>
        <time>2019-07-11T16:26:22Z</time>
      </trkpt>
      <trkpt lat="44.94392" lon="5.28644">
        <ele>1107</ele>
        <time>2019-07-11T16:26:25Z</time>
      </trkpt>
      <trkpt lat="44.94376" lon="5.2864">
        <ele>1108</ele>
        <time>2019-07-11T16:26:28Z</time>
      </trkpt>
      <trkpt lat="44.94362" lon="5.28632">
        <ele>1109</ele>
        <time>2019-07-11T16:26:32Z</time>
      </trkpt>
      <trkpt lat="44.94352" lon="5.2862">
        <ele>1108</ele>
        <time>2019-07-11T16:26:36Z</time>
      </trkpt>
      <trkpt lat="44.94333" lon="5.28586">
        <ele>1107</ele>
        <time>2019-07-11T16:26:40Z</time>
      </trkpt>
      <trkpt lat="44.94321" lon="5.28569">
        <ele>1107</ele>
        <time>2019-07-11T16:26:46Z</time>
      </trkpt>
      <trkpt lat="44.94311" lon="5.28559">
        <ele>1106</ele>
        <time>2019-07-11T16:26:49Z</time>
      </trkpt>
      <trkpt lat="44.94295" lon="5.2855">
        <ele>1106</ele>
        <time>2019-07-11T16:26:57Z</time>
      </trkpt>
      <trkpt lat="44.9424" lon="5.28529">
        <ele>1106</ele>
        <time>2019-07-11T16:27:00Z</time>
      </trkpt>
      <trkpt lat="44.94179" lon="5.28515">
        <ele>1111</ele>
        <time>2019-07-11T16:27:05Z</time>
      </trkpt>
      <trkpt lat="44.9411" lon="5.2851">
        <ele>1113</ele>
        <time>2019-07-11T16:27:10Z</time>
      </trkpt>
      <trkpt lat="44.94086" lon="5.28511">
        <ele>1115</ele>
        <time>2019-07-11T16:27:13Z</time>
      </trkpt>
      <trkpt lat="44.94041" lon="5.28522">
        <ele>1117</ele>
        <time>2019-07-11T16:27:16Z</time>
      </trkpt>
      <trkpt lat="44.94001" lon="5.28536">
        <ele>1121</ele>
        <time>2019-07-11T16:27:19Z</time>
      </trkpt>
      <trkpt lat="44.93967" lon="5.28553">
        <ele>1123</ele>
        <time>2019-07-11T16:27:30Z</time>
      </trkpt>
      <trkpt lat="44.93946" lon="5.28571">
        <ele>1125</ele>
        <time>2019-07-11T16:27:35Z</time>
      </trkpt>
      <trkpt lat="44.93909" lon="5.28619">
        <ele>1131</ele>
        <time>2019-07-11T16:27:39Z</time>
      </trkpt>
      <trkpt lat="44.93861" lon="5.28667">
        <ele>1130</ele>
        <time>2019-07-11T16:27:42Z</time>
      </trkpt>
      <trkpt lat="44.93844" lon="5.28688">
        <ele>1130</ele>
        <time>2019-07-11T16:27:46Z</time>
      </trkpt>
      <trkpt lat="44.93832" lon="5.28709">
        <ele>1132</ele>
        <time>2019-07-11T16:27:51Z</time>
      </trkpt>
      <trkpt lat="44.93822" lon="5.28736">
        <ele>1136</ele>
        <time>2019-07-11T16:28:02Z</time>
      </trkpt>
      <trkpt lat="44.93814" lon="5.28751">
        <ele>1139</ele>
        <time>2019-07-11T16:28:07Z</time>
      </trkpt>
      <trkpt lat="44.93806" lon="5.28758">
        <ele>1141</ele>
        <time>2019-07-11T16:28:10Z</time>
      </trkpt>
      <trkpt lat="44.93797" lon="5.2876">
        <ele>1141</ele>
        <time>2019-07-11T16:28:14Z</time>
      </trkpt>
      <trkpt lat="44.93782" lon="5.28759">
        <ele>1142</ele>
        <time>2019-07-11T16:28:18Z</time>
      </trkpt>
      <trkpt lat="44.93745" lon="5.28746">
        <ele>1142</ele>
        <time>2019-07-11T16:28:22Z</time>
      </trkpt>
      <trkpt lat="44.93664" lon="5.28695">
        <ele>1149</ele>
        <time>2019-07-11T16:28:32Z</time>
      </trkpt>
      <trkpt lat="44.93611" lon="5.28676">
        <ele>1152</ele>
        <time>2019-07-11T16:28:39Z</time>
      </trkpt>
      <trkpt lat="44.9352" lon="5.28669">
        <ele>1155</ele>
        <time>2019-07-11T16:28:44Z</time>
      </trkpt>
      <trkpt lat="44.93453" lon="5.28677">
        <ele>1159</ele>
        <time>2019-07-11T16:28:48Z</time>
      </trkpt>
      <trkpt lat="44.93386" lon="5.28697">
        <ele>1163</ele>
        <time>2019-07-11T16:28:55Z</time>
      </trkpt>
      <trkpt lat="44.93298" lon="5.28741">
        <ele>1168</ele>
        <time>2019-07-11T16:29:01Z</time>
      </trkpt>
      <trkpt lat="44.93203" lon="5.288">
        <ele>1172</ele>
        <time>2019-07-11T16:29:05Z</time>
      </trkpt>
      <trkpt lat="44.93177" lon="5.28819">
        <ele>1172</ele>
        <time>2019-07-11T16:29:12Z</time>
      </trkpt>
      <trkpt lat="44.93155" lon="5.28844">
        <ele>1174</ele>
        <time>2019-07-11T16:29:19Z</time>
      </trkpt>
      <trkpt lat="44.93132" lon="5.28883">
        <ele>1177</ele>
        <time>2019-07-11T16:29:29Z</time>
      </trkpt>
      <trkpt lat="44.93108" lon="5.28912">
        <ele>1178</ele>
        <time>2019-07-11T16:29:45Z</time>
      </trkpt>
      <trkpt lat="44.93015" lon="5.29009">
        <ele>1187</ele>
        <time>2019-07-11T16:29:54Z</time>
      </trkpt>
      <trkpt lat="44.92999" lon="5.29015">
        <ele>1186</ele>
        <time>2019-07-11T16:30:00Z</time>
      </trkpt>
      <trkpt lat="44.92985" lon="5.29015">
        <ele>1187</ele>
        <time>2019-07-11T16:30:06Z</time>
      </trkpt>
      <trkpt lat="44.92945" lon="5.28994">
        <ele>1187</ele>
        <time>2019-07-11T16:30:23Z</time>
      </trkpt>
      <trkpt lat="44.92917" lon="5.28985">
        <ele>1187</ele>
        <time>2019-07-11T16:30:28Z</time>
      </trkpt>
      <trkpt lat="44.92894" lon="5.28982">
        <ele>1190</ele>
        <time>2019-07-11T16:30:32Z</time>
      </trkpt>
      <trkpt lat="44.92853" lon="5.28984">
        <ele>1194</ele>
        <time>2019-07-11T16:30:35Z</time>
      </trkpt>
      <trkpt lat="44.92776" lon="5.28996">
        <ele>1200</ele>
        <time>2019-07-11T16:30:39Z</time>
      </trkpt>
      <trkpt lat="44.92637" lon="5.29027">
        <ele>1215</ele>
        <time>2019-07-11T16:30:52Z</time>
      </trkpt>
      <trkpt lat="44.92591" lon="5.29032">
        <ele>1219</ele>
        <time>2019-07-11T16:31:16Z</time>
      </trkpt>
      <trkpt lat="44.92519" lon="5.29036">
        <ele>1219</ele>
        <time>2019-07-11T16:31:43Z</time>
      </trkpt>
      <trkpt lat="44.92503" lon="5.2904">
        <ele>1219</ele>
        <time>2019-07-11T16:31:49Z</time>
      </trkpt>
      <trkpt lat="44.92488" lon="5.29051">
        <ele>1221</ele>
        <time>2019-07-11T16:32:02Z</time>
      </trkpt>
      <trkpt lat="44.92464" lon="5.29088">
        <ele>1228</ele>
        <time>2019-07-11T16:32:07Z</time>
      </trkpt>
      <trkpt lat="44.92449" lon="5.29102">
        <ele>1232</ele>
        <time>2019-07-11T16:32:12Z</time>
      </trkpt>
      <trkpt lat="44.92436" lon="5.29108">
        <ele>1234</ele>
        <time>2019-07-11T16:32:17Z</time>
      </trkpt>
      <trkpt lat="44.92421" lon="5.29108">
        <ele>1235</ele>
        <time>2019-07-11T16:32:28Z</time>
      </trkpt>
      <trkpt lat="44.92348" lon="5.29093">
        <ele>1239</ele>
        <time>2019-07-11T16:32:34Z</time>
      </trkpt>
      <trkpt lat="44.92333" lon="5.29095">
        <ele>1241</ele>
        <time>2019-07-11T16:32:38Z</time>
      </trkpt>
      <trkpt lat="44.92244" lon="5.29117">
        <ele>1250</ele>
        <time>2019-07-11T16:32:42Z</time>
      </trkpt>
      <trkpt lat="44.92201" lon="5.29133">
        <ele>1253</ele>
        <time>2019-07-11T16:32:45Z</time>
      </trkpt>
      <trkpt lat="44.92134" lon="5.2917">
        <ele>1258</ele>
        <time>2019-07-11T16:32:49Z</time>
      </trkpt>
      <trkpt lat="44.9207" lon="5.29195">
        <ele>1263</ele>
        <time>2019-07-11T16:32:52Z</time>
      </trkpt>
      <trkpt lat="44.92025" lon="5.2922">
        <ele>1269</ele>
        <time>2019-07-11T16:32:57Z</time>
      </trkpt>
      <trkpt lat="44.91966" lon="5.29246">
        <ele>1273</ele>
        <time>2019-07-11T16:33:01Z</time>
      </trkpt>
      <trkpt lat="44.91901" lon="5.29254">
        <ele>1275</ele>
        <time>2019-07-11T16:33:06Z</time>
      </trkpt>
      <trkpt lat="44.91803" lon="5.29259">
        <ele>1283</ele>
        <time>2019-07-11T16:33:23Z</time>
      </trkpt>
      <trkpt lat="44.91785" lon="5.29258">
        <ele>1286</ele>
        <time>2019-07-11T16:33:29Z</time>
      </trkpt>
      <trkpt lat="44.9177" lon="5.29251">
        <ele>1288</ele>
        <time>2019-07-11T16:33:51Z</time>
      </trkpt>
      <trkpt lat="44.91757" lon="5.2924">
        <ele>1289</ele>
        <time>2019-07-11T16:34:11Z</time>
      </trkpt>
      <trkpt lat="44.91724" lon="5.29195">
        <ele>1291</ele>
        <time>2019-07-11T16:34:17Z</time>
      </trkpt>
      <trkpt lat="44.91694" lon="5.2916">
        <ele>1294</ele>
        <time>2019-07-11T16:34:24Z</time>
      </trkpt>
      <trkpt lat="44.9168" lon="5.29141">
        <ele>1297</ele>
        <time>2019-07-11T16:34:37Z</time>
      </trkpt>
      <trkpt lat="44.91675" lon="5.29125">
        <ele>1298</ele>
        <time>2019-07-11T16:34:54Z</time>
      </trkpt>
      <trkpt lat="44.91674" lon="5.29109">
        <ele>1299</ele>
        <time>2019-07-11T16:35:06Z</time>
      </trkpt>
      <trkpt lat="44.91677" lon="5.29091">
        <ele>1299</ele>
        <time>2019-07-11T16:35:15Z</time>
      </trkpt>
      <trkpt lat="44.91688" lon="5.29072">
        <ele>1300</ele>
        <time>2019-07-11T16:35:18Z</time>
      </trkpt>
      <trkpt lat="44.91727" lon="5.29026">
        <ele>1302</ele>
        <time>2019-07-11T16:35:20Z</time>
      </trkpt>
      <trkpt lat="44.91782" lon="5.28965">
        <ele>1304</ele>
        <time>2019-07-11T16:35:22Z</time>
      </trkpt>
      <trkpt lat="44.91832" lon="5.2893">
        <ele>1300</ele>
        <time>2019-07-11T16:35:25Z</time>
      </trkpt>
      <trkpt lat="44.91845" lon="5.2891">
        <ele>1296</ele>
        <time>2019-07-11T16:35:29Z</time>
      </trkpt>
      <trkpt lat="44.9185" lon="5.28893">
        <ele>1291</ele>
        <time>2019-07-11T16:35:42Z</time>
      </trkpt>
      <trkpt lat="44.9185" lon="5.28874">
        <ele>1287</ele>
        <time>2019-07-11T16:35:45Z</time>
      </trkpt>
      <trkpt lat="44.91847" lon="5.28854">
        <ele>1285</ele>
        <time>2019-07-11T16:35:47Z</time>
      </trkpt>
      <trkpt lat="44.91841" lon="5.2884">
        <ele>1286</ele>
        <time>2019-07-11T16:35:49Z</time>
      </trkpt>
      <trkpt lat="44.91829" lon="5.28825">
        <ele>1286</ele>
        <time>2019-07-11T16:35:52Z</time>
      </trkpt>
      <trkpt lat="44.91809" lon="5.28812">
        <ele>1286</ele>
        <time>2019-07-11T16:35:55Z</time>
      </trkpt>
      <trkpt lat="44.9178" lon="5.28799">
        <ele>1289</ele>
        <time>2019-07-11T16:36:00Z</time>
      </trkpt>
      <trkpt lat="44.91662" lon="5.28769">
        <ele>1295</ele>
        <time>2019-07-11T16:36:04Z</time>
      </trkpt>
      <trkpt lat="44.91634" lon="5.28755">
        <ele>1294</ele>
        <time>2019-07-11T16:36:06Z</time>
      </trkpt>
      <trkpt lat="44.9156" lon="5.28703">
        <ele>1286</ele>
        <time>2019-07-11T16:36:08Z</time>
      </trkpt>
      <trkpt lat="44.91537" lon="5.28693">
        <ele>1284</ele>
        <time>2019-07-11T16:36:10Z</time>
      </trkpt>
      <trkpt lat="44.91516" lon="5.28689">
        <ele>1283</ele>
        <time>2019-07-11T16:36:11Z</time>
      </trkpt>
      <trkpt lat="44.91499" lon="5.28689">
        <ele>1283</ele>
        <time>2019-07-11T16:36:22Z</time>
      </trkpt>
      <trkpt lat="44.91461" lon="5.287">
        <ele>1288</ele>
        <time>2019-07-11T16:36:55Z</time>
      </trkpt>
      <trkpt lat="44.91446" lon="5.28699">
        <ele>1288</ele>
        <time>2019-07-11T16:37:01Z</time>
      </trkpt>
      <trkpt lat="44.91435" lon="5.28693">
        <ele>1287</ele>
        <time>2019-07-11T16:37:37Z</time>
      </trkpt>
      <trkpt lat="44.91421" lon="5.28675">
        <ele>1283</ele>
        <time>2019-07-11T16:37:44Z</time>
      </trkpt>
      <trkpt lat="44.91382" lon="5.28608">
        <ele>1276</ele>
        <time>2019-07-11T16:37:57Z</time>
      </trkpt>
      <trkpt lat="44.91358" lon="5.28576">
        <ele>1274</ele>
        <time>2019-07-11T16:38:04Z</time>
      </trkpt>
      <trkpt lat="44.91337" lon="5.28552">
        <ele>1274</ele>
        <time>2019-07-11T16:38:22Z</time>
      </trkpt>
      <trkpt lat="44.91319" lon="5.28537">
        <ele>1273</ele>
        <time>2019-07-11T16:38:29Z</time>
      </trkpt>
      <trkpt lat="44.91299" lon="5.28527">
        <ele>1272</ele>
        <time>2019-07-11T16:38:49Z</time>
      </trkpt>
      <trkpt lat="44.91282" lon="5.28522">
        <ele>1272</ele>
        <time>2019-07-11T16:38:54Z</time>
      </trkpt>
      <trkpt lat="44.91261" lon="5.28521">
        <ele>1273</ele>
        <time>2019-07-11T16:38:59Z</time>
      </trkpt>
      <trkpt lat="44.91243" lon="5.28524">
        <ele>1274</ele>
        <time>2019-07-11T16:39:06Z</time>
      </trkpt>
      <trkpt lat="44.91155" lon="5.28553">
        <ele>1272</ele>
        <time>2019-07-11T16:39:17Z</time>
      </trkpt>
      <trkpt lat="44.91024" lon="5.28575">
        <ele>1271</ele>
        <time>2019-07-11T16:39:19Z</time>
      </trkpt>
      <trkpt lat="44.91008" lon="5.2858">
        <ele>1271</ele>
        <time>2019-07-11T16:39:21Z</time>
      </trkpt>
      <trkpt lat="44.90993" lon="5.2859">
        <ele>1272</ele>
        <time>2019-07-11T16:39:24Z</time>
      </trkpt>
      <trkpt lat="44.90962" lon="5.28617">
        <ele>1275</ele>
        <time>2019-07-11T16:39:26Z</time>
      </trkpt>
      <trkpt lat="44.90945" lon="5.28628">
        <ele>1276</ele>
        <time>2019-07-11T16:39:29Z</time>
      </trkpt>
      <trkpt lat="44.90931" lon="5.28631">
        <ele>1275</ele>
        <time>2019-07-11T16:39:33Z</time>
      </trkpt>
      <trkpt lat="44.90919" lon="5.28627">
        <ele>1274</ele>
        <time>2019-07-11T16:39:36Z</time>
      </trkpt>
      <trkpt lat="44.90873" lon="5.28598">
        <ele>1269</ele>
        <time>2019-07-11T16:39:39Z</time>
      </trkpt>
      <trkpt lat="44.90782" lon="5.28552">
        <ele>1270</ele>
        <time>2019-07-11T16:39:43Z</time>
      </trkpt>
      <trkpt lat="44.9077" lon="5.28539">
        <ele>1270</ele>
        <time>2019-07-11T16:39:47Z</time>
      </trkpt>
      <trkpt lat="44.90757" lon="5.2852">
        <ele>1271</ele>
        <time>2019-07-11T16:39:54Z</time>
      </trkpt>
      <trkpt lat="44.9075" lon="5.28498">
        <ele>1271</ele>
        <time>2019-07-11T16:39:59Z</time>
      </trkpt>
      <trkpt lat="44.90748" lon="5.28472">
        <ele>1272</ele>
        <time>2019-07-11T16:40:10Z</time>
      </trkpt>
      <trkpt lat="44.90749" lon="5.28443">
        <ele>1272</ele>
        <time>2019-07-11T16:40:16Z</time>
      </trkpt>
      <trkpt lat="44.90756" lon="5.28413">
        <ele>1273</ele>
        <time>2019-07-11T16:40:23Z</time>
      </trkpt>
      <trkpt lat="44.9077" lon="5.28389">
        <ele>1273</ele>
        <time>2019-07-11T16:40:28Z</time>
      </trkpt>
      <trkpt lat="44.90794" lon="5.28357">
        <ele>1273</ele>
        <time>2019-07-11T16:40:40Z</time>
      </trkpt>
      <trkpt lat="44.90806" lon="5.28333">
        <ele>1274</ele>
        <time>2019-07-11T16:41:05Z</time>
      </trkpt>
      <trkpt lat="44.90821" lon="5.2828">
        <ele>1281</ele>
        <time>2019-07-11T16:41:33Z</time>
      </trkpt>
      <trkpt lat="44.90832" lon="5.28255">
        <ele>1284</ele>
        <time>2019-07-11T16:41:38Z</time>
      </trkpt>
      <trkpt lat="44.90849" lon="5.28231">
        <ele>1287</ele>
        <time>2019-07-11T16:41:51Z</time>
      </trkpt>
      <trkpt lat="44.90876" lon="5.28206">
        <ele>1289</ele>
        <time>2019-07-11T16:41:54Z</time>
      </trkpt>
      <trkpt lat="44.90888" lon="5.28188">
        <ele>1291</ele>
        <time>2019-07-11T16:41:57Z</time>
      </trkpt>
      <trkpt lat="44.90893" lon="5.28168">
        <ele>1294</ele>
        <time>2019-07-11T16:42:07Z</time>
      </trkpt>
      <trkpt lat="44.90893" lon="5.28145">
        <ele>1296</ele>
        <time>2019-07-11T16:42:10Z</time>
      </trkpt>
      <trkpt lat="44.90883" lon="5.28063">
        <ele>1303</ele>
        <time>2019-07-11T16:42:28Z</time>
      </trkpt>
      <trkpt lat="44.90879" lon="5.28021">
        <ele>1307</ele>
        <time>2019-07-11T16:42:34Z</time>
      </trkpt>
      <trkpt lat="44.90881" lon="5.27988">
        <ele>1309</ele>
        <time>2019-07-11T16:42:38Z</time>
      </trkpt>
      <trkpt lat="44.90887" lon="5.27965">
        <ele>1310</ele>
        <time>2019-07-11T16:42:40Z</time>
      </trkpt>
      <trkpt lat="44.90898" lon="5.27942">
        <ele>1310</ele>
        <time>2019-07-11T16:42:43Z</time>
      </trkpt>
      <trkpt lat="44.90918" lon="5.27913">
        <ele>1309</ele>
        <time>2019-07-11T16:42:45Z</time>
      </trkpt>
      <trkpt lat="44.9097" lon="5.27858">
        <ele>1310</ele>
        <time>2019-07-11T16:42:47Z</time>
      </trkpt>
      <trkpt lat="44.90986" lon="5.27832">
        <ele>1310</ele>
        <time>2019-07-11T16:42:49Z</time>
      </trkpt>
      <trkpt lat="44.90994" lon="5.27805">
        <ele>1313</ele>
        <time>2019-07-11T16:42:50Z</time>
      </trkpt>
      <trkpt lat="44.90993" lon="5.27776">
        <ele>1316</ele>
        <time>2019-07-11T16:42:51Z</time>
      </trkpt>
      <trkpt lat="44.90987" lon="5.27743">
        <ele>1320</ele>
        <time>2019-07-11T16:42:53Z</time>
      </trkpt>
      <trkpt lat="44.90975" lon="5.27719">
        <ele>1320</ele>
        <time>2019-07-11T16:42:58Z</time>
      </trkpt>
      <trkpt lat="44.90929" lon="5.2767">
        <ele>1324</ele>
        <time>2019-07-11T16:43:00Z</time>
      </trkpt>
      <trkpt lat="44.90896" lon="5.27642">
        <ele>1322</ele>
        <time>2019-07-11T16:43:03Z</time>
      </trkpt>
      <trkpt lat="44.90871" lon="5.27627">
        <ele>1320</ele>
        <time>2019-07-11T16:43:06Z</time>
      </trkpt>
      <trkpt lat="44.90847" lon="5.27623">
        <ele>1319</ele>
        <time>2019-07-11T16:43:09Z</time>
      </trkpt>
      <trkpt lat="44.9081" lon="5.27622">
        <ele>1320</ele>
        <time>2019-07-11T16:43:12Z</time>
      </trkpt>
      <trkpt lat="44.90778" lon="5.27626">
        <ele>1322</ele>
        <time>2019-07-11T16:43:18Z</time>
      </trkpt>
      <trkpt lat="44.90751" lon="5.27621">
        <ele>1323</ele>
        <time>2019-07-11T16:43:25Z</time>
      </trkpt>
      <trkpt lat="44.90713" lon="5.27609">
        <ele>1321</ele>
        <time>2019-07-11T16:43:34Z</time>
      </trkpt>
      <trkpt lat="44.90679" lon="5.27589">
        <ele>1317</ele>
        <time>2019-07-11T16:43:38Z</time>
      </trkpt>
      <trkpt lat="44.90632" lon="5.27544">
        <ele>1314</ele>
        <time>2019-07-11T16:43:47Z</time>
      </trkpt>
      <trkpt lat="44.90561" lon="5.27461">
        <ele>1310</ele>
        <time>2019-07-11T16:43:51Z</time>
      </trkpt>
      <trkpt lat="44.90523" lon="5.27422">
        <ele>1309</ele>
        <time>2019-07-11T16:44:02Z</time>
      </trkpt>
      <trkpt lat="44.90492" lon="5.27396">
        <ele>1308</ele>
        <time>2019-07-11T16:44:06Z</time>
      </trkpt>
      <trkpt lat="44.90466" lon="5.27362">
        <ele>1306</ele>
        <time>2019-07-11T16:44:09Z</time>
      </trkpt>
      <trkpt lat="44.90409" lon="5.27259">
        <ele>1299</ele>
        <time>2019-07-11T16:44:12Z</time>
      </trkpt>
      <trkpt lat="44.90389" lon="5.27235">
        <ele>1296</ele>
        <time>2019-07-11T16:44:15Z</time>
      </trkpt>
      <trkpt lat="44.90369" lon="5.27218">
        <ele>1295</ele>
        <time>2019-07-11T16:44:25Z</time>
      </trkpt>
      <trkpt lat="44.90352" lon="5.2721">
        <ele>1295</ele>
        <time>2019-07-11T16:44:26Z</time>
      </trkpt>
      <trkpt lat="44.90327" lon="5.27205">
        <ele>1295</ele>
        <time>2019-07-11T16:44:27Z</time>
      </trkpt>
      <trkpt lat="44.90257" lon="5.27198">
        <ele>1291</ele>
        <time>2019-07-11T16:44:29Z</time>
      </trkpt>
      <trkpt lat="44.90121" lon="5.27202">
        <ele>1282</ele>
        <time>2019-07-11T16:44:32Z</time>
      </trkpt>
      <trkpt lat="44.89972" lon="5.27183">
        <ele>1265</ele>
        <time>2019-07-11T16:44:37Z</time>
      </trkpt>
      <trkpt lat="44.89935" lon="5.27184">
        <ele>1264</ele>
        <time>2019-07-11T16:44:40Z</time>
      </trkpt>
      <trkpt lat="44.89867" lon="5.27201">
        <ele>1263</ele>
        <time>2019-07-11T16:44:50Z</time>
      </trkpt>
      <trkpt lat="44.89837" lon="5.27196">
        <ele>1260</ele>
        <time>2019-07-11T16:44:59Z</time>
      </trkpt>
      <trkpt lat="44.8981" lon="5.27185">
        <ele>1256</ele>
        <time>2019-07-11T16:45:04Z</time>
      </trkpt>
      <trkpt lat="44.89782" lon="5.27187">
        <ele>1255</ele>
        <time>2019-07-11T16:45:08Z</time>
      </trkpt>
      <trkpt lat="44.89724" lon="5.27219">
        <ele>1259</ele>
        <time>2019-07-11T16:45:12Z</time>
      </trkpt>
      <trkpt lat="44.89693" lon="5.2722">
        <ele>1259</ele>
        <time>2019-07-11T16:45:19Z</time>
      </trkpt>
      <trkpt lat="44.89666" lon="5.27214">
        <ele>1257</ele>
        <time>2019-07-11T16:45:22Z</time>
      </trkpt>
      <trkpt lat="44.89648" lon="5.27201">
        <ele>1256</ele>
        <time>2019-07-11T16:45:27Z</time>
      </trkpt>
      <trkpt lat="44.89641" lon="5.27177">
        <ele>1253</ele>
        <time>2019-07-11T16:45:31Z</time>
      </trkpt>
      <trkpt lat="44.89651" lon="5.27155">
        <ele>1252</ele>
        <time>2019-07-11T16:45:34Z</time>
      </trkpt>
      <trkpt lat="44.89671" lon="5.27148">
        <ele>1252</ele>
        <time>2019-07-11T16:45:37Z</time>
      </trkpt>
      <trkpt lat="44.89695" lon="5.27148">
        <ele>1251</ele>
        <time>2019-07-11T16:45:39Z</time>
      </trkpt>
      <trkpt lat="44.89719" lon="5.27142">
        <ele>1251</ele>
        <time>2019-07-11T16:45:42Z</time>
      </trkpt>
      <trkpt lat="44.89744" lon="5.27123">
        <ele>1250</ele>
        <time>2019-07-11T16:45:45Z</time>
      </trkpt>
      <trkpt lat="44.89809" lon="5.27025">
        <ele>1243</ele>
        <time>2019-07-11T16:45:48Z</time>
      </trkpt>
      <trkpt lat="44.89835" lon="5.26996">
        <ele>1238</ele>
        <time>2019-07-11T16:45:50Z</time>
      </trkpt>
      <trkpt lat="44.89945" lon="5.26908">
        <ele>1230</ele>
        <time>2019-07-11T16:45:52Z</time>
      </trkpt>
      <trkpt lat="44.9003" lon="5.26808">
        <ele>1228</ele>
        <time>2019-07-11T16:45:55Z</time>
      </trkpt>
      <trkpt lat="44.90053" lon="5.26772">
        <ele>1226</ele>
        <time>2019-07-11T16:46:02Z</time>
      </trkpt>
      <trkpt lat="44.90071" lon="5.26725">
        <ele>1227</ele>
        <time>2019-07-11T16:46:05Z</time>
      </trkpt>
      <trkpt lat="44.90099" lon="5.26629">
        <ele>1227</ele>
        <time>2019-07-11T16:46:07Z</time>
      </trkpt>
      <trkpt lat="44.90144" lon="5.26513">
        <ele>1222</ele>
        <time>2019-07-11T16:46:17Z</time>
      </trkpt>
      <trkpt lat="44.90182" lon="5.26425">
        <ele>1223</ele>
        <time>2019-07-11T16:46:19Z</time>
      </trkpt>
      <trkpt lat="44.90214" lon="5.26373">
        <ele>1216</ele>
        <time>2019-07-11T16:46:26Z</time>
      </trkpt>
      <trkpt lat="44.90224" lon="5.26351">
        <ele>1218</ele>
        <time>2019-07-11T16:46:35Z</time>
      </trkpt>
      <trkpt lat="44.90225" lon="5.26339">
        <ele>1221</ele>
        <time>2019-07-11T16:46:40Z</time>
      </trkpt>
      <trkpt lat="44.90225" lon="5.26323">
        <ele>1222</ele>
        <time>2019-07-11T16:46:42Z</time>
      </trkpt>
      <trkpt lat="44.90221" lon="5.26298">
        <ele>1222</ele>
        <time>2019-07-11T16:46:48Z</time>
      </trkpt>
      <trkpt lat="44.90211" lon="5.26275">
        <ele>1223</ele>
        <time>2019-07-11T16:46:50Z</time>
      </trkpt>
      <trkpt lat="44.90165" lon="5.26193">
        <ele>1224</ele>
        <time>2019-07-11T16:46:52Z</time>
      </trkpt>
      <trkpt lat="44.90157" lon="5.26171">
        <ele>1222</ele>
        <time>2019-07-11T16:46:56Z</time>
      </trkpt>
      <trkpt lat="44.90156" lon="5.26155">
        <ele>1222</ele>
        <time>2019-07-11T16:46:58Z</time>
      </trkpt>
      <trkpt lat="44.90157" lon="5.2614">
        <ele>1223</ele>
        <time>2019-07-11T16:47:00Z</time>
      </trkpt>
      <trkpt lat="44.90166" lon="5.26118">
        <ele>1223</ele>
        <time>2019-07-11T16:47:08Z</time>
      </trkpt>
      <trkpt lat="44.90179" lon="5.26101">
        <ele>1217</ele>
        <time>2019-07-11T16:47:17Z</time>
      </trkpt>
      <trkpt lat="44.90194" lon="5.2607">
        <ele>1208</ele>
        <time>2019-07-11T16:47:35Z</time>
      </trkpt>
      <trkpt lat="44.90196" lon="5.26037">
        <ele>1206</ele>
        <time>2019-07-11T16:47:54Z</time>
      </trkpt>
      <trkpt lat="44.90193" lon="5.26024">
        <ele>1208</ele>
        <time>2019-07-11T16:47:58Z</time>
      </trkpt>
      <trkpt lat="44.90189" lon="5.26012">
        <ele>1210</ele>
        <time>2019-07-11T16:48:00Z</time>
      </trkpt>
      <trkpt lat="44.90181" lon="5.26">
        <ele>1216</ele>
        <time>2019-07-11T16:48:03Z</time>
      </trkpt>
      <trkpt lat="44.90172" lon="5.25992">
        <ele>1221</ele>
        <time>2019-07-11T16:48:05Z</time>
      </trkpt>
      <trkpt lat="44.90117" lon="5.2597">
        <ele>1221</ele>
        <time>2019-07-11T16:48:07Z</time>
      </trkpt>
      <trkpt lat="44.89935" lon="5.25925">
        <ele>1208</ele>
        <time>2019-07-11T16:48:10Z</time>
      </trkpt>
      <trkpt lat="44.89899" lon="5.25913">
        <ele>1206</ele>
        <time>2019-07-11T16:48:21Z</time>
      </trkpt>
      <trkpt lat="44.89711" lon="5.25819">
        <ele>1188</ele>
        <time>2019-07-11T16:48:24Z</time>
      </trkpt>
      <trkpt lat="44.89673" lon="5.25802">
        <ele>1185</ele>
        <time>2019-07-11T16:48:27Z</time>
      </trkpt>
      <trkpt lat="44.89597" lon="5.25785">
        <ele>1186</ele>
        <time>2019-07-11T16:48:39Z</time>
      </trkpt>
      <trkpt lat="44.89563" lon="5.2577">
        <ele>1184</ele>
        <time>2019-07-11T16:48:43Z</time>
      </trkpt>
      <trkpt lat="44.89469" lon="5.25704">
        <ele>1174</ele>
        <time>2019-07-11T16:48:46Z</time>
      </trkpt>
      <trkpt lat="44.89441" lon="5.25674">
        <ele>1170</ele>
        <time>2019-07-11T16:49:07Z</time>
      </trkpt>
      <trkpt lat="44.89365" lon="5.25552">
        <ele>1159</ele>
        <time>2019-07-11T16:49:12Z</time>
      </trkpt>
      <trkpt lat="44.89346" lon="5.25529">
        <ele>1156</ele>
        <time>2019-07-11T16:49:14Z</time>
      </trkpt>
      <trkpt lat="44.8932" lon="5.25507">
        <ele>1153</ele>
        <time>2019-07-11T16:49:17Z</time>
      </trkpt>
      <trkpt lat="44.89285" lon="5.25482">
        <ele>1150</ele>
        <time>2019-07-11T16:49:22Z</time>
      </trkpt>
      <trkpt lat="44.89226" lon="5.25457">
        <ele>1148</ele>
        <time>2019-07-11T16:49:27Z</time>
      </trkpt>
      <trkpt lat="44.89215" lon="5.25448">
        <ele>1148</ele>
        <time>2019-07-11T16:49:34Z</time>
      </trkpt>
      <trkpt lat="44.8921" lon="5.25433">
        <ele>1146</ele>
        <time>2019-07-11T16:49:43Z</time>
      </trkpt>
      <trkpt lat="44.89208" lon="5.25413">
        <ele>1143</ele>
        <time>2019-07-11T16:49:46Z</time>
      </trkpt>
      <trkpt lat="44.8921" lon="5.25393">
        <ele>1143</ele>
        <time>2019-07-11T16:49:52Z</time>
      </trkpt>
      <trkpt lat="44.89219" lon="5.25373">
        <ele>1141</ele>
        <time>2019-07-11T16:50:00Z</time>
      </trkpt>
      <trkpt lat="44.89235" lon="5.25351">
        <ele>1139</ele>
        <time>2019-07-11T16:50:02Z</time>
      </trkpt>
      <trkpt lat="44.89248" lon="5.25341">
        <ele>1138</ele>
        <time>2019-07-11T16:50:09Z</time>
      </trkpt>
      <trkpt lat="44.89266" lon="5.2533">
        <ele>1139</ele>
        <time>2019-07-11T16:50:13Z</time>
      </trkpt>
      <trkpt lat="44.89284" lon="5.25326">
        <ele>1140</ele>
        <time>2019-07-11T16:50:17Z</time>
      </trkpt>
      <trkpt lat="44.89308" lon="5.25327">
        <ele>1141</ele>
        <time>2019-07-11T16:50:21Z</time>
      </trkpt>
      <trkpt lat="44.89347" lon="5.25333">
        <ele>1141</ele>
        <time>2019-07-11T16:50:24Z</time>
      </trkpt>
      <trkpt lat="44.89377" lon="5.2533">
        <ele>1142</ele>
        <time>2019-07-11T16:50:27Z</time>
      </trkpt>
      <trkpt lat="44.89436" lon="5.25317">
        <ele>1146</ele>
        <time>2019-07-11T16:50:39Z</time>
      </trkpt>
      <trkpt lat="44.89468" lon="5.25306">
        <ele>1149</ele>
        <time>2019-07-11T16:50:42Z</time>
      </trkpt>
      <trkpt lat="44.89504" lon="5.25284">
        <ele>1155</ele>
        <time>2019-07-11T16:50:48Z</time>
      </trkpt>
      <trkpt lat="44.89531" lon="5.25272">
        <ele>1156</ele>
        <time>2019-07-11T16:50:50Z</time>
      </trkpt>
      <trkpt lat="44.896" lon="5.25254">
        <ele>1159</ele>
        <time>2019-07-11T16:50:54Z</time>
      </trkpt>
      <trkpt lat="44.89739" lon="5.25239">
        <ele>1174</ele>
        <time>2019-07-11T16:50:56Z</time>
      </trkpt>
      <trkpt lat="44.89896" lon="5.25213">
        <ele>1181</ele>
        <time>2019-07-11T16:50:58Z</time>
      </trkpt>
      <trkpt lat="44.8992" lon="5.25207">
        <ele>1182</ele>
        <time>2019-07-11T16:51:04Z</time>
      </trkpt>
      <trkpt lat="44.89992" lon="5.25167">
        <ele>1182</ele>
        <time>2019-07-11T16:51:06Z</time>
      </trkpt>
      <trkpt lat="44.90006" lon="5.25156">
        <ele>1183</ele>
        <time>2019-07-11T16:51:17Z</time>
      </trkpt>
      <trkpt lat="44.90019" lon="5.25144">
        <ele>1184</ele>
        <time>2019-07-11T16:51:21Z</time>
      </trkpt>
      <trkpt lat="44.90058" lon="5.25088">
        <ele>1200</ele>
        <time>2019-07-11T16:51:26Z</time>
      </trkpt>
      <trkpt lat="44.90073" lon="5.25072">
        <ele>1201</ele>
        <time>2019-07-11T16:51:36Z</time>
      </trkpt>
      <trkpt lat="44.9016" lon="5.2501">
        <ele>1201</ele>
        <time>2019-07-11T16:51:47Z</time>
      </trkpt>
      <trkpt lat="44.90191" lon="5.24989">
        <ele>1194</ele>
        <time>2019-07-11T16:51:56Z</time>
      </trkpt>
      <trkpt lat="44.90211" lon="5.24968">
        <ele>1183</ele>
        <time>2019-07-11T16:52:00Z</time>
      </trkpt>
      <trkpt lat="44.9022" lon="5.24954">
        <ele>1175</ele>
        <time>2019-07-11T16:52:10Z</time>
      </trkpt>
      <trkpt lat="44.90225" lon="5.24936">
        <ele>1168</ele>
        <time>2019-07-11T16:52:14Z</time>
      </trkpt>
      <trkpt lat="44.90226" lon="5.24917">
        <ele>1163</ele>
        <time>2019-07-11T16:52:17Z</time>
      </trkpt>
      <trkpt lat="44.90223" lon="5.24904">
        <ele>1157</ele>
        <time>2019-07-11T16:52:20Z</time>
      </trkpt>
      <trkpt lat="44.90216" lon="5.2489">
        <ele>1153</ele>
        <time>2019-07-11T16:52:26Z</time>
      </trkpt>
      <trkpt lat="44.9021" lon="5.24887">
        <ele>1156</ele>
        <time>2019-07-11T16:52:29Z</time>
      </trkpt>
      <trkpt lat="44.90204" lon="5.24886">
        <ele>1160</ele>
        <time>2019-07-11T16:52:31Z</time>
      </trkpt>
      <trkpt lat="44.90195" lon="5.24887">
        <ele>1167</ele>
        <time>2019-07-11T16:52:35Z</time>
      </trkpt>
      <trkpt lat="44.90173" lon="5.24909">
        <ele>1194</ele>
        <time>2019-07-11T16:52:46Z</time>
      </trkpt>
      <trkpt lat="44.9016" lon="5.24915">
        <ele>1204</ele>
        <time>2019-07-11T16:52:50Z</time>
      </trkpt>
      <trkpt lat="44.90145" lon="5.24916">
        <ele>1210</ele>
        <time>2019-07-11T16:52:53Z</time>
      </trkpt>
      <trkpt lat="44.9013" lon="5.24913">
        <ele>1215</ele>
        <time>2019-07-11T16:53:02Z</time>
      </trkpt>
      <trkpt lat="44.90112" lon="5.24904">
        <ele>1219</ele>
        <time>2019-07-11T16:53:16Z</time>
      </trkpt>
      <trkpt lat="44.90099" lon="5.24895">
        <ele>1221</ele>
        <time>2019-07-11T16:53:26Z</time>
      </trkpt>
      <trkpt lat="44.9007" lon="5.24865">
        <ele>1230</ele>
        <time>2019-07-11T16:53:28Z</time>
      </trkpt>
      <trkpt lat="44.90042" lon="5.24822">
        <ele>1242</ele>
        <time>2019-07-11T16:53:31Z</time>
      </trkpt>
      <trkpt lat="44.90004" lon="5.24779">
        <ele>1252</ele>
        <time>2019-07-11T16:53:33Z</time>
      </trkpt>
      <trkpt lat="44.89989" lon="5.24757">
        <ele>1250</ele>
        <time>2019-07-11T16:53:38Z</time>
      </trkpt>
      <trkpt lat="44.8996" lon="5.247">
        <ele>1244</ele>
        <time>2019-07-11T16:53:47Z</time>
      </trkpt>
      <trkpt lat="44.89943" lon="5.24676">
        <ele>1245</ele>
        <time>2019-07-11T16:53:50Z</time>
      </trkpt>
      <trkpt lat="44.89894" lon="5.24622">
        <ele>1263</ele>
        <time>2019-07-11T16:53:53Z</time>
      </trkpt>
      <trkpt lat="44.8988" lon="5.24601">
        <ele>1267</ele>
        <time>2019-07-11T16:53:58Z</time>
      </trkpt>
      <trkpt lat="44.89869" lon="5.2458">
        <ele>1269</ele>
        <time>2019-07-11T16:54:04Z</time>
      </trkpt>
      <trkpt lat="44.89864" lon="5.24556">
        <ele>1271</ele>
        <time>2019-07-11T16:54:29Z</time>
      </trkpt>
      <trkpt lat="44.89864" lon="5.24534">
        <ele>1268</ele>
        <time>2019-07-11T16:54:34Z</time>
      </trkpt>
      <trkpt lat="44.8987" lon="5.24455">
        <ele>1259</ele>
        <time>2019-07-11T16:54:40Z</time>
      </trkpt>
      <trkpt lat="44.89867" lon="5.24448">
        <ele>1261</ele>
        <time>2019-07-11T16:54:54Z</time>
      </trkpt>
      <trkpt lat="44.89861" lon="5.24439">
        <ele>1267</ele>
        <time>2019-07-11T16:54:57Z</time>
      </trkpt>
      <trkpt lat="44.89858" lon="5.24424">
        <ele>1269</ele>
        <time>2019-07-11T16:55:01Z</time>
      </trkpt>
      <trkpt lat="44.8986" lon="5.24403">
        <ele>1267</ele>
        <time>2019-07-11T16:55:07Z</time>
      </trkpt>
      <trkpt lat="44.89867" lon="5.24363">
        <ele>1259</ele>
        <time>2019-07-11T16:55:18Z</time>
      </trkpt>
      <trkpt lat="44.89865" lon="5.24344">
        <ele>1259</ele>
        <time>2019-07-11T16:55:22Z</time>
      </trkpt>
      <trkpt lat="44.89829" lon="5.24276">
        <ele>1276</ele>
        <time>2019-07-11T16:55:24Z</time>
      </trkpt>
      <trkpt lat="44.89806" lon="5.24214">
        <ele>1284</ele>
        <time>2019-07-11T16:55:33Z</time>
      </trkpt>
      <trkpt lat="44.89797" lon="5.24175">
        <ele>1286</ele>
        <time>2019-07-11T16:55:38Z</time>
      </trkpt>
      <trkpt lat="44.89795" lon="5.2415">
        <ele>1286</ele>
        <time>2019-07-11T16:55:43Z</time>
      </trkpt>
      <trkpt lat="44.89793" lon="5.24118">
        <ele>1287</ele>
        <time>2019-07-11T16:55:45Z</time>
      </trkpt>
      <trkpt lat="44.89795" lon="5.24061">
        <ele>1282</ele>
        <time>2019-07-11T16:55:47Z</time>
      </trkpt>
      <trkpt lat="44.89791" lon="5.24035">
        <ele>1284</ele>
        <time>2019-07-11T16:55:51Z</time>
      </trkpt>
      <trkpt lat="44.89782" lon="5.24001">
        <ele>1289</ele>
        <time>2019-07-11T16:56:03Z</time>
      </trkpt>
      <trkpt lat="44.89771" lon="5.23974">
        <ele>1299</ele>
        <time>2019-07-11T16:56:06Z</time>
      </trkpt>
      <trkpt lat="44.89758" lon="5.23954">
        <ele>1311</ele>
        <time>2019-07-11T16:56:15Z</time>
      </trkpt>
      <trkpt lat="44.8975" lon="5.23937">
        <ele>1318</ele>
        <time>2019-07-11T16:56:17Z</time>
      </trkpt>
      <trkpt lat="44.89749" lon="5.23922">
        <ele>1318</ele>
        <time>2019-07-11T16:56:19Z</time>
      </trkpt>
      <trkpt lat="44.89756" lon="5.23897">
        <ele>1313</ele>
        <time>2019-07-11T16:56:20Z</time>
      </trkpt>
      <trkpt lat="44.89765" lon="5.23875">
        <ele>1308</ele>
        <time>2019-07-11T16:56:27Z</time>
      </trkpt>
      <trkpt lat="44.89776" lon="5.23858">
        <ele>1300</ele>
        <time>2019-07-11T16:56:29Z</time>
      </trkpt>
      <trkpt lat="44.8978" lon="5.23846">
        <ele>1298</ele>
        <time>2019-07-11T16:56:31Z</time>
      </trkpt>
      <trkpt lat="44.89783" lon="5.23828">
        <ele>1297</ele>
        <time>2019-07-11T16:56:33Z</time>
      </trkpt>
      <trkpt lat="44.89781" lon="5.23803">
        <ele>1302</ele>
        <time>2019-07-11T16:56:35Z</time>
      </trkpt>
      <trkpt lat="44.89774" lon="5.23749">
        <ele>1313</ele>
        <time>2019-07-11T16:56:42Z</time>
      </trkpt>
      <trkpt lat="44.89773" lon="5.2373">
        <ele>1315</ele>
        <time>2019-07-11T16:56:46Z</time>
      </trkpt>
      <trkpt lat="44.89776" lon="5.23712">
        <ele>1315</ele>
        <time>2019-07-11T16:56:51Z</time>
      </trkpt>
      <trkpt lat="44.89801" lon="5.2364">
        <ele>1301</ele>
        <time>2019-07-11T16:56:56Z</time>
      </trkpt>
      <trkpt lat="44.898" lon="5.23627">
        <ele>1302</ele>
        <time>2019-07-11T16:57:00Z</time>
      </trkpt>
      <trkpt lat="44.89791" lon="5.23567">
        <ele>1309</ele>
        <time>2019-07-11T16:57:04Z</time>
      </trkpt>
      <trkpt lat="44.89788" lon="5.23495">
        <ele>1303</ele>
        <time>2019-07-11T16:57:08Z</time>
      </trkpt>
      <trkpt lat="44.89789" lon="5.23463">
        <ele>1302</ele>
        <time>2019-07-11T16:57:13Z</time>
      </trkpt>
      <trkpt lat="44.89788" lon="5.23441">
        <ele>1301</ele>
        <time>2019-07-11T16:57:16Z</time>
      </trkpt>
      <trkpt lat="44.89778" lon="5.23399">
        <ele>1302</ele>
        <time>2019-07-11T16:57:21Z</time>
      </trkpt>
      <trkpt lat="44.89776" lon="5.23385">
        <ele>1301</ele>
        <time>2019-07-11T16:57:24Z</time>
      </trkpt>
      <trkpt lat="44.89782" lon="5.23373">
        <ele>1299</ele>
        <time>2019-07-11T16:57:27Z</time>
      </trkpt>
      <trkpt lat="44.89802" lon="5.2335">
        <ele>1296</ele>
        <time>2019-07-11T16:57:32Z</time>
      </trkpt>
      <trkpt lat="44.8981" lon="5.23339">
        <ele>1296</ele>
        <time>2019-07-11T16:57:46Z</time>
      </trkpt>
      <trkpt lat="44.89817" lon="5.23323">
        <ele>1297</ele>
        <time>2019-07-11T16:57:50Z</time>
      </trkpt>
      <trkpt lat="44.89836" lon="5.2327">
        <ele>1303</ele>
        <time>2019-07-11T16:57:53Z</time>
      </trkpt>
      <trkpt lat="44.89857" lon="5.23204">
        <ele>1308</ele>
        <time>2019-07-11T16:57:57Z</time>
      </trkpt>
      <trkpt lat="44.89887" lon="5.23067">
        <ele>1333</ele>
        <time>2019-07-11T16:58:00Z</time>
      </trkpt>
      <trkpt lat="44.89927" lon="5.22929">
        <ele>1338</ele>
        <time>2019-07-11T16:58:06Z</time>
      </trkpt>
      <trkpt lat="44.89935" lon="5.22899">
        <ele>1336</ele>
        <time>2019-07-11T16:58:10Z</time>
      </trkpt>
      <trkpt lat="44.89937" lon="5.22882">
        <ele>1336</ele>
        <time>2019-07-11T16:58:22Z</time>
      </trkpt>
      <trkpt lat="44.89939" lon="5.22863">
        <ele>1336</ele>
        <time>2019-07-11T16:58:29Z</time>
      </trkpt>
      <trkpt lat="44.89939" lon="5.22843">
        <ele>1336</ele>
        <time>2019-07-11T16:58:34Z</time>
      </trkpt>
      <trkpt lat="44.89936" lon="5.22825">
        <ele>1337</ele>
        <time>2019-07-11T16:58:40Z</time>
      </trkpt>
      <trkpt lat="44.89931" lon="5.22803">
        <ele>1336</ele>
        <time>2019-07-11T16:58:45Z</time>
      </trkpt>
      <trkpt lat="44.89906" lon="5.22728">
        <ele>1337</ele>
        <time>2019-07-11T16:58:49Z</time>
      </trkpt>
      <trkpt lat="44.89901" lon="5.22701">
        <ele>1338</ele>
        <time>2019-07-11T16:58:54Z</time>
      </trkpt>
      <trkpt lat="44.89899" lon="5.22681">
        <ele>1339</ele>
        <time>2019-07-11T16:58:58Z</time>
      </trkpt>
      <trkpt lat="44.899" lon="5.22581">
        <ele>1337</ele>
        <time>2019-07-11T16:59:02Z</time>
      </trkpt>
      <trkpt lat="44.89903" lon="5.22555">
        <ele>1336</ele>
        <time>2019-07-11T16:59:07Z</time>
      </trkpt>
      <trkpt lat="44.89908" lon="5.22528">
        <ele>1334</ele>
        <time>2019-07-11T16:59:42Z</time>
      </trkpt>
      <trkpt lat="44.89954" lon="5.22379">
        <ele>1331</ele>
        <time>2019-07-11T16:59:46Z</time>
      </trkpt>
      <trkpt lat="44.89972" lon="5.22351">
        <ele>1331</ele>
        <time>2019-07-11T16:59:50Z</time>
      </trkpt>
      <trkpt lat="44.89985" lon="5.22341">
        <ele>1331</ele>
        <time>2019-07-11T16:59:53Z</time>
      </trkpt>
      <trkpt lat="44.89998" lon="5.22334">
        <ele>1331</ele>
        <time>2019-07-11T17:00:05Z</time>
      </trkpt>
      <trkpt lat="44.90025" lon="5.22328">
        <ele>1334</ele>
        <time>2019-07-11T17:00:14Z</time>
      </trkpt>
      <trkpt lat="44.90054" lon="5.22333">
        <ele>1337</ele>
        <time>2019-07-11T17:00:18Z</time>
      </trkpt>
      <trkpt lat="44.90095" lon="5.22352">
        <ele>1338</ele>
        <time>2019-07-11T17:00:22Z</time>
      </trkpt>
      <trkpt lat="44.9014" lon="5.22385">
        <ele>1336</ele>
        <time>2019-07-11T17:00:26Z</time>
      </trkpt>
      <trkpt lat="44.90154" lon="5.22397">
        <ele>1335</ele>
        <time>2019-07-11T17:00:43Z</time>
      </trkpt>
      <trkpt lat="44.9018" lon="5.22428">
        <ele>1332</ele>
        <time>2019-07-11T17:00:58Z</time>
      </trkpt>
      <trkpt lat="44.90215" lon="5.22457">
        <ele>1331</ele>
        <time>2019-07-11T17:01:08Z</time>
      </trkpt>
      <trkpt lat="44.90229" lon="5.22463">
        <ele>1331</ele>
        <time>2019-07-11T17:01:12Z</time>
      </trkpt>
      <trkpt lat="44.90268" lon="5.22473">
        <ele>1333</ele>
        <time>2019-07-11T17:01:14Z</time>
      </trkpt>
      <trkpt lat="44.90284" lon="5.22489">
        <ele>1332</ele>
        <time>2019-07-11T17:01:26Z</time>
      </trkpt>
      <trkpt lat="44.903" lon="5.22517">
        <ele>1327</ele>
        <time>2019-07-11T17:01:31Z</time>
      </trkpt>
      <trkpt lat="44.90314" lon="5.22536">
        <ele>1325</ele>
        <time>2019-07-11T17:01:35Z</time>
      </trkpt>
      <trkpt lat="44.90328" lon="5.2255">
        <ele>1323</ele>
        <time>2019-07-11T17:01:38Z</time>
      </trkpt>
      <trkpt lat="44.90345" lon="5.22558">
        <ele>1322</ele>
        <time>2019-07-11T17:01:40Z</time>
      </trkpt>
      <trkpt lat="44.90413" lon="5.22563">
        <ele>1322</ele>
        <time>2019-07-11T17:01:43Z</time>
      </trkpt>
      <trkpt lat="44.90426" lon="5.22569">
        <ele>1322</ele>
        <time>2019-07-11T17:01:57Z</time>
      </trkpt>
      <trkpt lat="44.90458" lon="5.22591">
        <ele>1319</ele>
        <time>2019-07-11T17:02:03Z</time>
      </trkpt>
      <trkpt lat="44.90469" lon="5.22596">
        <ele>1319</ele>
        <time>2019-07-11T17:02:12Z</time>
      </trkpt>
      <trkpt lat="44.90493" lon="5.22599">
        <ele>1321</ele>
        <time>2019-07-11T17:02:21Z</time>
      </trkpt>
      <trkpt lat="44.90503" lon="5.22605">
        <ele>1320</ele>
        <time>2019-07-11T17:02:24Z</time>
      </trkpt>
      <trkpt lat="44.90513" lon="5.22615">
        <ele>1319</ele>
        <time>2019-07-11T17:02:25Z</time>
      </trkpt>
      <trkpt lat="44.90532" lon="5.22647">
        <ele>1315</ele>
        <time>2019-07-11T17:02:31Z</time>
      </trkpt>
      <trkpt lat="44.90541" lon="5.22658">
        <ele>1314</ele>
        <time>2019-07-11T17:02:31Z</time>
      </trkpt>
      <trkpt lat="44.90598" lon="5.22694">
        <ele>1311</ele>
        <time>2019-07-11T17:02:34Z</time>
      </trkpt>
      <trkpt lat="44.90621" lon="5.227">
        <ele>1309</ele>
        <time>2019-07-11T17:02:35Z</time>
      </trkpt>
      <trkpt lat="44.90648" lon="5.22703">
        <ele>1307</ele>
        <time>2019-07-11T17:02:38Z</time>
      </trkpt>
      <trkpt lat="44.90705" lon="5.22696">
        <ele>1307</ele>
        <time>2019-07-11T17:02:40Z</time>
      </trkpt>
      <trkpt lat="44.90766" lon="5.22694">
        <ele>1306</ele>
        <time>2019-07-11T17:02:44Z</time>
      </trkpt>
      <trkpt lat="44.90819" lon="5.22687">
        <ele>1305</ele>
        <time>2019-07-11T17:03:08Z</time>
      </trkpt>
      <trkpt lat="44.90838" lon="5.22687">
        <ele>1305</ele>
        <time>2019-07-11T17:03:21Z</time>
      </trkpt>
      <trkpt lat="44.90895" lon="5.22712">
        <ele>1299</ele>
        <time>2019-07-11T17:03:31Z</time>
      </trkpt>
      <trkpt lat="44.90913" lon="5.22714">
        <ele>1298</ele>
        <time>2019-07-11T17:03:44Z</time>
      </trkpt>
      <trkpt lat="44.90933" lon="5.22709">
        <ele>1297</ele>
        <time>2019-07-11T17:03:47Z</time>
      </trkpt>
      <trkpt lat="44.9095" lon="5.22697">
        <ele>1298</ele>
        <time>2019-07-11T17:03:53Z</time>
      </trkpt>
      <trkpt lat="44.90972" lon="5.22667">
        <ele>1301</ele>
        <time>2019-07-11T17:03:57Z</time>
      </trkpt>
      <trkpt lat="44.90988" lon="5.22653">
        <ele>1302</ele>
        <time>2019-07-11T17:04:19Z</time>
      </trkpt>
      <trkpt lat="44.90999" lon="5.22648">
        <ele>1301</ele>
        <time>2019-07-11T17:04:21Z</time>
      </trkpt>
      <trkpt lat="44.91017" lon="5.22646">
        <ele>1301</ele>
        <time>2019-07-11T17:04:23Z</time>
      </trkpt>
      <trkpt lat="44.91081" lon="5.22649">
        <ele>1300</ele>
        <time>2019-07-11T17:04:39Z</time>
      </trkpt>
      <trkpt lat="44.91101" lon="5.22655">
        <ele>1300</ele>
        <time>2019-07-11T17:04:45Z</time>
      </trkpt>
      <trkpt lat="44.91119" lon="5.22663">
        <ele>1300</ele>
        <time>2019-07-11T17:04:49Z</time>
      </trkpt>
      <trkpt lat="44.91164" lon="5.22693">
        <ele>1297</ele>
        <time>2019-07-11T17:04:56Z</time>
      </trkpt>
      <trkpt lat="44.91238" lon="5.22728">
        <ele>1294</ele>
        <time>2019-07-11T17:04:59Z</time>
      </trkpt>
      <trkpt lat="44.91293" lon="5.22748">
        <ele>1292</ele>
        <time>2019-07-11T17:05:06Z</time>
      </trkpt>
      <trkpt lat="44.91307" lon="5.2275">
        <ele>1292</ele>
        <time>2019-07-11T17:05:08Z</time>
      </trkpt>
      <trkpt lat="44.9132" lon="5.22745">
        <ele>1293</ele>
        <time>2019-07-11T17:05:10Z</time>
      </trkpt>
      <trkpt lat="44.91331" lon="5.22735">
        <ele>1294</ele>
        <time>2019-07-11T17:05:12Z</time>
      </trkpt>
      <trkpt lat="44.91349" lon="5.22702">
        <ele>1296</ele>
        <time>2019-07-11T17:05:13Z</time>
      </trkpt>
      <trkpt lat="44.91382" lon="5.22656">
        <ele>1298</ele>
        <time>2019-07-11T17:05:14Z</time>
      </trkpt>
      <trkpt lat="44.91391" lon="5.22636">
        <ele>1296</ele>
        <time>2019-07-11T17:05:15Z</time>
      </trkpt>
      <trkpt lat="44.91395" lon="5.22608">
        <ele>1294</ele>
        <time>2019-07-11T17:05:16Z</time>
      </trkpt>
      <trkpt lat="44.91393" lon="5.22573">
        <ele>1291</ele>
        <time>2019-07-11T17:05:17Z</time>
      </trkpt>
      <trkpt lat="44.91384" lon="5.22523">
        <ele>1286</ele>
        <time>2019-07-11T17:05:22Z</time>
      </trkpt>
      <trkpt lat="44.91324" lon="5.2234">
        <ele>1275</ele>
        <time>2019-07-11T17:05:40Z</time>
      </trkpt>
      <trkpt lat="44.91309" lon="5.22309">
        <ele>1274</ele>
        <time>2019-07-11T17:05:44Z</time>
      </trkpt>
      <trkpt lat="44.91287" lon="5.22278">
        <ele>1274</ele>
        <time>2019-07-11T17:05:54Z</time>
      </trkpt>
      <trkpt lat="44.91229" lon="5.22204">
        <ele>1278</ele>
        <time>2019-07-11T17:06:15Z</time>
      </trkpt>
      <trkpt lat="44.9122" lon="5.22182">
        <ele>1277</ele>
        <time>2019-07-11T17:06:23Z</time>
      </trkpt>
      <trkpt lat="44.91217" lon="5.22153">
        <ele>1274</ele>
        <time>2019-07-11T17:06:42Z</time>
      </trkpt>
      <trkpt lat="44.91216" lon="5.22099">
        <ele>1268</ele>
        <time>2019-07-11T17:06:47Z</time>
      </trkpt>
      <trkpt lat="44.91218" lon="5.22013">
        <ele>1260</ele>
        <time>2019-07-11T17:06:49Z</time>
      </trkpt>
      <trkpt lat="44.91213" lon="5.21986">
        <ele>1259</ele>
        <time>2019-07-11T17:06:50Z</time>
      </trkpt>
      <trkpt lat="44.91206" lon="5.21967">
        <ele>1258</ele>
        <time>2019-07-11T17:06:51Z</time>
      </trkpt>
      <trkpt lat="44.91177" lon="5.2191">
        <ele>1253</ele>
        <time>2019-07-11T17:06:51Z</time>
      </trkpt>
      <trkpt lat="44.91161" lon="5.21875">
        <ele>1249</ele>
        <time>2019-07-11T17:06:52Z</time>
      </trkpt>
      <trkpt lat="44.91151" lon="5.21841">
        <ele>1245</ele>
        <time>2019-07-11T17:06:57Z</time>
      </trkpt>
      <trkpt lat="44.91145" lon="5.21829">
        <ele>1243</ele>
        <time>2019-07-11T17:07:07Z</time>
      </trkpt>
      <trkpt lat="44.91135" lon="5.21819">
        <ele>1241</ele>
        <time>2019-07-11T17:07:12Z</time>
      </trkpt>
      <trkpt lat="44.91116" lon="5.21807">
        <ele>1240</ele>
        <time>2019-07-11T17:07:15Z</time>
      </trkpt>
      <trkpt lat="44.91056" lon="5.21754">
        <ele>1233</ele>
        <time>2019-07-11T17:07:30Z</time>
      </trkpt>
      <trkpt lat="44.91041" lon="5.21746">
        <ele>1233</ele>
        <time>2019-07-11T17:07:42Z</time>
      </trkpt>
      <trkpt lat="44.90991" lon="5.21728">
        <ele>1237</ele>
        <time>2019-07-11T17:07:56Z</time>
      </trkpt>
      <trkpt lat="44.90983" lon="5.2172">
        <ele>1238</ele>
        <time>2019-07-11T17:08:10Z</time>
      </trkpt>
      <trkpt lat="44.90979" lon="5.2171">
        <ele>1237</ele>
        <time>2019-07-11T17:08:14Z</time>
      </trkpt>
      <trkpt lat="44.90978" lon="5.21697">
        <ele>1235</ele>
        <time>2019-07-11T17:08:21Z</time>
      </trkpt>
      <trkpt lat="44.90991" lon="5.21649">
        <ele>1224</ele>
        <time>2019-07-11T17:08:22Z</time>
      </trkpt>
      <trkpt lat="44.90992" lon="5.2163">
        <ele>1221</ele>
        <time>2019-07-11T17:08:24Z</time>
      </trkpt>
      <trkpt lat="44.90989" lon="5.21616">
        <ele>1220</ele>
        <time>2019-07-11T17:08:30Z</time>
      </trkpt>
      <trkpt lat="44.90982" lon="5.21605">
        <ele>1219</ele>
        <time>2019-07-11T17:08:33Z</time>
      </trkpt>
      <trkpt lat="44.90973" lon="5.21596">
        <ele>1218</ele>
        <time>2019-07-11T17:08:36Z</time>
      </trkpt>
      <trkpt lat="44.90932" lon="5.21578">
        <ele>1219</ele>
        <time>2019-07-11T17:08:51Z</time>
      </trkpt>
      <trkpt lat="44.90912" lon="5.21566">
        <ele>1218</ele>
        <time>2019-07-11T17:08:53Z</time>
      </trkpt>
      <trkpt lat="44.90893" lon="5.21545">
        <ele>1217</ele>
        <time>2019-07-11T17:08:55Z</time>
      </trkpt>
      <trkpt lat="44.90871" lon="5.21515">
        <ele>1214</ele>
        <time>2019-07-11T17:08:57Z</time>
      </trkpt>
      <trkpt lat="44.90862" lon="5.2149">
        <ele>1211</ele>
        <time>2019-07-11T17:08:58Z</time>
      </trkpt>
      <trkpt lat="44.90858" lon="5.21458">
        <ele>1212</ele>
        <time>2019-07-11T17:09:01Z</time>
      </trkpt>
      <trkpt lat="44.90865" lon="5.21425">
        <ele>1211</ele>
        <time>2019-07-11T17:09:08Z</time>
      </trkpt>
      <trkpt lat="44.90882" lon="5.21397">
        <ele>1209</ele>
        <time>2019-07-11T17:09:11Z</time>
      </trkpt>
      <trkpt lat="44.909" lon="5.21385">
        <ele>1206</ele>
        <time>2019-07-11T17:09:16Z</time>
      </trkpt>
      <trkpt lat="44.90925" lon="5.21376">
        <ele>1204</ele>
        <time>2019-07-11T17:09:20Z</time>
      </trkpt>
      <trkpt lat="44.90943" lon="5.21367">
        <ele>1203</ele>
        <time>2019-07-11T17:09:25Z</time>
      </trkpt>
      <trkpt lat="44.90959" lon="5.21357">
        <ele>1203</ele>
        <time>2019-07-11T17:09:32Z</time>
      </trkpt>
      <trkpt lat="44.9098" lon="5.21333">
        <ele>1204</ele>
        <time>2019-07-11T17:09:32Z</time>
      </trkpt>
      <trkpt lat="44.91034" lon="5.21256">
        <ele>1201</ele>
        <time>2019-07-11T17:09:32Z</time>
      </trkpt>
      <trkpt lat="44.91048" lon="5.2123">
        <ele>1200</ele>
        <time>2019-07-11T17:09:37Z</time>
      </trkpt>
      <trkpt lat="44.91055" lon="5.21208">
        <ele>1199</ele>
        <time>2019-07-11T17:09:38Z</time>
      </trkpt>
      <trkpt lat="44.91061" lon="5.21178">
        <ele>1199</ele>
        <time>2019-07-11T17:09:40Z</time>
      </trkpt>
      <trkpt lat="44.91062" lon="5.21154">
        <ele>1199</ele>
        <time>2019-07-11T17:09:42Z</time>
      </trkpt>
      <trkpt lat="44.9106" lon="5.21108">
        <ele>1199</ele>
        <time>2019-07-11T17:09:43Z</time>
      </trkpt>
      <trkpt lat="44.9106" lon="5.21071">
        <ele>1198</ele>
        <time>2019-07-11T17:09:57Z</time>
      </trkpt>
      <trkpt lat="44.91074" lon="5.20978">
        <ele>1195</ele>
        <time>2019-07-11T17:10:01Z</time>
      </trkpt>
      <trkpt lat="44.91085" lon="5.20925">
        <ele>1193</ele>
        <time>2019-07-11T17:10:06Z</time>
      </trkpt>
      <trkpt lat="44.911" lon="5.20891">
        <ele>1193</ele>
        <time>2019-07-11T17:10:14Z</time>
      </trkpt>
      <trkpt lat="44.9112" lon="5.20859">
        <ele>1192</ele>
        <time>2019-07-11T17:10:38Z</time>
      </trkpt>
      <trkpt lat="44.91145" lon="5.20833">
        <ele>1191</ele>
        <time>2019-07-11T17:11:01Z</time>
      </trkpt>
      <trkpt lat="44.91166" lon="5.20821">
        <ele>1190</ele>
        <time>2019-07-11T17:11:21Z</time>
      </trkpt>
      <trkpt lat="44.91194" lon="5.20815">
        <ele>1188</ele>
        <time>2019-07-11T17:11:31Z</time>
      </trkpt>
      <trkpt lat="44.91216" lon="5.20813">
        <ele>1186</ele>
        <time>2019-07-11T17:11:47Z</time>
      </trkpt>
      <trkpt lat="44.91237" lon="5.20816">
        <ele>1184</ele>
        <time>2019-07-11T17:11:54Z</time>
      </trkpt>
      <trkpt lat="44.91264" lon="5.20825">
        <ele>1181</ele>
        <time>2019-07-11T17:11:56Z</time>
      </trkpt>
      <trkpt lat="44.91444" lon="5.20941">
        <ele>1161</ele>
        <time>2019-07-11T17:12:04Z</time>
      </trkpt>
      <trkpt lat="44.91465" lon="5.20954">
        <ele>1159</ele>
        <time>2019-07-11T17:12:09Z</time>
      </trkpt>
      <trkpt lat="44.91484" lon="5.20958">
        <ele>1158</ele>
        <time>2019-07-11T17:12:19Z</time>
      </trkpt>
      <trkpt lat="44.91503" lon="5.20959">
        <ele>1156</ele>
        <time>2019-07-11T17:12:24Z</time>
      </trkpt>
      <trkpt lat="44.91571" lon="5.20955">
        <ele>1152</ele>
        <time>2019-07-11T17:12:39Z</time>
      </trkpt>
      <trkpt lat="44.91623" lon="5.2096">
        <ele>1146</ele>
        <time>2019-07-11T17:12:44Z</time>
      </trkpt>
      <trkpt lat="44.91642" lon="5.20956">
        <ele>1145</ele>
        <time>2019-07-11T17:12:46Z</time>
      </trkpt>
      <trkpt lat="44.91662" lon="5.20949">
        <ele>1143</ele>
        <time>2019-07-11T17:13:00Z</time>
      </trkpt>
      <trkpt lat="44.91685" lon="5.20935">
        <ele>1141</ele>
        <time>2019-07-11T17:13:06Z</time>
      </trkpt>
      <trkpt lat="44.91769" lon="5.20867">
        <ele>1134</ele>
        <time>2019-07-11T17:13:13Z</time>
      </trkpt>
      <trkpt lat="44.91841" lon="5.20816">
        <ele>1127</ele>
        <time>2019-07-11T17:13:19Z</time>
      </trkpt>
      <trkpt lat="44.91895" lon="5.20783">
        <ele>1121</ele>
        <time>2019-07-11T17:13:24Z</time>
      </trkpt>
      <trkpt lat="44.91911" lon="5.20765">
        <ele>1120</ele>
        <time>2019-07-11T17:13:27Z</time>
      </trkpt>
      <trkpt lat="44.91921" lon="5.2075">
        <ele>1120</ele>
        <time>2019-07-11T17:13:36Z</time>
      </trkpt>
      <trkpt lat="44.91958" lon="5.20675">
        <ele>1116</ele>
        <time>2019-07-11T17:13:47Z</time>
      </trkpt>
      <trkpt lat="44.91979" lon="5.2065">
        <ele>1113</ele>
        <time>2019-07-11T17:13:59Z</time>
      </trkpt>
      <trkpt lat="44.91998" lon="5.20631">
        <ele>1110</ele>
        <time>2019-07-11T17:14:10Z</time>
      </trkpt>
      <trkpt lat="44.92009" lon="5.20616">
        <ele>1108</ele>
        <time>2019-07-11T17:14:19Z</time>
      </trkpt>
      <trkpt lat="44.92017" lon="5.20602">
        <ele>1106</ele>
        <time>2019-07-11T17:14:23Z</time>
      </trkpt>
      <trkpt lat="44.92024" lon="5.20581">
        <ele>1105</ele>
        <time>2019-07-11T17:14:25Z</time>
      </trkpt>
      <trkpt lat="44.92046" lon="5.20473">
        <ele>1102</ele>
        <time>2019-07-11T17:14:32Z</time>
      </trkpt>
      <trkpt lat="44.92056" lon="5.20429">
        <ele>1100</ele>
        <time>2019-07-11T17:14:41Z</time>
      </trkpt>
      <trkpt lat="44.92086" lon="5.20372">
        <ele>1092</ele>
        <time>2019-07-11T17:14:48Z</time>
      </trkpt>
      <trkpt lat="44.92109" lon="5.20303">
        <ele>1090</ele>
        <time>2019-07-11T17:14:56Z</time>
      </trkpt>
      <trkpt lat="44.92119" lon="5.20288">
        <ele>1087</ele>
        <time>2019-07-11T17:15:05Z</time>
      </trkpt>
      <trkpt lat="44.92127" lon="5.20282">
        <ele>1086</ele>
        <time>2019-07-11T17:15:18Z</time>
      </trkpt>
      <trkpt lat="44.92155" lon="5.20275">
        <ele>1081</ele>
        <time>2019-07-11T17:15:23Z</time>
      </trkpt>
      <trkpt lat="44.92159" lon="5.20271">
        <ele>1080</ele>
        <time>2019-07-11T17:15:35Z</time>
      </trkpt>
      <trkpt lat="44.92165" lon="5.20254">
        <ele>1077</ele>
        <time>2019-07-11T17:15:40Z</time>
      </trkpt>
      <trkpt lat="44.92165" lon="5.20243">
        <ele>1074</ele>
        <time>2019-07-11T17:15:48Z</time>
      </trkpt>
      <trkpt lat="44.92155" lon="5.20222">
        <ele>1068</ele>
        <time>2019-07-11T17:15:56Z</time>
      </trkpt>
      <trkpt lat="44.92145" lon="5.20213">
        <ele>1066</ele>
        <time>2019-07-11T17:16:00Z</time>
      </trkpt>
      <trkpt lat="44.92128" lon="5.20204">
        <ele>1067</ele>
        <time>2019-07-11T17:16:10Z</time>
      </trkpt>
      <trkpt lat="44.92003" lon="5.20119">
        <ele>1065</ele>
        <time>2019-07-11T17:16:14Z</time>
      </trkpt>
      <trkpt lat="44.91945" lon="5.20066">
        <ele>1055</ele>
        <time>2019-07-11T17:16:24Z</time>
      </trkpt>
      <trkpt lat="44.91892" lon="5.20024">
        <ele>1049</ele>
        <time>2019-07-11T17:16:57Z</time>
      </trkpt>
      <trkpt lat="44.9183" lon="5.19985">
        <ele>1042</ele>
        <time>2019-07-11T17:17:02Z</time>
      </trkpt>
      <trkpt lat="44.91814" lon="5.19977">
        <ele>1041</ele>
        <time>2019-07-11T17:17:06Z</time>
      </trkpt>
      <trkpt lat="44.91776" lon="5.19967">
        <ele>1042</ele>
        <time>2019-07-11T17:17:26Z</time>
      </trkpt>
      <trkpt lat="44.91756" lon="5.19959">
        <ele>1041</ele>
        <time>2019-07-11T17:18:01Z</time>
      </trkpt>
      <trkpt lat="44.91641" lon="5.19902">
        <ele>1029</ele>
        <time>2019-07-11T17:18:02Z</time>
      </trkpt>
      <trkpt lat="44.91628" lon="5.19896">
        <ele>1026</ele>
        <time>2019-07-11T17:18:07Z</time>
      </trkpt>
      <trkpt lat="44.91616" lon="5.19893">
        <ele>1025</ele>
        <time>2019-07-11T17:18:27Z</time>
      </trkpt>
      <trkpt lat="44.91531" lon="5.19883">
        <ele>1021</ele>
        <time>2019-07-11T17:18:32Z</time>
      </trkpt>
      <trkpt lat="44.91495" lon="5.19883">
        <ele>1020</ele>
        <time>2019-07-11T17:18:38Z</time>
      </trkpt>
      <trkpt lat="44.91471" lon="5.1988">
        <ele>1018</ele>
        <time>2019-07-11T17:18:53Z</time>
      </trkpt>
      <trkpt lat="44.91436" lon="5.19872">
        <ele>1013</ele>
        <time>2019-07-11T17:18:58Z</time>
      </trkpt>
      <trkpt lat="44.91416" lon="5.19871">
        <ele>1011</ele>
        <time>2019-07-11T17:19:06Z</time>
      </trkpt>
      <trkpt lat="44.91376" lon="5.19871">
        <ele>1007</ele>
        <time>2019-07-11T17:19:10Z</time>
      </trkpt>
      <trkpt lat="44.91367" lon="5.19873">
        <ele>1007</ele>
        <time>2019-07-11T17:19:34Z</time>
      </trkpt>
      <trkpt lat="44.91356" lon="5.19882">
        <ele>1010</ele>
        <time>2019-07-11T17:19:41Z</time>
      </trkpt>
      <trkpt lat="44.91347" lon="5.19886">
        <ele>1011</ele>
        <time>2019-07-11T17:19:56Z</time>
      </trkpt>
      <trkpt lat="44.91341" lon="5.19885">
        <ele>1010</ele>
        <time>2019-07-11T17:20:13Z</time>
      </trkpt>
      <trkpt lat="44.91337" lon="5.19881">
        <ele>1008</ele>
        <time>2019-07-11T17:20:35Z</time>
      </trkpt>
      <trkpt lat="44.91336" lon="5.19871">
        <ele>1004</ele>
        <time>2019-07-11T17:20:48Z</time>
      </trkpt>
      <trkpt lat="44.91337" lon="5.19864">
        <ele>1001</ele>
        <time>2019-07-11T17:20:52Z</time>
      </trkpt>
      <trkpt lat="44.91341" lon="5.19858">
        <ele>998</ele>
        <time>2019-07-11T17:20:56Z</time>
      </trkpt>
      <trkpt lat="44.91367" lon="5.19852">
        <ele>998</ele>
        <time>2019-07-11T17:20:58Z</time>
      </trkpt>
      <trkpt lat="44.91469" lon="5.19819">
        <ele>993</ele>
        <time>2019-07-11T17:21:00Z</time>
      </trkpt>
      <trkpt lat="44.9149" lon="5.19815">
        <ele>993</ele>
        <time>2019-07-11T17:21:07Z</time>
      </trkpt>
      <trkpt lat="44.91547" lon="5.19817">
        <ele>993</ele>
        <time>2019-07-11T17:21:12Z</time>
      </trkpt>
      <trkpt lat="44.91665" lon="5.19793">
        <ele>984</ele>
        <time>2019-07-11T17:21:16Z</time>
      </trkpt>
      <trkpt lat="44.91709" lon="5.19793">
        <ele>980</ele>
        <time>2019-07-11T17:21:20Z</time>
      </trkpt>
      <trkpt lat="44.91814" lon="5.19801">
        <ele>972</ele>
        <time>2019-07-11T17:21:26Z</time>
      </trkpt>
      <trkpt lat="44.91844" lon="5.19812">
        <ele>971</ele>
        <time>2019-07-11T17:21:32Z</time>
      </trkpt>
      <trkpt lat="44.9185" lon="5.19811">
        <ele>969</ele>
        <time>2019-07-11T17:21:42Z</time>
      </trkpt>
      <trkpt lat="44.91854" lon="5.19806">
        <ele>967</ele>
        <time>2019-07-11T17:21:48Z</time>
      </trkpt>
      <trkpt lat="44.91854" lon="5.19798">
        <ele>965</ele>
        <time>2019-07-11T17:21:52Z</time>
      </trkpt>
      <trkpt lat="44.91853" lon="5.19791">
        <ele>963</ele>
        <time>2019-07-11T17:21:56Z</time>
      </trkpt>
      <trkpt lat="44.91849" lon="5.19786">
        <ele>962</ele>
        <time>2019-07-11T17:22:03Z</time>
      </trkpt>
      <trkpt lat="44.91826" lon="5.19777">
        <ele>963</ele>
        <time>2019-07-11T17:22:06Z</time>
      </trkpt>
      <trkpt lat="44.91772" lon="5.19751">
        <ele>960</ele>
        <time>2019-07-11T17:22:13Z</time>
      </trkpt>
      <trkpt lat="44.91743" lon="5.19741">
        <ele>960</ele>
        <time>2019-07-11T17:22:22Z</time>
      </trkpt>
      <trkpt lat="44.91726" lon="5.19731">
        <ele>959</ele>
        <time>2019-07-11T17:22:42Z</time>
      </trkpt>
      <trkpt lat="44.91655" lon="5.19677">
        <ele>948</ele>
        <time>2019-07-11T17:22:53Z</time>
      </trkpt>
      <trkpt lat="44.91589" lon="5.19641">
        <ele>938</ele>
        <time>2019-07-11T17:23:04Z</time>
      </trkpt>
      <trkpt lat="44.91511" lon="5.19623">
        <ele>931</ele>
        <time>2019-07-11T17:23:14Z</time>
      </trkpt>
      <trkpt lat="44.91437" lon="5.1961">
        <ele>925</ele>
        <time>2019-07-11T17:23:23Z</time>
      </trkpt>
      <trkpt lat="44.91414" lon="5.19612">
        <ele>925</ele>
        <time>2019-07-11T17:23:29Z</time>
      </trkpt>
      <trkpt lat="44.91377" lon="5.19625">
        <ele>927</ele>
        <time>2019-07-11T17:23:35Z</time>
      </trkpt>
      <trkpt lat="44.91367" lon="5.19624">
        <ele>926</ele>
        <time>2019-07-11T17:23:43Z</time>
      </trkpt>
      <trkpt lat="44.91358" lon="5.19619">
        <ele>925</ele>
        <time>2019-07-11T17:23:52Z</time>
      </trkpt>
      <trkpt lat="44.91327" lon="5.19594">
        <ele>920</ele>
        <time>2019-07-11T17:23:58Z</time>
      </trkpt>
      <trkpt lat="44.91314" lon="5.19585">
        <ele>918</ele>
        <time>2019-07-11T17:24:03Z</time>
      </trkpt>
      <trkpt lat="44.91299" lon="5.1958">
        <ele>916</ele>
        <time>2019-07-11T17:24:08Z</time>
      </trkpt>
      <trkpt lat="44.91211" lon="5.19565">
        <ele>914</ele>
        <time>2019-07-11T17:24:14Z</time>
      </trkpt>
      <trkpt lat="44.91203" lon="5.19559">
        <ele>914</ele>
        <time>2019-07-11T17:24:26Z</time>
      </trkpt>
      <trkpt lat="44.91195" lon="5.1955">
        <ele>913</ele>
        <time>2019-07-11T17:24:31Z</time>
      </trkpt>
      <trkpt lat="44.91189" lon="5.19538">
        <ele>912</ele>
        <time>2019-07-11T17:24:40Z</time>
      </trkpt>
      <trkpt lat="44.91187" lon="5.19526">
        <ele>911</ele>
        <time>2019-07-11T17:24:46Z</time>
      </trkpt>
      <trkpt lat="44.91185" lon="5.19503">
        <ele>908</ele>
        <time>2019-07-11T17:24:53Z</time>
      </trkpt>
      <trkpt lat="44.91189" lon="5.19451">
        <ele>909</ele>
        <time>2019-07-11T17:25:06Z</time>
      </trkpt>
      <trkpt lat="44.91192" lon="5.19423">
        <ele>910</ele>
        <time>2019-07-11T17:25:19Z</time>
      </trkpt>
      <trkpt lat="44.91201" lon="5.19385">
        <ele>912</ele>
        <time>2019-07-11T17:25:25Z</time>
      </trkpt>
      <trkpt lat="44.91204" lon="5.1936">
        <ele>913</ele>
        <time>2019-07-11T17:25:30Z</time>
      </trkpt>
      <trkpt lat="44.91205" lon="5.19317">
        <ele>915</ele>
        <time>2019-07-11T17:25:35Z</time>
      </trkpt>
      <trkpt lat="44.91202" lon="5.1926">
        <ele>917</ele>
        <time>2019-07-11T17:25:45Z</time>
      </trkpt>
      <trkpt lat="44.91202" lon="5.1926">
        <ele>917</ele>
        <time>2019-07-11T17:25:58Z</time>
      </trkpt>
      <trkpt lat="44.91202" lon="5.1926">
        <ele>917</ele>
        <time>2019-07-11T17:26:15Z</time>
      </trkpt>
      <trkpt lat="44.91227" lon="5.1926">
        <ele>918</ele>
        <time>2019-07-11T17:26:22Z</time>
      </trkpt>
      <trkpt lat="44.91225" lon="5.1925">
        <ele>918</ele>
        <time>2019-07-11T17:26:31Z</time>
      </trkpt>
      <trkpt lat="44.91219" lon="5.19238">
        <ele>920</ele>
        <time>2019-07-11T17:26:38Z</time>
      </trkpt>
      <trkpt lat="44.91225" lon="5.1925">
        <ele>918</ele>
        <time>2019-07-11T17:26:45Z</time>
      </trkpt>
      <trkpt lat="44.91227" lon="5.1926">
        <ele>918</ele>
        <time>2019-07-11T17:26:51Z</time>
      </trkpt>
      <trkpt lat="44.91303" lon="5.1926">
        <ele>919</ele>
        <time>2019-07-11T17:26:59Z</time>
      </trkpt>
      <trkpt lat="44.9133" lon="5.19265">
        <ele>918</ele>
        <time>2019-07-11T17:27:15Z</time>
      </trkpt>
      <trkpt lat="44.91355" lon="5.19278">
        <ele>918</ele>
        <time>2019-07-11T17:27:25Z</time>
      </trkpt>
      <trkpt lat="44.91397" lon="5.19306">
        <ele>915</ele>
        <time>2019-07-11T17:27:33Z</time>
      </trkpt>
      <trkpt lat="44.91519" lon="5.19374">
        <ele>916</ele>
        <time>2019-07-11T17:27:41Z</time>
      </trkpt>
      <trkpt lat="44.91647" lon="5.19415">
        <ele>914</ele>
        <time>2019-07-11T17:27:47Z</time>
      </trkpt>
      <trkpt lat="44.91755" lon="5.19458">
        <ele>917</ele>
        <time>2019-07-11T17:27:50Z</time>
      </trkpt>
      <trkpt lat="44.91808" lon="5.19485">
        <ele>917</ele>
        <time>2019-07-11T17:27:55Z</time>
      </trkpt>
      <trkpt lat="44.91891" lon="5.19539">
        <ele>917</ele>
        <time>2019-07-11T17:28:01Z</time>
      </trkpt>
      <trkpt lat="44.91924" lon="5.19567">
        <ele>913</ele>
        <time>2019-07-11T17:28:16Z</time>
      </trkpt>
      <trkpt lat="44.91935" lon="5.19571">
        <ele>913</ele>
        <time>2019-07-11T17:28:22Z</time>
      </trkpt>
      <trkpt lat="44.9198" lon="5.1958">
        <ele>914</ele>
        <time>2019-07-11T17:28:31Z</time>
      </trkpt>
      <trkpt lat="44.92005" lon="5.19592">
        <ele>914</ele>
        <time>2019-07-11T17:28:38Z</time>
      </trkpt>
      <trkpt lat="44.92052" lon="5.19631">
        <ele>914</ele>
        <time>2019-07-11T17:28:47Z</time>
      </trkpt>
      <trkpt lat="44.92083" lon="5.19642">
        <ele>913</ele>
        <time>2019-07-11T17:28:53Z</time>
      </trkpt>
      <trkpt lat="44.92154" lon="5.19699">
        <ele>911</ele>
        <time>2019-07-11T17:28:57Z</time>
      </trkpt>
      <trkpt lat="44.92176" lon="5.19726">
        <ele>906</ele>
        <time>2019-07-11T17:29:01Z</time>
      </trkpt>
      <trkpt lat="44.92185" lon="5.19733">
        <ele>905</ele>
        <time>2019-07-11T17:29:05Z</time>
      </trkpt>
      <trkpt lat="44.92261" lon="5.19771">
        <ele>906</ele>
        <time>2019-07-11T17:29:10Z</time>
      </trkpt>
      <trkpt lat="44.92291" lon="5.19794">
        <ele>905</ele>
        <time>2019-07-11T17:29:14Z</time>
      </trkpt>
      <trkpt lat="44.92326" lon="5.19808">
        <ele>904</ele>
        <time>2019-07-11T17:29:24Z</time>
      </trkpt>
      <trkpt lat="44.92361" lon="5.19806">
        <ele>905</ele>
        <time>2019-07-11T17:29:31Z</time>
      </trkpt>
      <trkpt lat="44.92387" lon="5.19801">
        <ele>907</ele>
        <time>2019-07-11T17:29:39Z</time>
      </trkpt>
      <trkpt lat="44.92407" lon="5.19802">
        <ele>907</ele>
        <time>2019-07-11T17:29:55Z</time>
      </trkpt>
      <trkpt lat="44.92453" lon="5.19814">
        <ele>905</ele>
        <time>2019-07-11T17:30:03Z</time>
      </trkpt>
      <trkpt lat="44.92518" lon="5.19828">
        <ele>901</ele>
        <time>2019-07-11T17:30:11Z</time>
      </trkpt>
      <trkpt lat="44.92582" lon="5.19837">
        <ele>900</ele>
        <time>2019-07-11T17:30:18Z</time>
      </trkpt>
      <trkpt lat="44.92645" lon="5.19828">
        <ele>901</ele>
        <time>2019-07-11T17:30:43Z</time>
      </trkpt>
      <trkpt lat="44.92695" lon="5.19846">
        <ele>899</ele>
        <time>2019-07-11T17:30:54Z</time>
      </trkpt>
      <trkpt lat="44.92714" lon="5.19848">
        <ele>899</ele>
        <time>2019-07-11T17:31:04Z</time>
      </trkpt>
      <trkpt lat="44.92726" lon="5.19833">
        <ele>899</ele>
        <time>2019-07-11T17:31:19Z</time>
      </trkpt>
      <trkpt lat="44.9276" lon="5.19822">
        <ele>903</ele>
        <time>2019-07-11T17:31:28Z</time>
      </trkpt>
      <trkpt lat="44.92813" lon="5.19831">
        <ele>905</ele>
        <time>2019-07-11T17:31:37Z</time>
      </trkpt>
      <trkpt lat="44.92851" lon="5.19852">
        <ele>904</ele>
        <time>2019-07-11T17:31:48Z</time>
      </trkpt>
      <trkpt lat="44.92894" lon="5.19862">
        <ele>905</ele>
        <time>2019-07-11T17:32:08Z</time>
      </trkpt>
      <trkpt lat="44.9294" lon="5.19881">
        <ele>901</ele>
        <time>2019-07-11T17:32:14Z</time>
      </trkpt>
      <trkpt lat="44.93017" lon="5.19893">
        <ele>901</ele>
        <time>2019-07-11T17:32:25Z</time>
      </trkpt>
      <trkpt lat="44.93042" lon="5.19905">
        <ele>896</ele>
        <time>2019-07-11T17:32:39Z</time>
      </trkpt>
      <trkpt lat="44.93102" lon="5.19953">
        <ele>888</ele>
        <time>2019-07-11T17:32:56Z</time>
      </trkpt>
      <trkpt lat="44.93126" lon="5.19967">
        <ele>887</ele>
        <time>2019-07-11T17:33:03Z</time>
      </trkpt>
      <trkpt lat="44.93172" lon="5.19981">
        <ele>884</ele>
        <time>2019-07-11T17:33:09Z</time>
      </trkpt>
      <trkpt lat="44.93211" lon="5.20004">
        <ele>878</ele>
        <time>2019-07-11T17:33:15Z</time>
      </trkpt>
      <trkpt lat="44.93231" lon="5.20011">
        <ele>878</ele>
        <time>2019-07-11T17:33:21Z</time>
      </trkpt>
      <trkpt lat="44.93289" lon="5.2001">
        <ele>877</ele>
        <time>2019-07-11T17:33:24Z</time>
      </trkpt>
      <trkpt lat="44.93313" lon="5.20015">
        <ele>877</ele>
        <time>2019-07-11T17:33:27Z</time>
      </trkpt>
      <trkpt lat="44.93364" lon="5.20046">
        <ele>876</ele>
        <time>2019-07-11T17:33:28Z</time>
      </trkpt>
      <trkpt lat="44.93538" lon="5.20131">
        <ele>873</ele>
        <time>2019-07-11T17:33:30Z</time>
      </trkpt>
      <trkpt lat="44.93564" lon="5.20147">
        <ele>868</ele>
        <time>2019-07-11T17:33:34Z</time>
      </trkpt>
      <trkpt lat="44.93586" lon="5.20163">
        <ele>861</ele>
        <time>2019-07-11T17:33:37Z</time>
      </trkpt>
      <trkpt lat="44.93686" lon="5.2022">
        <ele>863</ele>
        <time>2019-07-11T17:33:41Z</time>
      </trkpt>
      <trkpt lat="44.93866" lon="5.20334">
        <ele>856</ele>
        <time>2019-07-11T17:33:44Z</time>
      </trkpt>
      <trkpt lat="44.93874" lon="5.20342">
        <ele>857</ele>
        <time>2019-07-11T17:33:46Z</time>
      </trkpt>
      <trkpt lat="44.93888" lon="5.20376">
        <ele>850</ele>
        <time>2019-07-11T17:33:49Z</time>
      </trkpt>
      <trkpt lat="44.93986" lon="5.20441">
        <ele>849</ele>
        <time>2019-07-11T17:33:51Z</time>
      </trkpt>
      <trkpt lat="44.9401" lon="5.20461">
        <ele>845</ele>
        <time>2019-07-11T17:33:53Z</time>
      </trkpt>
      <trkpt lat="44.94038" lon="5.20496">
        <ele>838</ele>
        <time>2019-07-11T17:33:58Z</time>
      </trkpt>
      <trkpt lat="44.94116" lon="5.20527">
        <ele>843</ele>
        <time>2019-07-11T17:34:02Z</time>
      </trkpt>
      <trkpt lat="44.94136" lon="5.20556">
        <ele>836</ele>
        <time>2019-07-11T17:34:06Z</time>
      </trkpt>
      <trkpt lat="44.94181" lon="5.2057">
        <ele>836</ele>
        <time>2019-07-11T17:34:13Z</time>
      </trkpt>
      <trkpt lat="44.942" lon="5.20584">
        <ele>834</ele>
        <time>2019-07-11T17:34:18Z</time>
      </trkpt>
      <trkpt lat="44.94304" lon="5.20715">
        <ele>820</ele>
        <time>2019-07-11T17:34:23Z</time>
      </trkpt>
      <trkpt lat="44.94338" lon="5.20733">
        <ele>818</ele>
        <time>2019-07-11T17:34:28Z</time>
      </trkpt>
      <trkpt lat="44.94421" lon="5.2077">
        <ele>819</ele>
        <time>2019-07-11T17:34:37Z</time>
      </trkpt>
      <trkpt lat="44.945" lon="5.20841">
        <ele>813</ele>
        <time>2019-07-11T17:34:49Z</time>
      </trkpt>
      <trkpt lat="44.94619" lon="5.20896">
        <ele>813</ele>
        <time>2019-07-11T17:34:54Z</time>
      </trkpt>
      <trkpt lat="44.9469" lon="5.20911">
        <ele>812</ele>
        <time>2019-07-11T17:35:00Z</time>
      </trkpt>
      <trkpt lat="44.94711" lon="5.2091">
        <ele>813</ele>
        <time>2019-07-11T17:35:04Z</time>
      </trkpt>
      <trkpt lat="44.9473" lon="5.20889">
        <ele>822</ele>
        <time>2019-07-11T17:35:07Z</time>
      </trkpt>
      <trkpt lat="44.9474" lon="5.20888">
        <ele>823</ele>
        <time>2019-07-11T17:35:14Z</time>
      </trkpt>
      <trkpt lat="44.9475" lon="5.20899">
        <ele>819</ele>
        <time>2019-07-11T17:35:18Z</time>
      </trkpt>
      <trkpt lat="44.94766" lon="5.20946">
        <ele>809</ele>
        <time>2019-07-11T17:35:24Z</time>
      </trkpt>
      <trkpt lat="44.94789" lon="5.20966">
        <ele>806</ele>
        <time>2019-07-11T17:35:28Z</time>
      </trkpt>
      <trkpt lat="44.94811" lon="5.20968">
        <ele>807</ele>
        <time>2019-07-11T17:35:35Z</time>
      </trkpt>
      <trkpt lat="44.94837" lon="5.20966">
        <ele>810</ele>
        <time>2019-07-11T17:35:46Z</time>
      </trkpt>
      <trkpt lat="44.94867" lon="5.20972">
        <ele>815</ele>
        <time>2019-07-11T17:35:58Z</time>
      </trkpt>
      <trkpt lat="44.94898" lon="5.21005">
        <ele>810</ele>
        <time>2019-07-11T17:36:01Z</time>
      </trkpt>
      <trkpt lat="44.94937" lon="5.21055">
        <ele>804</ele>
        <time>2019-07-11T17:36:04Z</time>
      </trkpt>
      <trkpt lat="44.94957" lon="5.21097">
        <ele>799</ele>
        <time>2019-07-11T17:36:07Z</time>
      </trkpt>
      <trkpt lat="44.94976" lon="5.21111">
        <ele>800</ele>
        <time>2019-07-11T17:36:32Z</time>
      </trkpt>
      <trkpt lat="44.94999" lon="5.2112">
        <ele>800</ele>
        <time>2019-07-11T17:36:42Z</time>
      </trkpt>
      <trkpt lat="44.95025" lon="5.21154">
        <ele>796</ele>
        <time>2019-07-11T17:36:46Z</time>
      </trkpt>
      <trkpt lat="44.95042" lon="5.21163">
        <ele>795</ele>
        <time>2019-07-11T17:36:52Z</time>
      </trkpt>
      <trkpt lat="44.95083" lon="5.21163">
        <ele>797</ele>
        <time>2019-07-11T17:36:57Z</time>
      </trkpt>
      <trkpt lat="44.9513" lon="5.21187">
        <ele>799</ele>
        <time>2019-07-11T17:37:03Z</time>
      </trkpt>
      <trkpt lat="44.95232" lon="5.21263">
        <ele>787</ele>
        <time>2019-07-11T17:37:06Z</time>
      </trkpt>
      <trkpt lat="44.95289" lon="5.21288">
        <ele>790</ele>
        <time>2019-07-11T17:37:08Z</time>
      </trkpt>
      <trkpt lat="44.95348" lon="5.21311">
        <ele>787</ele>
        <time>2019-07-11T17:37:12Z</time>
      </trkpt>
      <trkpt lat="44.95396" lon="5.21352">
        <ele>783</ele>
        <time>2019-07-11T17:37:35Z</time>
      </trkpt>
      <trkpt lat="44.9544" lon="5.21393">
        <ele>776</ele>
        <time>2019-07-11T17:37:40Z</time>
      </trkpt>
      <trkpt lat="44.95469" lon="5.21409">
        <ele>770</ele>
        <time>2019-07-11T17:37:46Z</time>
      </trkpt>
      <trkpt lat="44.95506" lon="5.21408">
        <ele>769</ele>
        <time>2019-07-11T17:38:10Z</time>
      </trkpt>
      <trkpt lat="44.95547" lon="5.2142">
        <ele>769</ele>
        <time>2019-07-11T17:38:16Z</time>
      </trkpt>
      <trkpt lat="44.95591" lon="5.21451">
        <ele>767</ele>
        <time>2019-07-11T17:38:24Z</time>
      </trkpt>
      <trkpt lat="44.95615" lon="5.21487">
        <ele>764</ele>
        <time>2019-07-11T17:38:35Z</time>
      </trkpt>
      <trkpt lat="44.95631" lon="5.21525">
        <ele>761</ele>
        <time>2019-07-11T17:38:47Z</time>
      </trkpt>
      <trkpt lat="44.95643" lon="5.21561">
        <ele>757</ele>
        <time>2019-07-11T17:38:55Z</time>
      </trkpt>
      <trkpt lat="44.95671" lon="5.21584">
        <ele>750</ele>
        <time>2019-07-11T17:39:16Z</time>
      </trkpt>
      <trkpt lat="44.95735" lon="5.21595">
        <ele>752</ele>
        <time>2019-07-11T17:39:22Z</time>
      </trkpt>
      <trkpt lat="44.95762" lon="5.21587">
        <ele>751</ele>
        <time>2019-07-11T17:39:29Z</time>
      </trkpt>
      <trkpt lat="44.95815" lon="5.21564">
        <ele>756</ele>
        <time>2019-07-11T17:39:33Z</time>
      </trkpt>
      <trkpt lat="44.95845" lon="5.21568">
        <ele>754</ele>
        <time>2019-07-11T17:39:37Z</time>
      </trkpt>
      <trkpt lat="44.95882" lon="5.21587">
        <ele>747</ele>
        <time>2019-07-11T17:39:41Z</time>
      </trkpt>
      <trkpt lat="44.95956" lon="5.21612">
        <ele>747</ele>
        <time>2019-07-11T17:39:44Z</time>
      </trkpt>
      <trkpt lat="44.96028" lon="5.21627">
        <ele>745</ele>
        <time>2019-07-11T17:39:48Z</time>
      </trkpt>
      <trkpt lat="44.96056" lon="5.21646">
        <ele>741</ele>
        <time>2019-07-11T17:39:53Z</time>
      </trkpt>
      <trkpt lat="44.96075" lon="5.21674">
        <ele>735</ele>
        <time>2019-07-11T17:40:08Z</time>
      </trkpt>
      <trkpt lat="44.96095" lon="5.21708">
        <ele>735</ele>
        <time>2019-07-11T17:40:22Z</time>
      </trkpt>
      <trkpt lat="44.96146" lon="5.21744">
        <ele>735</ele>
        <time>2019-07-11T17:40:30Z</time>
      </trkpt>
      <trkpt lat="44.96205" lon="5.21802">
        <ele>739</ele>
        <time>2019-07-11T17:40:33Z</time>
      </trkpt>
      <trkpt lat="44.9628" lon="5.21885">
        <ele>732</ele>
        <time>2019-07-11T17:40:35Z</time>
      </trkpt>
      <trkpt lat="44.96317" lon="5.21907">
        <ele>729</ele>
        <time>2019-07-11T17:40:37Z</time>
      </trkpt>
      <trkpt lat="44.96362" lon="5.21924">
        <ele>730</ele>
        <time>2019-07-11T17:40:44Z</time>
      </trkpt>
      <trkpt lat="44.96398" lon="5.21954">
        <ele>731</ele>
        <time>2019-07-11T17:40:49Z</time>
      </trkpt>
      <trkpt lat="44.96435" lon="5.2197">
        <ele>734</ele>
        <time>2019-07-11T17:40:51Z</time>
      </trkpt>
      <trkpt lat="44.96467" lon="5.21993">
        <ele>736</ele>
        <time>2019-07-11T17:40:55Z</time>
      </trkpt>
      <trkpt lat="44.96499" lon="5.22036">
        <ele>733</ele>
        <time>2019-07-11T17:41:03Z</time>
      </trkpt>
      <trkpt lat="44.96557" lon="5.22131">
        <ele>727</ele>
        <time>2019-07-11T17:41:09Z</time>
      </trkpt>
      <trkpt lat="44.96598" lon="5.22182">
        <ele>724</ele>
        <time>2019-07-11T17:41:10Z</time>
      </trkpt>
      <trkpt lat="44.96628" lon="5.22228">
        <ele>725</ele>
        <time>2019-07-11T17:41:22Z</time>
      </trkpt>
      <trkpt lat="44.96647" lon="5.22287">
        <ele>718</ele>
        <time>2019-07-11T17:41:31Z</time>
      </trkpt>
      <trkpt lat="44.96656" lon="5.22331">
        <ele>708</ele>
        <time>2019-07-11T17:41:33Z</time>
      </trkpt>
      <trkpt lat="44.96669" lon="5.22355">
        <ele>703</ele>
        <time>2019-07-11T17:41:37Z</time>
      </trkpt>
      <trkpt lat="44.96696" lon="5.2237">
        <ele>703</ele>
        <time>2019-07-11T17:41:39Z</time>
      </trkpt>
      <trkpt lat="44.96727" lon="5.22373">
        <ele>705</ele>
        <time>2019-07-11T17:41:41Z</time>
      </trkpt>
      <trkpt lat="44.96809" lon="5.22354">
        <ele>713</ele>
        <time>2019-07-11T17:41:48Z</time>
      </trkpt>
      <trkpt lat="44.96846" lon="5.22361">
        <ele>714</ele>
        <time>2019-07-11T17:41:49Z</time>
      </trkpt>
      <trkpt lat="44.96887" lon="5.22392">
        <ele>713</ele>
        <time>2019-07-11T17:41:55Z</time>
      </trkpt>
      <trkpt lat="44.9691" lon="5.22437">
        <ele>706</ele>
        <time>2019-07-11T17:41:58Z</time>
      </trkpt>
      <trkpt lat="44.96927" lon="5.22508">
        <ele>695</ele>
        <time>2019-07-11T17:42:04Z</time>
      </trkpt>
      <trkpt lat="44.96936" lon="5.22555">
        <ele>689</ele>
        <time>2019-07-11T17:42:11Z</time>
      </trkpt>
      <trkpt lat="44.96953" lon="5.22578">
        <ele>692</ele>
        <time>2019-07-11T17:42:18Z</time>
      </trkpt>
      <trkpt lat="44.96964" lon="5.226">
        <ele>695</ele>
        <time>2019-07-11T17:42:21Z</time>
      </trkpt>
      <trkpt lat="44.96964" lon="5.22631">
        <ele>692</ele>
        <time>2019-07-11T17:42:25Z</time>
      </trkpt>
      <trkpt lat="44.96957" lon="5.22668">
        <ele>686</ele>
        <time>2019-07-11T17:42:32Z</time>
      </trkpt>
      <trkpt lat="44.96952" lon="5.22706">
        <ele>683</ele>
        <time>2019-07-11T17:42:37Z</time>
      </trkpt>
      <trkpt lat="44.9696" lon="5.22778">
        <ele>684</ele>
        <time>2019-07-11T17:42:44Z</time>
      </trkpt>
      <trkpt lat="44.96964" lon="5.22835">
        <ele>681</ele>
        <time>2019-07-11T17:42:47Z</time>
      </trkpt>
      <trkpt lat="44.96977" lon="5.22894">
        <ele>676</ele>
        <time>2019-07-11T17:42:52Z</time>
      </trkpt>
      <trkpt lat="44.97026" lon="5.23002">
        <ele>672</ele>
        <time>2019-07-11T17:42:55Z</time>
      </trkpt>
      <trkpt lat="44.97044" lon="5.23059">
        <ele>672</ele>
        <time>2019-07-11T17:43:05Z</time>
      </trkpt>
      <trkpt lat="44.97053" lon="5.23128">
        <ele>665</ele>
        <time>2019-07-11T17:43:20Z</time>
      </trkpt>
      <trkpt lat="44.97063" lon="5.23182">
        <ele>660</ele>
        <time>2019-07-11T17:43:29Z</time>
      </trkpt>
      <trkpt lat="44.97123" lon="5.23357">
        <ele>659</ele>
        <time>2019-07-11T17:43:39Z</time>
      </trkpt>
      <trkpt lat="44.97146" lon="5.23437">
        <ele>659</ele>
        <time>2019-07-11T17:43:43Z</time>
      </trkpt>
      <trkpt lat="44.97162" lon="5.23515">
        <ele>656</ele>
        <time>2019-07-11T17:43:46Z</time>
      </trkpt>
      <trkpt lat="44.97182" lon="5.23632">
        <ele>650</ele>
        <time>2019-07-11T17:43:55Z</time>
      </trkpt>
      <trkpt lat="44.97189" lon="5.23702">
        <ele>646</ele>
        <time>2019-07-11T17:44:08Z</time>
      </trkpt>
      <trkpt lat="44.97187" lon="5.23776">
        <ele>634</ele>
        <time>2019-07-11T17:44:27Z</time>
      </trkpt>
      <trkpt lat="44.97212" lon="5.23848">
        <ele>639</ele>
        <time>2019-07-11T17:44:34Z</time>
      </trkpt>
      <trkpt lat="44.97231" lon="5.24008">
        <ele>625</ele>
        <time>2019-07-11T17:44:40Z</time>
      </trkpt>
      <trkpt lat="44.97243" lon="5.24057">
        <ele>622</ele>
        <time>2019-07-11T17:44:48Z</time>
      </trkpt>
      <trkpt lat="44.97278" lon="5.2412">
        <ele>618</ele>
        <time>2019-07-11T17:44:59Z</time>
      </trkpt>
      <trkpt lat="44.97339" lon="5.24194">
        <ele>619</ele>
        <time>2019-07-11T17:45:06Z</time>
      </trkpt>
      <trkpt lat="44.97402" lon="5.24301">
        <ele>609</ele>
        <time>2019-07-11T17:45:14Z</time>
      </trkpt>
      <trkpt lat="44.97424" lon="5.24348">
        <ele>604</ele>
        <time>2019-07-11T17:45:22Z</time>
      </trkpt>
      <trkpt lat="44.97429" lon="5.24389">
        <ele>599</ele>
        <time>2019-07-11T17:46:03Z</time>
      </trkpt>
      <trkpt lat="44.9744" lon="5.24434">
        <ele>594</ele>
        <time>2019-07-11T17:46:08Z</time>
      </trkpt>
      <trkpt lat="44.97472" lon="5.24451">
        <ele>598</ele>
        <time>2019-07-11T17:46:22Z</time>
      </trkpt>
      <trkpt lat="44.97484" lon="5.24473">
        <ele>599</ele>
        <time>2019-07-11T17:46:30Z</time>
      </trkpt>
      <trkpt lat="44.97497" lon="5.2447">
        <ele>603</ele>
        <time>2019-07-11T17:46:46Z</time>
      </trkpt>
      <trkpt lat="44.97501" lon="5.24459">
        <ele>604</ele>
        <time>2019-07-11T17:46:54Z</time>
      </trkpt>
      <trkpt lat="44.97499" lon="5.24444">
        <ele>605</ele>
        <time>2019-07-11T17:47:03Z</time>
      </trkpt>
      <trkpt lat="44.97486" lon="5.24422">
        <ele>604</ele>
        <time>2019-07-11T17:47:36Z</time>
      </trkpt>
      <trkpt lat="44.97481" lon="5.244">
        <ele>605</ele>
        <time>2019-07-11T17:47:46Z</time>
      </trkpt>
      <trkpt lat="44.97488" lon="5.24365">
        <ele>608</ele>
        <time>2019-07-11T17:47:55Z</time>
      </trkpt>
      <trkpt lat="44.97499" lon="5.24351">
        <ele>610</ele>
        <time>2019-07-11T17:48:05Z</time>
      </trkpt>
      <trkpt lat="44.9751" lon="5.24342">
        <ele>610</ele>
        <time>2019-07-11T17:48:08Z</time>
      </trkpt>
      <trkpt lat="44.97524" lon="5.24337">
        <ele>611</ele>
        <time>2019-07-11T17:48:14Z</time>
      </trkpt>
      <trkpt lat="44.97536" lon="5.2434">
        <ele>610</ele>
        <time>2019-07-11T17:48:24Z</time>
      </trkpt>
      <trkpt lat="44.97548" lon="5.24347">
        <ele>610</ele>
        <time>2019-07-11T17:48:29Z</time>
      </trkpt>
      <trkpt lat="44.97562" lon="5.24377">
        <ele>607</ele>
        <time>2019-07-11T17:48:34Z</time>
      </trkpt>
      <trkpt lat="44.97583" lon="5.24401">
        <ele>604</ele>
        <time>2019-07-11T17:48:46Z</time>
      </trkpt>
      <trkpt lat="44.97602" lon="5.24417">
        <ele>602</ele>
        <time>2019-07-11T17:48:54Z</time>
      </trkpt>
      <trkpt lat="44.97636" lon="5.2443">
        <ele>601</ele>
        <time>2019-07-11T17:50:43Z</time>
      </trkpt>
      <trkpt lat="44.97667" lon="5.24434">
        <ele>600</ele>
        <time>2019-07-11T17:50:49Z</time>
      </trkpt>
      <trkpt lat="44.9769" lon="5.24445">
        <ele>599</ele>
        <time>2019-07-11T17:50:55Z</time>
      </trkpt>
      <trkpt lat="44.97714" lon="5.24468">
        <ele>597</ele>
        <time>2019-07-11T17:51:13Z</time>
      </trkpt>
      <trkpt lat="44.97749" lon="5.24528">
        <ele>588</ele>
        <time>2019-07-11T17:51:18Z</time>
      </trkpt>
      <trkpt lat="44.97794" lon="5.24595">
        <ele>579</ele>
        <time>2019-07-11T17:51:27Z</time>
      </trkpt>
      <trkpt lat="44.97817" lon="5.24611">
        <ele>580</ele>
        <time>2019-07-11T17:52:36Z</time>
      </trkpt>
      <trkpt lat="44.97854" lon="5.24613">
        <ele>581</ele>
        <time>2019-07-11T17:52:40Z</time>
      </trkpt>
      <trkpt lat="44.97875" lon="5.2461">
        <ele>581</ele>
        <time>2019-07-11T17:53:33Z</time>
      </trkpt>
      <trkpt lat="44.97889" lon="5.24629">
        <ele>579</ele>
        <time>2019-07-11T17:53:47Z</time>
      </trkpt>
      <trkpt lat="44.97889" lon="5.24678">
        <ele>574</ele>
        <time>2019-07-11T17:53:51Z</time>
      </trkpt>
      <trkpt lat="44.97897" lon="5.24709">
        <ele>570</ele>
        <time>2019-07-11T17:53:54Z</time>
      </trkpt>
      <trkpt lat="44.9792" lon="5.24741">
        <ele>567</ele>
        <time>2019-07-11T17:54:04Z</time>
      </trkpt>
      <trkpt lat="44.97945" lon="5.24751">
        <ele>564</ele>
        <time>2019-07-11T17:54:10Z</time>
      </trkpt>
      <trkpt lat="44.97985" lon="5.24747">
        <ele>563</ele>
        <time>2019-07-11T15:07:41Z</time>
      </trkpt>
      <trkpt lat="44.98044" lon="5.24726">
        <ele>563</ele>
        <time>2019-07-11T15:07:41Z</time>
      </trkpt>
      <trkpt lat="44.98102" lon="5.24676">
        <ele>566</ele>
        <time>2019-07-11T15:07:42Z</time>
      </trkpt>
      <trkpt lat="44.98117" lon="5.24691">
        <ele>562</ele>
        <time>2019-07-11T15:07:43Z</time>
      </trkpt>
      <trkpt lat="44.98117" lon="5.2471">
        <ele>559</ele>
        <time>2019-07-11T15:07:46Z</time>
      </trkpt>
      <trkpt lat="44.98103" lon="5.24724">
        <ele>558</ele>
        <time>2019-07-11T15:07:46Z</time>
      </trkpt>
      <trkpt lat="44.97995" lon="5.24848">
        <ele>549</ele>
        <time>2019-07-11T15:07:50Z</time>
      </trkpt>
      <trkpt lat="44.9795" lon="5.24906">
        <ele>541</ele>
        <time>2019-07-11T15:08:03Z</time>
      </trkpt>
      <trkpt lat="44.97929" lon="5.24915">
        <ele>540</ele>
        <time>2019-07-11T15:08:08Z</time>
      </trkpt>
      <trkpt lat="44.979" lon="5.24924">
        <ele>540</ele>
        <time>2019-07-11T15:08:12Z</time>
      </trkpt>
      <trkpt lat="44.97876" lon="5.24949">
        <ele>538</ele>
      </trkpt>
      <trkpt lat="44.97851" lon="5.24984">
        <ele>535</ele>
      </trkpt>
      <trkpt lat="44.97848" lon="5.25002">
        <ele>534</ele>
      </trkpt>
      <trkpt lat="44.97855" lon="5.25018">
        <ele>532</ele>
      </trkpt>
      <trkpt lat="44.97876" lon="5.25019">
        <ele>532</ele>
      </trkpt>
      <trkpt lat="44.98002" lon="5.24982">
        <ele>528</ele>
      </trkpt>
      <trkpt lat="44.98034" lon="5.24978">
        <ele>527</ele>
      </trkpt>
      <trkpt lat="44.98068" lon="5.24983">
        <ele>524</ele>
      </trkpt>
      <trkpt lat="44.98201" lon="5.25011">
        <ele>517</ele>
      </trkpt>
      <trkpt lat="44.98233" lon="5.25026">
        <ele>515</ele>
      </trkpt>
      <trkpt lat="44.98274" lon="5.25033">
        <ele>513</ele>
      </trkpt>
      <trkpt lat="44.98337" lon="5.25029">
        <ele>508</ele>
      </trkpt>
      <trkpt lat="44.98401" lon="5.25008">
        <ele>506</ele>
      </trkpt>
      <trkpt lat="44.98448" lon="5.25008">
        <ele>502</ele>
      </trkpt>
      <trkpt lat="44.98567" lon="5.25013">
        <ele>494</ele>
      </trkpt>
      <trkpt lat="44.986" lon="5.25005">
        <ele>494</ele>
      </trkpt>
      <trkpt lat="44.98637" lon="5.24987">
        <ele>495</ele>
      </trkpt>
      <trkpt lat="44.98659" lon="5.24986">
        <ele>494</ele>
      </trkpt>
      <trkpt lat="44.9868" lon="5.24998">
        <ele>492</ele>
      </trkpt>
      <trkpt lat="44.98693" lon="5.25028">
        <ele>490</ele>
      </trkpt>
      <trkpt lat="44.987" lon="5.25049">
        <ele>489</ele>
      </trkpt>
      <trkpt lat="44.98703" lon="5.2508">
        <ele>486</ele>
      </trkpt>
      <trkpt lat="44.98702" lon="5.2512">
        <ele>484</ele>
      </trkpt>
      <trkpt lat="44.98659" lon="5.25221">
        <ele>474</ele>
      </trkpt>
      <trkpt lat="44.98602" lon="5.25301">
        <ele>465</ele>
      </trkpt>
      <trkpt lat="44.98575" lon="5.25343">
        <ele>464</ele>
      </trkpt>
      <trkpt lat="44.98569" lon="5.25365">
        <ele>464</ele>
      </trkpt>
      <trkpt lat="44.98575" lon="5.2538">
        <ele>466</ele>
      </trkpt>
      <trkpt lat="44.98586" lon="5.25389">
        <ele>467</ele>
      </trkpt>
      <trkpt lat="44.98601" lon="5.25438">
        <ele>464</ele>
      </trkpt>
      <trkpt lat="44.98598" lon="5.25478">
        <ele>462</ele>
      </trkpt>
      <trkpt lat="44.98594" lon="5.25495">
        <ele>461</ele>
      </trkpt>
      <trkpt lat="44.98581" lon="5.25523">
        <ele>460</ele>
      </trkpt>
      <trkpt lat="44.98549" lon="5.25563">
        <ele>458</ele>
      </trkpt>
      <trkpt lat="44.98518" lon="5.25587">
        <ele>459</ele>
      </trkpt>
      <trkpt lat="44.98517" lon="5.25595">
        <ele>458</ele>
      </trkpt>
      <trkpt lat="44.98549" lon="5.25682">
        <ele>443</ele>
      </trkpt>
      <trkpt lat="44.98562" lon="5.25749">
        <ele>434</ele>
      </trkpt>
      <trkpt lat="44.98567" lon="5.25757">
        <ele>433</ele>
      </trkpt>
      <trkpt lat="44.98588" lon="5.2577">
        <ele>428</ele>
      </trkpt>
      <trkpt lat="44.98599" lon="5.25783">
        <ele>425</ele>
      </trkpt>
      <trkpt lat="44.98599" lon="5.258">
        <ele>424</ele>
      </trkpt>
      <trkpt lat="44.98586" lon="5.25849">
        <ele>423</ele>
      </trkpt>
      <trkpt lat="44.98586" lon="5.2586">
        <ele>422</ele>
      </trkpt>
      <trkpt lat="44.98617" lon="5.2588">
        <ele>415</ele>
      </trkpt>
      <trkpt lat="44.98631" lon="5.25876">
        <ele>412</ele>
      </trkpt>
      <trkpt lat="44.98658" lon="5.25844">
        <ele>409</ele>
      </trkpt>
      <trkpt lat="44.98691" lon="5.25819">
        <ele>408</ele>
      </trkpt>
      <trkpt lat="44.98725" lon="5.25795">
        <ele>408</ele>
      </trkpt>
      <trkpt lat="44.98745" lon="5.25796">
        <ele>407</ele>
      </trkpt>
      <trkpt lat="44.98762" lon="5.25818">
        <ele>403</ele>
      </trkpt>
      <trkpt lat="44.98799" lon="5.25818">
        <ele>402</ele>
      </trkpt>
      <trkpt lat="44.98824" lon="5.25799">
        <ele>404</ele>
      </trkpt>
      <trkpt lat="44.98866" lon="5.25796">
        <ele>403</ele>
      </trkpt>
      <trkpt lat="44.98878" lon="5.25807">
        <ele>401</ele>
      </trkpt>
      <trkpt lat="44.98881" lon="5.25844">
        <ele>396</ele>
      </trkpt>
      <trkpt lat="44.98892" lon="5.25869">
        <ele>393</ele>
      </trkpt>
      <trkpt lat="44.98947" lon="5.2587">
        <ele>392</ele>
      </trkpt>
      <trkpt lat="44.99024" lon="5.25907">
        <ele>389</ele>
      </trkpt>
      <trkpt lat="44.99039" lon="5.25982">
        <ele>381</ele>
      </trkpt>
      <trkpt lat="44.99064" lon="5.26051">
        <ele>374</ele>
      </trkpt>
      <trkpt lat="44.99084" lon="5.26056">
        <ele>375</ele>
      </trkpt>
      <trkpt lat="44.99095" lon="5.26077">
        <ele>371</ele>
      </trkpt>
      <trkpt lat="44.9905" lon="5.261">
        <ele>368</ele>
      </trkpt>
      <trkpt lat="44.98996" lon="5.26174">
        <ele>362</ele>
      </trkpt>
      <trkpt lat="44.98928" lon="5.26292">
        <ele>356</ele>
      </trkpt>
      <trkpt lat="44.98915" lon="5.26344">
        <ele>355</ele>
      </trkpt>
      <trkpt lat="44.98918" lon="5.26389">
        <ele>353</ele>
      </trkpt>
      <trkpt lat="44.9893" lon="5.26455">
        <ele>350</ele>
      </trkpt>
      <trkpt lat="44.98953" lon="5.26537">
        <ele>345</ele>
      </trkpt>
      <trkpt lat="44.9896" lon="5.26591">
        <ele>338</ele>
      </trkpt>
      <trkpt lat="44.98983" lon="5.26644">
        <ele>337</ele>
      </trkpt>
      <trkpt lat="44.99017" lon="5.26687">
        <ele>339</ele>
      </trkpt>
      <trkpt lat="44.99198" lon="5.26885">
        <ele>339</ele>
      </trkpt>
      <trkpt lat="44.99216" lon="5.26919">
        <ele>337</ele>
      </trkpt>
      <trkpt lat="44.99249" lon="5.27015">
        <ele>326</ele>
      </trkpt>
      <trkpt lat="44.99281" lon="5.27059">
        <ele>322</ele>
      </trkpt>
      <trkpt lat="44.99352" lon="5.27139">
        <ele>316</ele>
      </trkpt>
      <trkpt lat="44.99383" lon="5.27183">
        <ele>314</ele>
      </trkpt>
      <trkpt lat="44.99423" lon="5.27235">
        <ele>311</ele>
      </trkpt>
      <trkpt lat="44.99584" lon="5.27367">
        <ele>295</ele>
      </trkpt>
      <trkpt lat="44.99635" lon="5.27392">
        <ele>294</ele>
      </trkpt>
      <trkpt lat="44.99684" lon="5.27405">
        <ele>292</ele>
      </trkpt>
      <trkpt lat="44.99743" lon="5.27416">
        <ele>287</ele>
      </trkpt>
      <trkpt lat="44.99754" lon="5.27407">
        <ele>290</ele>
      </trkpt>
      <trkpt lat="44.99787" lon="5.27393">
        <ele>293</ele>
      </trkpt>
      <trkpt lat="44.99843" lon="5.27416">
        <ele>285</ele>
      </trkpt>
      <trkpt lat="44.99869" lon="5.27423">
        <ele>285</ele>
      </trkpt>
      <trkpt lat="44.99894" lon="5.27442">
        <ele>283</ele>
      </trkpt>
      <trkpt lat="44.99941" lon="5.27511">
        <ele>277</ele>
      </trkpt>
      <trkpt lat="44.99971" lon="5.27553">
        <ele>276</ele>
      </trkpt>
      <trkpt lat="45.0049" lon="5.28019">
        <ele>258</ele>
      </trkpt>
      <trkpt lat="45.00512" lon="5.28055">
        <ele>256</ele>
      </trkpt>
      <trkpt lat="45.00521" lon="5.28103">
        <ele>254</ele>
      </trkpt>
      <trkpt lat="45.0051" lon="5.28243">
        <ele>253</ele>
      </trkpt>
      <trkpt lat="45.00524" lon="5.2828">
        <ele>256</ele>
      </trkpt>
      <trkpt lat="45.00564" lon="5.28315">
        <ele>255</ele>
      </trkpt>
      <trkpt lat="45.00902" lon="5.28587">
        <ele>250</ele>
      </trkpt>
      <trkpt lat="45.00918" lon="5.28608">
        <ele>250</ele>
      </trkpt>
      <trkpt lat="45.01177" lon="5.28821">
        <ele>255</ele>
      </trkpt>
      <trkpt lat="45.01254" lon="5.28848">
        <ele>253</ele>
      </trkpt>
      <trkpt lat="45.01268" lon="5.28869">
        <ele>255</ele>
      </trkpt>
      <trkpt lat="45.0128" lon="5.28892">
        <ele>257</ele>
      </trkpt>
      <trkpt lat="45.01305" lon="5.28961">
        <ele>259</ele>
      </trkpt>
      <trkpt lat="45.0132" lon="5.29">
        <ele>260</ele>
      </trkpt>
      <trkpt lat="45.01341" lon="5.2905">
        <ele>258.9</ele>
      </trkpt>
      <trkpt lat="45.01342" lon="5.29056">
        <ele>260</ele>
      </trkpt>
      <trkpt lat="45.01342" lon="5.29056">
        <ele>260</ele>
      </trkpt>
      <trkpt lat="45.01344" lon="5.29059">
        <ele>260</ele>
      </trkpt>
      <trkpt lat="45.01343" lon="5.29072">
        <ele>261</ele>
      </trkpt>
      <trkpt lat="45.01335" lon="5.2909">
        <ele>263</ele>
      </trkpt>
      <trkpt lat="45.01335" lon="5.29094">
        <ele>263</ele>
      </trkpt>
      <trkpt lat="45.01355" lon="5.29099">
        <ele>263</ele>
      </trkpt>
      <trkpt lat="45.01428" lon="5.29121">
        <ele>261</ele>
      </trkpt>
      <trkpt lat="45.01454" lon="5.29118">
        <ele>259</ele>
      </trkpt>
    </trkseg>
  </trk>
</gpx>